<?xml version="1.0" encoding="UTF-8" standalone="no" ?>
<gpx xmlns="http://www.topografix.com/GPX/1/1" xmlns:xsi="http://www.w3.org/2001/XMLSchema-instance" xsi:schemaLocation="http://www.topografix.com/GPX/1/1 http://www.topografix.com/GPX/1/1/gpx.xsd" version="1.1" creator="VisuGPX - https://www.visugpx.com">
  <metadata>
    <name>Bessines circuit 2b</name>
    <desc><![CDATA[départ et retour de Bessines parking de La Grange .
Campagne et retour par zône de la Mude .]]></desc>
  </metadata>
  <trk>
    <name><![CDATA[Bessines circuit 2b_1]]></name>
    <extensions>
      <line xmlns="http://www.topografix.com/GPX/gpx_style/0/2">
        <color>0000FF</color>
        <width>4</width>
      </line>
    </extensions>
    <trkseg>
      <trkpt lat="46.30009" lon="-0.51139">
        <ele>66</ele>
        <time>2012-01-12T13:58:04Z</time>
      </trkpt>
      <trkpt lat="46.30009" lon="-0.51134">
        <ele>65</ele>
        <time>2012-01-12T13:58:09Z</time>
      </trkpt>
      <trkpt lat="46.30009" lon="-0.51131">
        <ele>67</ele>
        <time>2012-01-12T13:58:14Z</time>
      </trkpt>
      <trkpt lat="46.30007" lon="-0.51125">
        <ele>68</ele>
        <time>2012-01-12T13:58:19Z</time>
      </trkpt>
      <trkpt lat="46.30007" lon="-0.51117">
        <ele>69</ele>
        <time>2012-01-12T13:58:24Z</time>
      </trkpt>
      <trkpt lat="46.30005" lon="-0.51112">
        <ele>65</ele>
        <time>2012-01-12T13:58:29Z</time>
      </trkpt>
      <trkpt lat="46.30001" lon="-0.51106">
        <ele>69</ele>
        <time>2012-01-12T13:58:34Z</time>
      </trkpt>
      <trkpt lat="46.3" lon="-0.511">
        <ele>70</ele>
        <time>2012-01-12T13:58:39Z</time>
      </trkpt>
      <trkpt lat="46.29996" lon="-0.51096">
        <ele>70</ele>
        <time>2012-01-12T13:58:44Z</time>
      </trkpt>
      <trkpt lat="46.29996" lon="-0.51092">
        <ele>70</ele>
        <time>2012-01-12T13:58:49Z</time>
      </trkpt>
      <trkpt lat="46.29994" lon="-0.51084">
        <ele>70</ele>
        <time>2012-01-12T13:58:54Z</time>
      </trkpt>
      <trkpt lat="46.29992" lon="-0.51077">
        <ele>70</ele>
        <time>2012-01-12T13:58:59Z</time>
      </trkpt>
      <trkpt lat="46.2999" lon="-0.51071">
        <ele>69</ele>
        <time>2012-01-12T13:59:04Z</time>
      </trkpt>
      <trkpt lat="46.29988" lon="-0.51068">
        <ele>69</ele>
        <time>2012-01-12T13:59:09Z</time>
      </trkpt>
      <trkpt lat="46.29986" lon="-0.51062">
        <ele>68</ele>
        <time>2012-01-12T13:59:14Z</time>
      </trkpt>
      <trkpt lat="46.29981" lon="-0.51051">
        <ele>68</ele>
        <time>2012-01-12T13:59:19Z</time>
      </trkpt>
      <trkpt lat="46.29977" lon="-0.51044">
        <ele>68</ele>
        <time>2012-01-12T13:59:24Z</time>
      </trkpt>
      <trkpt lat="46.29974" lon="-0.51038">
        <ele>69</ele>
        <time>2012-01-12T13:59:29Z</time>
      </trkpt>
      <trkpt lat="46.29971" lon="-0.51032">
        <ele>70</ele>
        <time>2012-01-12T13:59:34Z</time>
      </trkpt>
      <trkpt lat="46.29967" lon="-0.51029">
        <ele>71</ele>
        <time>2012-01-12T13:59:39Z</time>
      </trkpt>
      <trkpt lat="46.29963" lon="-0.51022">
        <ele>73</ele>
        <time>2012-01-12T13:59:44Z</time>
      </trkpt>
      <trkpt lat="46.2996" lon="-0.51018">
        <ele>74</ele>
        <time>2012-01-12T13:59:49Z</time>
      </trkpt>
      <trkpt lat="46.29957" lon="-0.51008">
        <ele>73</ele>
        <time>2012-01-12T13:59:54Z</time>
      </trkpt>
      <trkpt lat="46.29954" lon="-0.51002">
        <ele>72</ele>
        <time>2012-01-12T13:59:59Z</time>
      </trkpt>
      <trkpt lat="46.2995" lon="-0.50996">
        <ele>71</ele>
        <time>2012-01-12T14:00:04Z</time>
      </trkpt>
      <trkpt lat="46.29947" lon="-0.50991">
        <ele>69</ele>
        <time>2012-01-12T14:00:09Z</time>
      </trkpt>
      <trkpt lat="46.29944" lon="-0.50988">
        <ele>69</ele>
        <time>2012-01-12T14:00:14Z</time>
      </trkpt>
      <trkpt lat="46.29942" lon="-0.50985">
        <ele>68</ele>
        <time>2012-01-12T14:00:19Z</time>
      </trkpt>
      <trkpt lat="46.2994" lon="-0.50977">
        <ele>68</ele>
        <time>2012-01-12T14:00:24Z</time>
      </trkpt>
      <trkpt lat="46.29936" lon="-0.50972">
        <ele>68</ele>
        <time>2012-01-12T14:00:29Z</time>
      </trkpt>
      <trkpt lat="46.29934" lon="-0.50964">
        <ele>68</ele>
        <time>2012-01-12T14:00:34Z</time>
      </trkpt>
      <trkpt lat="46.29931" lon="-0.50959">
        <ele>68</ele>
        <time>2012-01-12T14:00:39Z</time>
      </trkpt>
      <trkpt lat="46.2993" lon="-0.50954">
        <ele>68</ele>
        <time>2012-01-12T14:00:44Z</time>
      </trkpt>
      <trkpt lat="46.29927" lon="-0.50947">
        <ele>67</ele>
        <time>2012-01-12T14:00:49Z</time>
      </trkpt>
      <trkpt lat="46.29924" lon="-0.50942">
        <ele>66</ele>
        <time>2012-01-12T14:00:54Z</time>
      </trkpt>
      <trkpt lat="46.29921" lon="-0.50935">
        <ele>65</ele>
        <time>2012-01-12T14:00:59Z</time>
      </trkpt>
      <trkpt lat="46.29918" lon="-0.50929">
        <ele>65</ele>
        <time>2012-01-12T14:01:04Z</time>
      </trkpt>
      <trkpt lat="46.29917" lon="-0.50928">
        <ele>67</ele>
        <time>2012-01-12T14:01:09Z</time>
      </trkpt>
      <trkpt lat="46.29915" lon="-0.50922">
        <ele>67</ele>
        <time>2012-01-12T14:01:14Z</time>
      </trkpt>
      <trkpt lat="46.29912" lon="-0.50913">
        <ele>65</ele>
        <time>2012-01-12T14:01:19Z</time>
      </trkpt>
      <trkpt lat="46.29912" lon="-0.50907">
        <ele>63</ele>
        <time>2012-01-12T14:01:24Z</time>
      </trkpt>
      <trkpt lat="46.29909" lon="-0.50898">
        <ele>62</ele>
        <time>2012-01-12T14:01:29Z</time>
      </trkpt>
      <trkpt lat="46.29905" lon="-0.50892">
        <ele>63</ele>
        <time>2012-01-12T14:01:34Z</time>
      </trkpt>
      <trkpt lat="46.29903" lon="-0.50888">
        <ele>63</ele>
        <time>2012-01-12T14:01:39Z</time>
      </trkpt>
      <trkpt lat="46.29903" lon="-0.50881">
        <ele>61</ele>
        <time>2012-01-12T14:01:44Z</time>
      </trkpt>
      <trkpt lat="46.299" lon="-0.50877">
        <ele>62</ele>
        <time>2012-01-12T14:01:49Z</time>
      </trkpt>
      <trkpt lat="46.29899" lon="-0.50871">
        <ele>62</ele>
        <time>2012-01-12T14:01:54Z</time>
      </trkpt>
      <trkpt lat="46.29899" lon="-0.50858">
        <ele>61</ele>
        <time>2012-01-12T14:01:59Z</time>
      </trkpt>
      <trkpt lat="46.29898" lon="-0.50853">
        <ele>61</ele>
        <time>2012-01-12T14:02:04Z</time>
      </trkpt>
      <trkpt lat="46.29897" lon="-0.50841">
        <ele>65</ele>
        <time>2012-01-12T14:02:09Z</time>
      </trkpt>
      <trkpt lat="46.29896" lon="-0.50831">
        <ele>65</ele>
        <time>2012-01-12T14:02:14Z</time>
      </trkpt>
      <trkpt lat="46.29896" lon="-0.50825">
        <ele>64</ele>
        <time>2012-01-12T14:02:19Z</time>
      </trkpt>
      <trkpt lat="46.29899" lon="-0.50819">
        <ele>64</ele>
        <time>2012-01-12T14:02:24Z</time>
      </trkpt>
      <trkpt lat="46.29903" lon="-0.50812">
        <ele>64</ele>
        <time>2012-01-12T14:02:29Z</time>
      </trkpt>
      <trkpt lat="46.29905" lon="-0.50809">
        <ele>63</ele>
        <time>2012-01-12T14:02:34Z</time>
      </trkpt>
      <trkpt lat="46.29907" lon="-0.50799">
        <ele>67</ele>
        <time>2012-01-12T14:02:39Z</time>
      </trkpt>
      <trkpt lat="46.2991" lon="-0.5079">
        <ele>66</ele>
        <time>2012-01-12T14:02:44Z</time>
      </trkpt>
      <trkpt lat="46.29911" lon="-0.50786">
        <ele>65</ele>
        <time>2012-01-12T14:02:49Z</time>
      </trkpt>
      <trkpt lat="46.29913" lon="-0.50782">
        <ele>64</ele>
        <time>2012-01-12T14:02:54Z</time>
      </trkpt>
      <trkpt lat="46.29917" lon="-0.50778">
        <ele>63</ele>
        <time>2012-01-12T14:02:59Z</time>
      </trkpt>
      <trkpt lat="46.29919" lon="-0.50769">
        <ele>62</ele>
        <time>2012-01-12T14:03:04Z</time>
      </trkpt>
      <trkpt lat="46.29919" lon="-0.50762">
        <ele>63</ele>
        <time>2012-01-12T14:03:09Z</time>
      </trkpt>
      <trkpt lat="46.29923" lon="-0.50754">
        <ele>63</ele>
        <time>2012-01-12T14:03:14Z</time>
      </trkpt>
      <trkpt lat="46.29926" lon="-0.50752">
        <ele>63</ele>
        <time>2012-01-12T14:03:19Z</time>
      </trkpt>
      <trkpt lat="46.29928" lon="-0.5074">
        <ele>65</ele>
        <time>2012-01-12T14:03:24Z</time>
      </trkpt>
      <trkpt lat="46.29926" lon="-0.50741">
        <ele>64</ele>
        <time>2012-01-12T14:03:29Z</time>
      </trkpt>
      <trkpt lat="46.29925" lon="-0.50739">
        <ele>64</ele>
        <time>2012-01-12T14:03:34Z</time>
      </trkpt>
      <trkpt lat="46.29926" lon="-0.50736">
        <ele>66</ele>
        <time>2012-01-12T14:03:39Z</time>
      </trkpt>
      <trkpt lat="46.29927" lon="-0.50737">
        <ele>65</ele>
        <time>2012-01-12T14:03:44Z</time>
      </trkpt>
      <trkpt lat="46.2993" lon="-0.50734">
        <ele>65</ele>
        <time>2012-01-12T14:03:49Z</time>
      </trkpt>
      <trkpt lat="46.29933" lon="-0.5073">
        <ele>65</ele>
        <time>2012-01-12T14:03:54Z</time>
      </trkpt>
      <trkpt lat="46.29937" lon="-0.50726">
        <ele>65</ele>
        <time>2012-01-12T14:03:59Z</time>
      </trkpt>
      <trkpt lat="46.29941" lon="-0.50723">
        <ele>65</ele>
        <time>2012-01-12T14:04:04Z</time>
      </trkpt>
      <trkpt lat="46.29945" lon="-0.50722">
        <ele>64</ele>
        <time>2012-01-12T14:04:09Z</time>
      </trkpt>
      <trkpt lat="46.2995" lon="-0.50721">
        <ele>64</ele>
        <time>2012-01-12T14:04:14Z</time>
      </trkpt>
      <trkpt lat="46.29952" lon="-0.50714">
        <ele>54</ele>
        <time>2012-01-12T14:04:19Z</time>
      </trkpt>
      <trkpt lat="46.29956" lon="-0.50709">
        <ele>55</ele>
        <time>2012-01-12T14:04:24Z</time>
      </trkpt>
      <trkpt lat="46.2996" lon="-0.50704">
        <ele>57</ele>
        <time>2012-01-12T14:04:29Z</time>
      </trkpt>
      <trkpt lat="46.29965" lon="-0.507">
        <ele>58</ele>
        <time>2012-01-12T14:04:34Z</time>
      </trkpt>
      <trkpt lat="46.29968" lon="-0.50696">
        <ele>57</ele>
        <time>2012-01-12T14:04:39Z</time>
      </trkpt>
      <trkpt lat="46.29973" lon="-0.50689">
        <ele>60</ele>
        <time>2012-01-12T14:04:44Z</time>
      </trkpt>
      <trkpt lat="46.29976" lon="-0.50686">
        <ele>62</ele>
        <time>2012-01-12T14:04:49Z</time>
      </trkpt>
      <trkpt lat="46.2998" lon="-0.5068">
        <ele>61</ele>
        <time>2012-01-12T14:04:54Z</time>
      </trkpt>
      <trkpt lat="46.29984" lon="-0.50678">
        <ele>62</ele>
        <time>2012-01-12T14:04:59Z</time>
      </trkpt>
      <trkpt lat="46.29986" lon="-0.50673">
        <ele>62</ele>
        <time>2012-01-12T14:05:04Z</time>
      </trkpt>
      <trkpt lat="46.29991" lon="-0.5067">
        <ele>64</ele>
        <time>2012-01-12T14:05:09Z</time>
      </trkpt>
      <trkpt lat="46.29992" lon="-0.50666">
        <ele>66</ele>
        <time>2012-01-12T14:05:14Z</time>
      </trkpt>
      <trkpt lat="46.29996" lon="-0.50662">
        <ele>69</ele>
        <time>2012-01-12T14:05:19Z</time>
      </trkpt>
      <trkpt lat="46.30001" lon="-0.50655">
        <ele>67</ele>
        <time>2012-01-12T14:05:24Z</time>
      </trkpt>
      <trkpt lat="46.30005" lon="-0.50651">
        <ele>68</ele>
        <time>2012-01-12T14:05:29Z</time>
      </trkpt>
      <trkpt lat="46.30008" lon="-0.50649">
        <ele>67</ele>
        <time>2012-01-12T14:05:34Z</time>
      </trkpt>
      <trkpt lat="46.3001" lon="-0.50643">
        <ele>65</ele>
        <time>2012-01-12T14:05:39Z</time>
      </trkpt>
      <trkpt lat="46.30011" lon="-0.50638">
        <ele>64</ele>
        <time>2012-01-12T14:05:44Z</time>
      </trkpt>
      <trkpt lat="46.30009" lon="-0.50632">
        <ele>63</ele>
        <time>2012-01-12T14:05:49Z</time>
      </trkpt>
      <trkpt lat="46.30008" lon="-0.50626">
        <ele>63</ele>
        <time>2012-01-12T14:05:54Z</time>
      </trkpt>
      <trkpt lat="46.30005" lon="-0.5062">
        <ele>63</ele>
        <time>2012-01-12T14:05:59Z</time>
      </trkpt>
      <trkpt lat="46.30002" lon="-0.50615">
        <ele>63</ele>
        <time>2012-01-12T14:06:04Z</time>
      </trkpt>
      <trkpt lat="46.29998" lon="-0.5061">
        <ele>63</ele>
        <time>2012-01-12T14:06:09Z</time>
      </trkpt>
      <trkpt lat="46.29995" lon="-0.50605">
        <ele>63</ele>
        <time>2012-01-12T14:06:14Z</time>
      </trkpt>
      <trkpt lat="46.29992" lon="-0.50598">
        <ele>63</ele>
        <time>2012-01-12T14:06:19Z</time>
      </trkpt>
      <trkpt lat="46.2999" lon="-0.50592">
        <ele>62</ele>
        <time>2012-01-12T14:06:24Z</time>
      </trkpt>
      <trkpt lat="46.29988" lon="-0.50588">
        <ele>62</ele>
        <time>2012-01-12T14:06:29Z</time>
      </trkpt>
      <trkpt lat="46.29986" lon="-0.50584">
        <ele>60</ele>
        <time>2012-01-12T14:06:34Z</time>
      </trkpt>
      <trkpt lat="46.29985" lon="-0.50582">
        <ele>61</ele>
        <time>2012-01-12T14:06:39Z</time>
      </trkpt>
      <trkpt lat="46.29982" lon="-0.50577">
        <ele>61</ele>
        <time>2012-01-12T14:06:44Z</time>
      </trkpt>
      <trkpt lat="46.29979" lon="-0.50571">
        <ele>61</ele>
        <time>2012-01-12T14:06:49Z</time>
      </trkpt>
      <trkpt lat="46.29976" lon="-0.50564">
        <ele>64</ele>
        <time>2012-01-12T14:06:54Z</time>
      </trkpt>
      <trkpt lat="46.29973" lon="-0.5056">
        <ele>65</ele>
        <time>2012-01-12T14:06:59Z</time>
      </trkpt>
      <trkpt lat="46.2997" lon="-0.50555">
        <ele>65</ele>
        <time>2012-01-12T14:07:04Z</time>
      </trkpt>
      <trkpt lat="46.29968" lon="-0.50548">
        <ele>66</ele>
        <time>2012-01-12T14:07:09Z</time>
      </trkpt>
      <trkpt lat="46.29965" lon="-0.5054">
        <ele>65</ele>
        <time>2012-01-12T14:07:14Z</time>
      </trkpt>
      <trkpt lat="46.29965" lon="-0.50533">
        <ele>65</ele>
        <time>2012-01-12T14:07:19Z</time>
      </trkpt>
      <trkpt lat="46.29962" lon="-0.50525">
        <ele>65</ele>
        <time>2012-01-12T14:07:24Z</time>
      </trkpt>
      <trkpt lat="46.29963" lon="-0.5052">
        <ele>66</ele>
        <time>2012-01-12T14:07:29Z</time>
      </trkpt>
      <trkpt lat="46.29962" lon="-0.50514">
        <ele>67</ele>
        <time>2012-01-12T14:07:34Z</time>
      </trkpt>
      <trkpt lat="46.2996" lon="-0.50502">
        <ele>69</ele>
        <time>2012-01-12T14:07:39Z</time>
      </trkpt>
      <trkpt lat="46.29961" lon="-0.50494">
        <ele>70</ele>
        <time>2012-01-12T14:07:44Z</time>
      </trkpt>
      <trkpt lat="46.29961" lon="-0.50487">
        <ele>71</ele>
        <time>2012-01-12T14:07:49Z</time>
      </trkpt>
      <trkpt lat="46.29963" lon="-0.5048">
        <ele>68</ele>
        <time>2012-01-12T14:07:54Z</time>
      </trkpt>
      <trkpt lat="46.29964" lon="-0.50476">
        <ele>67</ele>
        <time>2012-01-12T14:07:59Z</time>
      </trkpt>
      <trkpt lat="46.29967" lon="-0.50471">
        <ele>66</ele>
        <time>2012-01-12T14:08:04Z</time>
      </trkpt>
      <trkpt lat="46.2997" lon="-0.50463">
        <ele>66</ele>
        <time>2012-01-12T14:08:09Z</time>
      </trkpt>
      <trkpt lat="46.29972" lon="-0.50457">
        <ele>66</ele>
        <time>2012-01-12T14:08:14Z</time>
      </trkpt>
      <trkpt lat="46.29976" lon="-0.50448">
        <ele>67</ele>
        <time>2012-01-12T14:08:19Z</time>
      </trkpt>
      <trkpt lat="46.29977" lon="-0.50442">
        <ele>67</ele>
        <time>2012-01-12T14:08:24Z</time>
      </trkpt>
      <trkpt lat="46.2998" lon="-0.50437">
        <ele>65</ele>
        <time>2012-01-12T14:08:29Z</time>
      </trkpt>
      <trkpt lat="46.2998" lon="-0.50428">
        <ele>64</ele>
        <time>2012-01-12T14:08:34Z</time>
      </trkpt>
      <trkpt lat="46.29982" lon="-0.50422">
        <ele>64</ele>
        <time>2012-01-12T14:08:39Z</time>
      </trkpt>
      <trkpt lat="46.29983" lon="-0.50415">
        <ele>63</ele>
        <time>2012-01-12T14:08:44Z</time>
      </trkpt>
      <trkpt lat="46.29983" lon="-0.5041">
        <ele>63</ele>
        <time>2012-01-12T14:08:49Z</time>
      </trkpt>
      <trkpt lat="46.29984" lon="-0.50402">
        <ele>62</ele>
        <time>2012-01-12T14:08:54Z</time>
      </trkpt>
      <trkpt lat="46.29985" lon="-0.50394">
        <ele>62</ele>
        <time>2012-01-12T14:08:59Z</time>
      </trkpt>
      <trkpt lat="46.29985" lon="-0.50397">
        <ele>62</ele>
        <time>2012-01-12T14:09:04Z</time>
      </trkpt>
      <trkpt lat="46.29986" lon="-0.50394">
        <ele>62</ele>
        <time>2012-01-12T14:09:14Z</time>
      </trkpt>
      <trkpt lat="46.29985" lon="-0.50389">
        <ele>62</ele>
        <time>2012-01-12T14:09:19Z</time>
      </trkpt>
      <trkpt lat="46.29985" lon="-0.50382">
        <ele>60</ele>
        <time>2012-01-12T14:09:24Z</time>
      </trkpt>
      <trkpt lat="46.29986" lon="-0.50375">
        <ele>59</ele>
        <time>2012-01-12T14:09:29Z</time>
      </trkpt>
      <trkpt lat="46.29986" lon="-0.50367">
        <ele>58</ele>
        <time>2012-01-12T14:09:34Z</time>
      </trkpt>
      <trkpt lat="46.29986" lon="-0.50358">
        <ele>57</ele>
        <time>2012-01-12T14:09:39Z</time>
      </trkpt>
      <trkpt lat="46.29987" lon="-0.5035">
        <ele>56</ele>
        <time>2012-01-12T14:09:44Z</time>
      </trkpt>
      <trkpt lat="46.29986" lon="-0.50343">
        <ele>56</ele>
        <time>2012-01-12T14:09:49Z</time>
      </trkpt>
      <trkpt lat="46.29983" lon="-0.50333">
        <ele>55</ele>
        <time>2012-01-12T14:09:54Z</time>
      </trkpt>
      <trkpt lat="46.29984" lon="-0.50332">
        <ele>56</ele>
        <time>2012-01-12T14:09:59Z</time>
      </trkpt>
      <trkpt lat="46.29982" lon="-0.50322">
        <ele>56</ele>
        <time>2012-01-12T14:10:04Z</time>
      </trkpt>
      <trkpt lat="46.2998" lon="-0.50314">
        <ele>55</ele>
        <time>2012-01-12T14:10:09Z</time>
      </trkpt>
      <trkpt lat="46.29981" lon="-0.50307">
        <ele>55</ele>
        <time>2012-01-12T14:10:14Z</time>
      </trkpt>
      <trkpt lat="46.29979" lon="-0.50302">
        <ele>56</ele>
        <time>2012-01-12T14:10:19Z</time>
      </trkpt>
      <trkpt lat="46.29979" lon="-0.50297">
        <ele>56</ele>
        <time>2012-01-12T14:10:24Z</time>
      </trkpt>
      <trkpt lat="46.29978" lon="-0.50287">
        <ele>57</ele>
        <time>2012-01-12T14:10:29Z</time>
      </trkpt>
      <trkpt lat="46.29977" lon="-0.50284">
        <ele>58</ele>
        <time>2012-01-12T14:10:34Z</time>
      </trkpt>
      <trkpt lat="46.29974" lon="-0.50269">
        <ele>58</ele>
        <time>2012-01-12T14:10:39Z</time>
      </trkpt>
      <trkpt lat="46.29974" lon="-0.50262">
        <ele>57</ele>
        <time>2012-01-12T14:10:44Z</time>
      </trkpt>
      <trkpt lat="46.29974" lon="-0.50255">
        <ele>57</ele>
        <time>2012-01-12T14:10:49Z</time>
      </trkpt>
      <trkpt lat="46.29973" lon="-0.50249">
        <ele>56</ele>
        <time>2012-01-12T14:10:54Z</time>
      </trkpt>
      <trkpt lat="46.29972" lon="-0.50243">
        <ele>55</ele>
        <time>2012-01-12T14:10:59Z</time>
      </trkpt>
      <trkpt lat="46.29971" lon="-0.50234">
        <ele>54</ele>
        <time>2012-01-12T14:11:04Z</time>
      </trkpt>
      <trkpt lat="46.2997" lon="-0.50229">
        <ele>54</ele>
        <time>2012-01-12T14:11:09Z</time>
      </trkpt>
      <trkpt lat="46.2997" lon="-0.50222">
        <ele>53</ele>
        <time>2012-01-12T14:11:14Z</time>
      </trkpt>
      <trkpt lat="46.29969" lon="-0.50216">
        <ele>54</ele>
        <time>2012-01-12T14:11:19Z</time>
      </trkpt>
      <trkpt lat="46.29969" lon="-0.50211">
        <ele>54</ele>
        <time>2012-01-12T14:11:24Z</time>
      </trkpt>
      <trkpt lat="46.29971" lon="-0.50204">
        <ele>54</ele>
        <time>2012-01-12T14:11:29Z</time>
      </trkpt>
      <trkpt lat="46.29971" lon="-0.50195">
        <ele>53</ele>
        <time>2012-01-12T14:11:34Z</time>
      </trkpt>
      <trkpt lat="46.29973" lon="-0.50191">
        <ele>53</ele>
        <time>2012-01-12T14:11:39Z</time>
      </trkpt>
      <trkpt lat="46.29973" lon="-0.5018">
        <ele>51</ele>
        <time>2012-01-12T14:11:44Z</time>
      </trkpt>
      <trkpt lat="46.29974" lon="-0.50175">
        <ele>51</ele>
        <time>2012-01-12T14:11:49Z</time>
      </trkpt>
      <trkpt lat="46.29974" lon="-0.50169">
        <ele>51</ele>
        <time>2012-01-12T14:11:54Z</time>
      </trkpt>
      <trkpt lat="46.29976" lon="-0.50163">
        <ele>49</ele>
        <time>2012-01-12T14:11:59Z</time>
      </trkpt>
      <trkpt lat="46.29977" lon="-0.50153">
        <ele>49</ele>
        <time>2012-01-12T14:12:04Z</time>
      </trkpt>
      <trkpt lat="46.29979" lon="-0.50146">
        <ele>50</ele>
        <time>2012-01-12T14:12:09Z</time>
      </trkpt>
      <trkpt lat="46.29981" lon="-0.50139">
        <ele>51</ele>
        <time>2012-01-12T14:12:14Z</time>
      </trkpt>
      <trkpt lat="46.2998" lon="-0.50129">
        <ele>49</ele>
        <time>2012-01-12T14:12:19Z</time>
      </trkpt>
      <trkpt lat="46.2998" lon="-0.50123">
        <ele>49</ele>
        <time>2012-01-12T14:12:24Z</time>
      </trkpt>
      <trkpt lat="46.29983" lon="-0.50116">
        <ele>49</ele>
        <time>2012-01-12T14:12:29Z</time>
      </trkpt>
      <trkpt lat="46.29986" lon="-0.50107">
        <ele>51</ele>
        <time>2012-01-12T14:12:34Z</time>
      </trkpt>
      <trkpt lat="46.29987" lon="-0.50102">
        <ele>50</ele>
        <time>2012-01-12T14:12:39Z</time>
      </trkpt>
      <trkpt lat="46.2999" lon="-0.50096">
        <ele>50</ele>
        <time>2012-01-12T14:12:44Z</time>
      </trkpt>
      <trkpt lat="46.29989" lon="-0.50088">
        <ele>49</ele>
        <time>2012-01-12T14:12:49Z</time>
      </trkpt>
      <trkpt lat="46.29991" lon="-0.50084">
        <ele>48</ele>
        <time>2012-01-12T14:12:54Z</time>
      </trkpt>
      <trkpt lat="46.29993" lon="-0.50081">
        <ele>49</ele>
        <time>2012-01-12T14:12:59Z</time>
      </trkpt>
      <trkpt lat="46.29995" lon="-0.50076">
        <ele>50</ele>
        <time>2012-01-12T14:13:04Z</time>
      </trkpt>
      <trkpt lat="46.29999" lon="-0.50066">
        <ele>49</ele>
        <time>2012-01-12T14:13:09Z</time>
      </trkpt>
      <trkpt lat="46.30002" lon="-0.50055">
        <ele>50</ele>
        <time>2012-01-12T14:13:14Z</time>
      </trkpt>
      <trkpt lat="46.30005" lon="-0.50049">
        <ele>51</ele>
        <time>2012-01-12T14:13:19Z</time>
      </trkpt>
      <trkpt lat="46.30006" lon="-0.50043">
        <ele>52</ele>
        <time>2012-01-12T14:13:24Z</time>
      </trkpt>
      <trkpt lat="46.30009" lon="-0.50037">
        <ele>51</ele>
        <time>2012-01-12T14:13:29Z</time>
      </trkpt>
      <trkpt lat="46.30013" lon="-0.50032">
        <ele>53</ele>
        <time>2012-01-12T14:13:34Z</time>
      </trkpt>
      <trkpt lat="46.30014" lon="-0.50024">
        <ele>52</ele>
        <time>2012-01-12T14:13:39Z</time>
      </trkpt>
      <trkpt lat="46.30016" lon="-0.50018">
        <ele>51</ele>
        <time>2012-01-12T14:13:44Z</time>
      </trkpt>
      <trkpt lat="46.30017" lon="-0.50011">
        <ele>52</ele>
        <time>2012-01-12T14:13:49Z</time>
      </trkpt>
      <trkpt lat="46.30019" lon="-0.50008">
        <ele>52</ele>
        <time>2012-01-12T14:13:54Z</time>
      </trkpt>
      <trkpt lat="46.30022" lon="-0.5">
        <ele>51</ele>
        <time>2012-01-12T14:13:59Z</time>
      </trkpt>
      <trkpt lat="46.30026" lon="-0.4999">
        <ele>51</ele>
        <time>2012-01-12T14:14:04Z</time>
      </trkpt>
      <trkpt lat="46.30026" lon="-0.49985">
        <ele>51</ele>
        <time>2012-01-12T14:14:09Z</time>
      </trkpt>
      <trkpt lat="46.30028" lon="-0.49978">
        <ele>50</ele>
        <time>2012-01-12T14:14:14Z</time>
      </trkpt>
      <trkpt lat="46.30029" lon="-0.49972">
        <ele>49</ele>
        <time>2012-01-12T14:14:19Z</time>
      </trkpt>
      <trkpt lat="46.30032" lon="-0.49967">
        <ele>48</ele>
        <time>2012-01-12T14:14:24Z</time>
      </trkpt>
      <trkpt lat="46.30033" lon="-0.49964">
        <ele>49</ele>
        <time>2012-01-12T14:14:29Z</time>
      </trkpt>
      <trkpt lat="46.30038" lon="-0.4996">
        <ele>49</ele>
        <time>2012-01-12T14:14:34Z</time>
      </trkpt>
      <trkpt lat="46.30039" lon="-0.49955">
        <ele>50</ele>
        <time>2012-01-12T14:14:39Z</time>
      </trkpt>
      <trkpt lat="46.30041" lon="-0.49949">
        <ele>50</ele>
        <time>2012-01-12T14:14:44Z</time>
      </trkpt>
      <trkpt lat="46.30044" lon="-0.49944">
        <ele>49</ele>
        <time>2012-01-12T14:14:49Z</time>
      </trkpt>
      <trkpt lat="46.30047" lon="-0.4994">
        <ele>49</ele>
        <time>2012-01-12T14:14:54Z</time>
      </trkpt>
      <trkpt lat="46.30052" lon="-0.49931">
        <ele>50</ele>
        <time>2012-01-12T14:14:59Z</time>
      </trkpt>
      <trkpt lat="46.30054" lon="-0.49928">
        <ele>50</ele>
        <time>2012-01-12T14:15:04Z</time>
      </trkpt>
      <trkpt lat="46.30054" lon="-0.49927">
        <ele>50</ele>
        <time>2012-01-12T14:15:09Z</time>
      </trkpt>
      <trkpt lat="46.30055" lon="-0.49928">
        <ele>51</ele>
        <time>2012-01-12T14:15:14Z</time>
      </trkpt>
      <trkpt lat="46.30058" lon="-0.49926">
        <ele>50</ele>
        <time>2012-01-12T14:15:19Z</time>
      </trkpt>
      <trkpt lat="46.30064" lon="-0.49923">
        <ele>51</ele>
        <time>2012-01-12T14:15:24Z</time>
      </trkpt>
      <trkpt lat="46.30066" lon="-0.4992">
        <ele>50</ele>
        <time>2012-01-12T14:15:29Z</time>
      </trkpt>
      <trkpt lat="46.30067" lon="-0.49916">
        <ele>49</ele>
        <time>2012-01-12T14:15:34Z</time>
      </trkpt>
      <trkpt lat="46.30069" lon="-0.49908">
        <ele>47</ele>
        <time>2012-01-12T14:15:39Z</time>
      </trkpt>
      <trkpt lat="46.30069" lon="-0.49902">
        <ele>47</ele>
        <time>2012-01-12T14:15:44Z</time>
      </trkpt>
      <trkpt lat="46.30069" lon="-0.49897">
        <ele>48</ele>
        <time>2012-01-12T14:15:49Z</time>
      </trkpt>
      <trkpt lat="46.30069" lon="-0.49889">
        <ele>49</ele>
        <time>2012-01-12T14:15:54Z</time>
      </trkpt>
      <trkpt lat="46.30071" lon="-0.49882">
        <ele>50</ele>
        <time>2012-01-12T14:15:59Z</time>
      </trkpt>
      <trkpt lat="46.30071" lon="-0.49877">
        <ele>51</ele>
        <time>2012-01-12T14:16:04Z</time>
      </trkpt>
      <trkpt lat="46.30071" lon="-0.49868">
        <ele>54</ele>
        <time>2012-01-12T14:16:09Z</time>
      </trkpt>
      <trkpt lat="46.30071" lon="-0.49863">
        <ele>54</ele>
        <time>2012-01-12T14:16:14Z</time>
      </trkpt>
      <trkpt lat="46.30072" lon="-0.49858">
        <ele>53</ele>
        <time>2012-01-12T14:16:19Z</time>
      </trkpt>
      <trkpt lat="46.30073" lon="-0.49849">
        <ele>54</ele>
        <time>2012-01-12T14:16:24Z</time>
      </trkpt>
      <trkpt lat="46.30075" lon="-0.49843">
        <ele>54</ele>
        <time>2012-01-12T14:16:29Z</time>
      </trkpt>
      <trkpt lat="46.30077" lon="-0.49836">
        <ele>54</ele>
        <time>2012-01-12T14:16:34Z</time>
      </trkpt>
      <trkpt lat="46.3008" lon="-0.49827">
        <ele>54</ele>
        <time>2012-01-12T14:16:39Z</time>
      </trkpt>
      <trkpt lat="46.30081" lon="-0.49825">
        <ele>51</ele>
        <time>2012-01-12T14:16:44Z</time>
      </trkpt>
      <trkpt lat="46.30082" lon="-0.49819">
        <ele>52</ele>
        <time>2012-01-12T14:16:49Z</time>
      </trkpt>
      <trkpt lat="46.30083" lon="-0.49813">
        <ele>52</ele>
        <time>2012-01-12T14:16:54Z</time>
      </trkpt>
      <trkpt lat="46.30083" lon="-0.49803">
        <ele>53</ele>
        <time>2012-01-12T14:16:59Z</time>
      </trkpt>
      <trkpt lat="46.30084" lon="-0.49797">
        <ele>53</ele>
        <time>2012-01-12T14:17:04Z</time>
      </trkpt>
      <trkpt lat="46.30086" lon="-0.4979">
        <ele>53</ele>
        <time>2012-01-12T14:17:09Z</time>
      </trkpt>
      <trkpt lat="46.30083" lon="-0.49785">
        <ele>53</ele>
        <time>2012-01-12T14:17:14Z</time>
      </trkpt>
      <trkpt lat="46.30082" lon="-0.4978">
        <ele>53</ele>
        <time>2012-01-12T14:17:19Z</time>
      </trkpt>
      <trkpt lat="46.30081" lon="-0.49776">
        <ele>53</ele>
        <time>2012-01-12T14:17:24Z</time>
      </trkpt>
      <trkpt lat="46.30081" lon="-0.4977">
        <ele>53</ele>
        <time>2012-01-12T14:17:29Z</time>
      </trkpt>
      <trkpt lat="46.3008" lon="-0.49762">
        <ele>53</ele>
        <time>2012-01-12T14:17:34Z</time>
      </trkpt>
      <trkpt lat="46.30079" lon="-0.49756">
        <ele>53</ele>
        <time>2012-01-12T14:17:39Z</time>
      </trkpt>
      <trkpt lat="46.30078" lon="-0.49751">
        <ele>54</ele>
        <time>2012-01-12T14:17:44Z</time>
      </trkpt>
      <trkpt lat="46.30077" lon="-0.49743">
        <ele>56</ele>
        <time>2012-01-12T14:17:49Z</time>
      </trkpt>
      <trkpt lat="46.30077" lon="-0.49732">
        <ele>57</ele>
        <time>2012-01-12T14:17:54Z</time>
      </trkpt>
      <trkpt lat="46.30078" lon="-0.49726">
        <ele>52</ele>
        <time>2012-01-12T14:17:59Z</time>
      </trkpt>
      <trkpt lat="46.30079" lon="-0.49718">
        <ele>51</ele>
        <time>2012-01-12T14:18:04Z</time>
      </trkpt>
      <trkpt lat="46.30081" lon="-0.49711">
        <ele>51</ele>
        <time>2012-01-12T14:18:09Z</time>
      </trkpt>
      <trkpt lat="46.30084" lon="-0.49705">
        <ele>49</ele>
        <time>2012-01-12T14:18:14Z</time>
      </trkpt>
      <trkpt lat="46.30087" lon="-0.49697">
        <ele>49</ele>
        <time>2012-01-12T14:18:19Z</time>
      </trkpt>
      <trkpt lat="46.30089" lon="-0.49691">
        <ele>48</ele>
        <time>2012-01-12T14:18:24Z</time>
      </trkpt>
      <trkpt lat="46.3009" lon="-0.49684">
        <ele>48</ele>
        <time>2012-01-12T14:18:29Z</time>
      </trkpt>
      <trkpt lat="46.30096" lon="-0.49674">
        <ele>47</ele>
        <time>2012-01-12T14:18:34Z</time>
      </trkpt>
      <trkpt lat="46.30098" lon="-0.4967">
        <ele>45</ele>
        <time>2012-01-12T14:18:39Z</time>
      </trkpt>
      <trkpt lat="46.30101" lon="-0.49663">
        <ele>46</ele>
        <time>2012-01-12T14:18:44Z</time>
      </trkpt>
      <trkpt lat="46.30103" lon="-0.49657">
        <ele>46</ele>
        <time>2012-01-12T14:18:49Z</time>
      </trkpt>
      <trkpt lat="46.30106" lon="-0.49653">
        <ele>47</ele>
        <time>2012-01-12T14:18:54Z</time>
      </trkpt>
      <trkpt lat="46.30108" lon="-0.49648">
        <ele>47</ele>
        <time>2012-01-12T14:18:59Z</time>
      </trkpt>
      <trkpt lat="46.30111" lon="-0.49643">
        <ele>48</ele>
        <time>2012-01-12T14:19:04Z</time>
      </trkpt>
      <trkpt lat="46.30113" lon="-0.49635">
        <ele>47</ele>
        <time>2012-01-12T14:19:09Z</time>
      </trkpt>
      <trkpt lat="46.30118" lon="-0.49628">
        <ele>48</ele>
        <time>2012-01-12T14:19:14Z</time>
      </trkpt>
      <trkpt lat="46.30123" lon="-0.4962">
        <ele>49</ele>
        <time>2012-01-12T14:19:19Z</time>
      </trkpt>
      <trkpt lat="46.30125" lon="-0.49612">
        <ele>47</ele>
        <time>2012-01-12T14:19:24Z</time>
      </trkpt>
      <trkpt lat="46.30127" lon="-0.49608">
        <ele>46</ele>
        <time>2012-01-12T14:19:29Z</time>
      </trkpt>
      <trkpt lat="46.3013" lon="-0.49603">
        <ele>47</ele>
        <time>2012-01-12T14:19:34Z</time>
      </trkpt>
      <trkpt lat="46.30133" lon="-0.49596">
        <ele>45</ele>
        <time>2012-01-12T14:19:39Z</time>
      </trkpt>
      <trkpt lat="46.30135" lon="-0.49592">
        <ele>46</ele>
        <time>2012-01-12T14:19:44Z</time>
      </trkpt>
      <trkpt lat="46.30139" lon="-0.49588">
        <ele>46</ele>
        <time>2012-01-12T14:19:49Z</time>
      </trkpt>
      <trkpt lat="46.30142" lon="-0.4958">
        <ele>45</ele>
        <time>2012-01-12T14:19:54Z</time>
      </trkpt>
      <trkpt lat="46.30145" lon="-0.49573">
        <ele>45</ele>
        <time>2012-01-12T14:19:59Z</time>
      </trkpt>
      <trkpt lat="46.30147" lon="-0.49568">
        <ele>44</ele>
        <time>2012-01-12T14:20:04Z</time>
      </trkpt>
      <trkpt lat="46.3015" lon="-0.4956">
        <ele>47</ele>
        <time>2012-01-12T14:20:09Z</time>
      </trkpt>
      <trkpt lat="46.30154" lon="-0.49553">
        <ele>46</ele>
        <time>2012-01-12T14:20:14Z</time>
      </trkpt>
      <trkpt lat="46.30156" lon="-0.4955">
        <ele>48</ele>
        <time>2012-01-12T14:20:19Z</time>
      </trkpt>
      <trkpt lat="46.30163" lon="-0.49548">
        <ele>49</ele>
        <time>2012-01-12T14:20:24Z</time>
      </trkpt>
      <trkpt lat="46.30167" lon="-0.49543">
        <ele>49</ele>
        <time>2012-01-12T14:20:29Z</time>
      </trkpt>
      <trkpt lat="46.30169" lon="-0.49538">
        <ele>49</ele>
        <time>2012-01-12T14:20:34Z</time>
      </trkpt>
      <trkpt lat="46.30172" lon="-0.49533">
        <ele>47</ele>
        <time>2012-01-12T14:20:39Z</time>
      </trkpt>
      <trkpt lat="46.30174" lon="-0.49527">
        <ele>49</ele>
        <time>2012-01-12T14:20:44Z</time>
      </trkpt>
      <trkpt lat="46.30172" lon="-0.49528">
        <ele>47</ele>
        <time>2012-01-12T14:20:49Z</time>
      </trkpt>
      <trkpt lat="46.30173" lon="-0.49528">
        <ele>47</ele>
        <time>2012-01-12T14:20:54Z</time>
      </trkpt>
      <trkpt lat="46.30173" lon="-0.49527">
        <ele>47</ele>
        <time>2012-01-12T14:20:59Z</time>
      </trkpt>
      <trkpt lat="46.30176" lon="-0.49522">
        <ele>47</ele>
        <time>2012-01-12T14:21:14Z</time>
      </trkpt>
      <trkpt lat="46.30179" lon="-0.49518">
        <ele>48</ele>
        <time>2012-01-12T14:21:19Z</time>
      </trkpt>
      <trkpt lat="46.30182" lon="-0.49511">
        <ele>46</ele>
        <time>2012-01-12T14:21:24Z</time>
      </trkpt>
      <trkpt lat="46.30185" lon="-0.49506">
        <ele>46</ele>
        <time>2012-01-12T14:21:29Z</time>
      </trkpt>
      <trkpt lat="46.30187" lon="-0.49501">
        <ele>45</ele>
        <time>2012-01-12T14:21:34Z</time>
      </trkpt>
      <trkpt lat="46.30189" lon="-0.49495">
        <ele>46</ele>
        <time>2012-01-12T14:21:39Z</time>
      </trkpt>
      <trkpt lat="46.30191" lon="-0.49495">
        <ele>46</ele>
        <time>2012-01-12T14:21:44Z</time>
      </trkpt>
      <trkpt lat="46.30196" lon="-0.49492">
        <ele>49</ele>
        <time>2012-01-12T14:21:59Z</time>
      </trkpt>
      <trkpt lat="46.30196" lon="-0.4949">
        <ele>48</ele>
        <time>2012-01-12T14:22:04Z</time>
      </trkpt>
      <trkpt lat="46.30198" lon="-0.49486">
        <ele>48</ele>
        <time>2012-01-12T14:22:09Z</time>
      </trkpt>
      <trkpt lat="46.302" lon="-0.49481">
        <ele>50</ele>
        <time>2012-01-12T14:22:14Z</time>
      </trkpt>
      <trkpt lat="46.30204" lon="-0.49479">
        <ele>51</ele>
        <time>2012-01-12T14:22:19Z</time>
      </trkpt>
      <trkpt lat="46.30208" lon="-0.49477">
        <ele>53</ele>
        <time>2012-01-12T14:22:24Z</time>
      </trkpt>
      <trkpt lat="46.30214" lon="-0.49472">
        <ele>55</ele>
        <time>2012-01-12T14:22:29Z</time>
      </trkpt>
      <trkpt lat="46.30217" lon="-0.49469">
        <ele>54</ele>
        <time>2012-01-12T14:22:34Z</time>
      </trkpt>
      <trkpt lat="46.30221" lon="-0.49459">
        <ele>57</ele>
        <time>2012-01-12T14:22:39Z</time>
      </trkpt>
      <trkpt lat="46.30224" lon="-0.49459">
        <ele>55</ele>
        <time>2012-01-12T14:22:44Z</time>
      </trkpt>
      <trkpt lat="46.30226" lon="-0.49458">
        <ele>53</ele>
        <time>2012-01-12T14:22:49Z</time>
      </trkpt>
      <trkpt lat="46.30231" lon="-0.49452">
        <ele>52</ele>
        <time>2012-01-12T14:22:54Z</time>
      </trkpt>
      <trkpt lat="46.30234" lon="-0.4945">
        <ele>51</ele>
        <time>2012-01-12T14:22:59Z</time>
      </trkpt>
      <trkpt lat="46.30238" lon="-0.49444">
        <ele>50</ele>
        <time>2012-01-12T14:23:04Z</time>
      </trkpt>
      <trkpt lat="46.3024" lon="-0.49442">
        <ele>50</ele>
        <time>2012-01-12T14:23:09Z</time>
      </trkpt>
      <trkpt lat="46.30244" lon="-0.49438">
        <ele>50</ele>
        <time>2012-01-12T14:23:14Z</time>
      </trkpt>
      <trkpt lat="46.30248" lon="-0.49436">
        <ele>49</ele>
        <time>2012-01-12T14:23:19Z</time>
      </trkpt>
      <trkpt lat="46.30252" lon="-0.49433">
        <ele>49</ele>
        <time>2012-01-12T14:23:24Z</time>
      </trkpt>
      <trkpt lat="46.30256" lon="-0.4943">
        <ele>49</ele>
        <time>2012-01-12T14:23:29Z</time>
      </trkpt>
      <trkpt lat="46.3026" lon="-0.49426">
        <ele>48</ele>
        <time>2012-01-12T14:23:34Z</time>
      </trkpt>
      <trkpt lat="46.30264" lon="-0.4942">
        <ele>50</ele>
        <time>2012-01-12T14:23:39Z</time>
      </trkpt>
      <trkpt lat="46.30266" lon="-0.49414">
        <ele>51</ele>
        <time>2012-01-12T14:23:44Z</time>
      </trkpt>
      <trkpt lat="46.30268" lon="-0.4941">
        <ele>51</ele>
        <time>2012-01-12T14:23:49Z</time>
      </trkpt>
      <trkpt lat="46.30272" lon="-0.49404">
        <ele>52</ele>
        <time>2012-01-12T14:23:54Z</time>
      </trkpt>
      <trkpt lat="46.30274" lon="-0.49399">
        <ele>52</ele>
        <time>2012-01-12T14:23:59Z</time>
      </trkpt>
      <trkpt lat="46.30277" lon="-0.49393">
        <ele>51</ele>
        <time>2012-01-12T14:24:04Z</time>
      </trkpt>
      <trkpt lat="46.3028" lon="-0.49385">
        <ele>52</ele>
        <time>2012-01-12T14:24:09Z</time>
      </trkpt>
      <trkpt lat="46.30282" lon="-0.49379">
        <ele>53</ele>
        <time>2012-01-12T14:24:14Z</time>
      </trkpt>
      <trkpt lat="46.30282" lon="-0.49374">
        <ele>55</ele>
        <time>2012-01-12T14:24:19Z</time>
      </trkpt>
      <trkpt lat="46.30283" lon="-0.49367">
        <ele>55</ele>
        <time>2012-01-12T14:24:24Z</time>
      </trkpt>
      <trkpt lat="46.30285" lon="-0.4936">
        <ele>54</ele>
        <time>2012-01-12T14:24:29Z</time>
      </trkpt>
      <trkpt lat="46.30285" lon="-0.49355">
        <ele>53</ele>
        <time>2012-01-12T14:24:34Z</time>
      </trkpt>
      <trkpt lat="46.30286" lon="-0.49346">
        <ele>53</ele>
        <time>2012-01-12T14:24:39Z</time>
      </trkpt>
      <trkpt lat="46.30286" lon="-0.49337">
        <ele>53</ele>
        <time>2012-01-12T14:24:44Z</time>
      </trkpt>
      <trkpt lat="46.30287" lon="-0.49333">
        <ele>53</ele>
        <time>2012-01-12T14:24:49Z</time>
      </trkpt>
      <trkpt lat="46.30287" lon="-0.49325">
        <ele>52</ele>
        <time>2012-01-12T14:24:54Z</time>
      </trkpt>
      <trkpt lat="46.30287" lon="-0.49318">
        <ele>51</ele>
        <time>2012-01-12T14:24:59Z</time>
      </trkpt>
      <trkpt lat="46.30286" lon="-0.4931">
        <ele>49</ele>
        <time>2012-01-12T14:25:04Z</time>
      </trkpt>
      <trkpt lat="46.30286" lon="-0.49305">
        <ele>48</ele>
        <time>2012-01-12T14:25:09Z</time>
      </trkpt>
      <trkpt lat="46.30287" lon="-0.49298">
        <ele>47</ele>
        <time>2012-01-12T14:25:14Z</time>
      </trkpt>
      <trkpt lat="46.30286" lon="-0.49297">
        <ele>47</ele>
        <time>2012-01-12T14:25:19Z</time>
      </trkpt>
      <trkpt lat="46.30285" lon="-0.49297">
        <ele>48</ele>
        <time>2012-01-12T14:25:24Z</time>
      </trkpt>
      <trkpt lat="46.30282" lon="-0.49295">
        <ele>48</ele>
        <time>2012-01-12T14:25:29Z</time>
      </trkpt>
      <trkpt lat="46.30278" lon="-0.49297">
        <ele>48</ele>
        <time>2012-01-12T14:25:34Z</time>
      </trkpt>
      <trkpt lat="46.30273" lon="-0.49296">
        <ele>49</ele>
        <time>2012-01-12T14:25:39Z</time>
      </trkpt>
      <trkpt lat="46.30268" lon="-0.49296">
        <ele>49</ele>
        <time>2012-01-12T14:25:44Z</time>
      </trkpt>
      <trkpt lat="46.30264" lon="-0.49298">
        <ele>49</ele>
        <time>2012-01-12T14:25:49Z</time>
      </trkpt>
      <trkpt lat="46.30263" lon="-0.4929">
        <ele>49</ele>
        <time>2012-01-12T14:25:54Z</time>
      </trkpt>
      <trkpt lat="46.30261" lon="-0.49283">
        <ele>49</ele>
        <time>2012-01-12T14:25:59Z</time>
      </trkpt>
      <trkpt lat="46.3026" lon="-0.49278">
        <ele>49</ele>
        <time>2012-01-12T14:26:04Z</time>
      </trkpt>
      <trkpt lat="46.30259" lon="-0.49271">
        <ele>49</ele>
        <time>2012-01-12T14:26:09Z</time>
      </trkpt>
      <trkpt lat="46.30256" lon="-0.49266">
        <ele>49</ele>
        <time>2012-01-12T14:26:14Z</time>
      </trkpt>
      <trkpt lat="46.30251" lon="-0.49264">
        <ele>49</ele>
        <time>2012-01-12T14:26:19Z</time>
      </trkpt>
      <trkpt lat="46.30245" lon="-0.49262">
        <ele>49</ele>
        <time>2012-01-12T14:26:24Z</time>
      </trkpt>
      <trkpt lat="46.30241" lon="-0.49262">
        <ele>50</ele>
        <time>2012-01-12T14:26:29Z</time>
      </trkpt>
      <trkpt lat="46.30237" lon="-0.49263">
        <ele>49</ele>
        <time>2012-01-12T14:26:34Z</time>
      </trkpt>
      <trkpt lat="46.30233" lon="-0.49263">
        <ele>49</ele>
        <time>2012-01-12T14:26:39Z</time>
      </trkpt>
      <trkpt lat="46.3023" lon="-0.49263">
        <ele>49</ele>
        <time>2012-01-12T14:26:44Z</time>
      </trkpt>
      <trkpt lat="46.30228" lon="-0.49259">
        <ele>49</ele>
        <time>2012-01-12T14:26:49Z</time>
      </trkpt>
      <trkpt lat="46.30224" lon="-0.49254">
        <ele>48</ele>
        <time>2012-01-12T14:26:54Z</time>
      </trkpt>
      <trkpt lat="46.30219" lon="-0.49251">
        <ele>49</ele>
        <time>2012-01-12T14:26:59Z</time>
      </trkpt>
      <trkpt lat="46.30213" lon="-0.49244">
        <ele>50</ele>
        <time>2012-01-12T14:27:04Z</time>
      </trkpt>
      <trkpt lat="46.30212" lon="-0.49238">
        <ele>49</ele>
        <time>2012-01-12T14:27:09Z</time>
      </trkpt>
      <trkpt lat="46.3021" lon="-0.4923">
        <ele>48</ele>
        <time>2012-01-12T14:27:14Z</time>
      </trkpt>
      <trkpt lat="46.30208" lon="-0.49223">
        <ele>48</ele>
        <time>2012-01-12T14:27:19Z</time>
      </trkpt>
      <trkpt lat="46.30207" lon="-0.49217">
        <ele>47</ele>
        <time>2012-01-12T14:27:24Z</time>
      </trkpt>
      <trkpt lat="46.30206" lon="-0.49211">
        <ele>46</ele>
        <time>2012-01-12T14:27:29Z</time>
      </trkpt>
      <trkpt lat="46.30205" lon="-0.49202">
        <ele>46</ele>
        <time>2012-01-12T14:27:34Z</time>
      </trkpt>
      <trkpt lat="46.30204" lon="-0.49196">
        <ele>46</ele>
        <time>2012-01-12T14:27:39Z</time>
      </trkpt>
      <trkpt lat="46.30204" lon="-0.49191">
        <ele>46</ele>
        <time>2012-01-12T14:27:44Z</time>
      </trkpt>
      <trkpt lat="46.30205" lon="-0.49183">
        <ele>46</ele>
        <time>2012-01-12T14:27:49Z</time>
      </trkpt>
      <trkpt lat="46.30204" lon="-0.49178">
        <ele>45</ele>
        <time>2012-01-12T14:27:54Z</time>
      </trkpt>
      <trkpt lat="46.30202" lon="-0.4917">
        <ele>44</ele>
        <time>2012-01-12T14:27:59Z</time>
      </trkpt>
      <trkpt lat="46.30204" lon="-0.49162">
        <ele>45</ele>
        <time>2012-01-12T14:28:04Z</time>
      </trkpt>
      <trkpt lat="46.30207" lon="-0.49155">
        <ele>46</ele>
        <time>2012-01-12T14:28:09Z</time>
      </trkpt>
      <trkpt lat="46.30212" lon="-0.49149">
        <ele>46</ele>
        <time>2012-01-12T14:28:14Z</time>
      </trkpt>
      <trkpt lat="46.30214" lon="-0.49143">
        <ele>46</ele>
        <time>2012-01-12T14:28:19Z</time>
      </trkpt>
      <trkpt lat="46.30212" lon="-0.4914">
        <ele>46</ele>
        <time>2012-01-12T14:28:24Z</time>
      </trkpt>
      <trkpt lat="46.30206" lon="-0.49136">
        <ele>45</ele>
        <time>2012-01-12T14:28:29Z</time>
      </trkpt>
      <trkpt lat="46.30201" lon="-0.49134">
        <ele>45</ele>
        <time>2012-01-12T14:28:34Z</time>
      </trkpt>
      <trkpt lat="46.30197" lon="-0.49133">
        <ele>45</ele>
        <time>2012-01-12T14:28:39Z</time>
      </trkpt>
      <trkpt lat="46.30193" lon="-0.49127">
        <ele>45</ele>
        <time>2012-01-12T14:28:44Z</time>
      </trkpt>
      <trkpt lat="46.30191" lon="-0.49119">
        <ele>47</ele>
        <time>2012-01-12T14:28:49Z</time>
      </trkpt>
      <trkpt lat="46.3019" lon="-0.4911">
        <ele>48</ele>
        <time>2012-01-12T14:28:54Z</time>
      </trkpt>
      <trkpt lat="46.30189" lon="-0.49101">
        <ele>47</ele>
        <time>2012-01-12T14:28:59Z</time>
      </trkpt>
      <trkpt lat="46.30186" lon="-0.49094">
        <ele>47</ele>
        <time>2012-01-12T14:29:04Z</time>
      </trkpt>
      <trkpt lat="46.30184" lon="-0.49089">
        <ele>47</ele>
        <time>2012-01-12T14:29:09Z</time>
      </trkpt>
      <trkpt lat="46.3018" lon="-0.49082">
        <ele>47</ele>
        <time>2012-01-12T14:29:14Z</time>
      </trkpt>
      <trkpt lat="46.30178" lon="-0.49076">
        <ele>47</ele>
        <time>2012-01-12T14:29:19Z</time>
      </trkpt>
      <trkpt lat="46.30176" lon="-0.49071">
        <ele>47</ele>
        <time>2012-01-12T14:29:24Z</time>
      </trkpt>
      <trkpt lat="46.30172" lon="-0.49065">
        <ele>46</ele>
        <time>2012-01-12T14:29:29Z</time>
      </trkpt>
      <trkpt lat="46.3017" lon="-0.49058">
        <ele>44</ele>
        <time>2012-01-12T14:29:34Z</time>
      </trkpt>
      <trkpt lat="46.30168" lon="-0.49054">
        <ele>43</ele>
        <time>2012-01-12T14:29:39Z</time>
      </trkpt>
      <trkpt lat="46.30167" lon="-0.49048">
        <ele>43</ele>
        <time>2012-01-12T14:29:44Z</time>
      </trkpt>
      <trkpt lat="46.30163" lon="-0.49037">
        <ele>45</ele>
        <time>2012-01-12T14:29:49Z</time>
      </trkpt>
      <trkpt lat="46.30161" lon="-0.49029">
        <ele>46</ele>
        <time>2012-01-12T14:29:54Z</time>
      </trkpt>
      <trkpt lat="46.30158" lon="-0.4902">
        <ele>46</ele>
        <time>2012-01-12T14:29:59Z</time>
      </trkpt>
      <trkpt lat="46.30156" lon="-0.49015">
        <ele>45</ele>
        <time>2012-01-12T14:30:04Z</time>
      </trkpt>
      <trkpt lat="46.30154" lon="-0.49007">
        <ele>45</ele>
        <time>2012-01-12T14:30:09Z</time>
      </trkpt>
      <trkpt lat="46.30152" lon="-0.49">
        <ele>44</ele>
        <time>2012-01-12T14:30:14Z</time>
      </trkpt>
      <trkpt lat="46.30149" lon="-0.48994">
        <ele>44</ele>
        <time>2012-01-12T14:30:19Z</time>
      </trkpt>
      <trkpt lat="46.30147" lon="-0.48987">
        <ele>45</ele>
        <time>2012-01-12T14:30:24Z</time>
      </trkpt>
      <trkpt lat="46.30145" lon="-0.4898">
        <ele>44</ele>
        <time>2012-01-12T14:30:29Z</time>
      </trkpt>
      <trkpt lat="46.30143" lon="-0.48976">
        <ele>43</ele>
        <time>2012-01-12T14:30:34Z</time>
      </trkpt>
      <trkpt lat="46.3014" lon="-0.48967">
        <ele>44</ele>
        <time>2012-01-12T14:30:39Z</time>
      </trkpt>
      <trkpt lat="46.30138" lon="-0.4896">
        <ele>44</ele>
        <time>2012-01-12T14:30:44Z</time>
      </trkpt>
      <trkpt lat="46.30136" lon="-0.48952">
        <ele>44</ele>
        <time>2012-01-12T14:30:49Z</time>
      </trkpt>
      <trkpt lat="46.30134" lon="-0.48944">
        <ele>44</ele>
        <time>2012-01-12T14:30:54Z</time>
      </trkpt>
      <trkpt lat="46.30132" lon="-0.48938">
        <ele>45</ele>
        <time>2012-01-12T14:30:59Z</time>
      </trkpt>
      <trkpt lat="46.30131" lon="-0.48929">
        <ele>45</ele>
        <time>2012-01-12T14:31:04Z</time>
      </trkpt>
      <trkpt lat="46.3013" lon="-0.48922">
        <ele>44</ele>
        <time>2012-01-12T14:31:09Z</time>
      </trkpt>
      <trkpt lat="46.30126" lon="-0.48915">
        <ele>44</ele>
        <time>2012-01-12T14:31:14Z</time>
      </trkpt>
      <trkpt lat="46.30124" lon="-0.48907">
        <ele>44</ele>
        <time>2012-01-12T14:31:19Z</time>
      </trkpt>
      <trkpt lat="46.30122" lon="-0.48901">
        <ele>45</ele>
        <time>2012-01-12T14:31:24Z</time>
      </trkpt>
      <trkpt lat="46.30119" lon="-0.48896">
        <ele>45</ele>
        <time>2012-01-12T14:31:29Z</time>
      </trkpt>
      <trkpt lat="46.30114" lon="-0.48892">
        <ele>46</ele>
        <time>2012-01-12T14:31:34Z</time>
      </trkpt>
      <trkpt lat="46.3011" lon="-0.48884">
        <ele>46</ele>
        <time>2012-01-12T14:31:39Z</time>
      </trkpt>
      <trkpt lat="46.30112" lon="-0.48881">
        <ele>44</ele>
        <time>2012-01-12T14:31:44Z</time>
      </trkpt>
      <trkpt lat="46.30111" lon="-0.48873">
        <ele>43</ele>
        <time>2012-01-12T14:31:49Z</time>
      </trkpt>
      <trkpt lat="46.3011" lon="-0.48864">
        <ele>43</ele>
        <time>2012-01-12T14:31:54Z</time>
      </trkpt>
      <trkpt lat="46.30108" lon="-0.48854">
        <ele>44</ele>
        <time>2012-01-12T14:31:59Z</time>
      </trkpt>
      <trkpt lat="46.30106" lon="-0.48846">
        <ele>44</ele>
        <time>2012-01-12T14:32:04Z</time>
      </trkpt>
      <trkpt lat="46.30105" lon="-0.4884">
        <ele>44</ele>
        <time>2012-01-12T14:32:09Z</time>
      </trkpt>
      <trkpt lat="46.30103" lon="-0.4883">
        <ele>44</ele>
        <time>2012-01-12T14:32:14Z</time>
      </trkpt>
      <trkpt lat="46.30101" lon="-0.48823">
        <ele>44</ele>
        <time>2012-01-12T14:32:19Z</time>
      </trkpt>
      <trkpt lat="46.30099" lon="-0.48814">
        <ele>45</ele>
        <time>2012-01-12T14:32:24Z</time>
      </trkpt>
      <trkpt lat="46.30097" lon="-0.48805">
        <ele>44</ele>
        <time>2012-01-12T14:32:29Z</time>
      </trkpt>
      <trkpt lat="46.30095" lon="-0.48797">
        <ele>44</ele>
        <time>2012-01-12T14:32:34Z</time>
      </trkpt>
      <trkpt lat="46.30094" lon="-0.48789">
        <ele>45</ele>
        <time>2012-01-12T14:32:39Z</time>
      </trkpt>
      <trkpt lat="46.30093" lon="-0.48781">
        <ele>45</ele>
        <time>2012-01-12T14:32:44Z</time>
      </trkpt>
      <trkpt lat="46.30088" lon="-0.48775">
        <ele>46</ele>
        <time>2012-01-12T14:32:49Z</time>
      </trkpt>
      <trkpt lat="46.30082" lon="-0.48773">
        <ele>48</ele>
        <time>2012-01-12T14:32:54Z</time>
      </trkpt>
      <trkpt lat="46.30078" lon="-0.48772">
        <ele>48</ele>
        <time>2012-01-12T14:32:59Z</time>
      </trkpt>
      <trkpt lat="46.30072" lon="-0.48774">
        <ele>50</ele>
        <time>2012-01-12T14:33:04Z</time>
      </trkpt>
      <trkpt lat="46.30066" lon="-0.48775">
        <ele>51</ele>
        <time>2012-01-12T14:33:09Z</time>
      </trkpt>
      <trkpt lat="46.30059" lon="-0.48775">
        <ele>54</ele>
        <time>2012-01-12T14:33:14Z</time>
      </trkpt>
      <trkpt lat="46.30055" lon="-0.48779">
        <ele>54</ele>
        <time>2012-01-12T14:33:19Z</time>
      </trkpt>
      <trkpt lat="46.30049" lon="-0.48778">
        <ele>54</ele>
        <time>2012-01-12T14:33:24Z</time>
      </trkpt>
      <trkpt lat="46.30044" lon="-0.48776">
        <ele>57</ele>
        <time>2012-01-12T14:33:29Z</time>
      </trkpt>
      <trkpt lat="46.30038" lon="-0.48777">
        <ele>56</ele>
        <time>2012-01-12T14:33:34Z</time>
      </trkpt>
      <trkpt lat="46.30031" lon="-0.48778">
        <ele>57</ele>
        <time>2012-01-12T14:33:39Z</time>
      </trkpt>
      <trkpt lat="46.30025" lon="-0.48779">
        <ele>57</ele>
        <time>2012-01-12T14:33:44Z</time>
      </trkpt>
      <trkpt lat="46.3002" lon="-0.4878">
        <ele>56</ele>
        <time>2012-01-12T14:33:49Z</time>
      </trkpt>
      <trkpt lat="46.30013" lon="-0.4878">
        <ele>58</ele>
        <time>2012-01-12T14:33:54Z</time>
      </trkpt>
      <trkpt lat="46.30008" lon="-0.4878">
        <ele>57</ele>
        <time>2012-01-12T14:33:59Z</time>
      </trkpt>
      <trkpt lat="46.30001" lon="-0.48781">
        <ele>58</ele>
        <time>2012-01-12T14:34:04Z</time>
      </trkpt>
      <trkpt lat="46.29998" lon="-0.48781">
        <ele>57</ele>
        <time>2012-01-12T14:34:09Z</time>
      </trkpt>
      <trkpt lat="46.29993" lon="-0.48782">
        <ele>57</ele>
        <time>2012-01-12T14:34:14Z</time>
      </trkpt>
      <trkpt lat="46.29989" lon="-0.48781">
        <ele>57</ele>
        <time>2012-01-12T14:34:19Z</time>
      </trkpt>
      <trkpt lat="46.29982" lon="-0.48781">
        <ele>58</ele>
        <time>2012-01-12T14:34:24Z</time>
      </trkpt>
      <trkpt lat="46.29977" lon="-0.4878">
        <ele>58</ele>
        <time>2012-01-12T14:34:29Z</time>
      </trkpt>
      <trkpt lat="46.29971" lon="-0.48779">
        <ele>59</ele>
        <time>2012-01-12T14:34:34Z</time>
      </trkpt>
      <trkpt lat="46.29966" lon="-0.48777">
        <ele>60</ele>
        <time>2012-01-12T14:34:39Z</time>
      </trkpt>
      <trkpt lat="46.29962" lon="-0.48778">
        <ele>59</ele>
        <time>2012-01-12T14:34:44Z</time>
      </trkpt>
      <trkpt lat="46.29957" lon="-0.48778">
        <ele>59</ele>
        <time>2012-01-12T14:34:49Z</time>
      </trkpt>
      <trkpt lat="46.29954" lon="-0.48776">
        <ele>59</ele>
        <time>2012-01-12T14:34:54Z</time>
      </trkpt>
      <trkpt lat="46.29949" lon="-0.48776">
        <ele>58</ele>
        <time>2012-01-12T14:34:59Z</time>
      </trkpt>
      <trkpt lat="46.29944" lon="-0.48775">
        <ele>59</ele>
        <time>2012-01-12T14:35:04Z</time>
      </trkpt>
      <trkpt lat="46.29944" lon="-0.48777">
        <ele>59</ele>
        <time>2012-01-12T14:35:09Z</time>
      </trkpt>
      <trkpt lat="46.29942" lon="-0.48776">
        <ele>59</ele>
        <time>2012-01-12T14:35:14Z</time>
      </trkpt>
      <trkpt lat="46.29939" lon="-0.48774">
        <ele>59</ele>
        <time>2012-01-12T14:35:19Z</time>
      </trkpt>
      <trkpt lat="46.29933" lon="-0.48773">
        <ele>59</ele>
        <time>2012-01-12T14:35:24Z</time>
      </trkpt>
      <trkpt lat="46.29929" lon="-0.48774">
        <ele>60</ele>
        <time>2012-01-12T14:35:29Z</time>
      </trkpt>
      <trkpt lat="46.29922" lon="-0.48774">
        <ele>60</ele>
        <time>2012-01-12T14:35:34Z</time>
      </trkpt>
      <trkpt lat="46.29917" lon="-0.48774">
        <ele>61</ele>
        <time>2012-01-12T14:35:39Z</time>
      </trkpt>
      <trkpt lat="46.29912" lon="-0.48774">
        <ele>61</ele>
        <time>2012-01-12T14:35:44Z</time>
      </trkpt>
      <trkpt lat="46.29906" lon="-0.48774">
        <ele>61</ele>
        <time>2012-01-12T14:35:49Z</time>
      </trkpt>
      <trkpt lat="46.29903" lon="-0.48774">
        <ele>61</ele>
        <time>2012-01-12T14:35:54Z</time>
      </trkpt>
      <trkpt lat="46.29897" lon="-0.48775">
        <ele>62</ele>
        <time>2012-01-12T14:35:59Z</time>
      </trkpt>
      <trkpt lat="46.29892" lon="-0.48775">
        <ele>62</ele>
        <time>2012-01-12T14:36:04Z</time>
      </trkpt>
      <trkpt lat="46.29887" lon="-0.48775">
        <ele>62</ele>
        <time>2012-01-12T14:36:09Z</time>
      </trkpt>
      <trkpt lat="46.29882" lon="-0.48776">
        <ele>62</ele>
        <time>2012-01-12T14:36:14Z</time>
      </trkpt>
      <trkpt lat="46.29877" lon="-0.48777">
        <ele>62</ele>
        <time>2012-01-12T14:36:19Z</time>
      </trkpt>
      <trkpt lat="46.29873" lon="-0.48777">
        <ele>62</ele>
        <time>2012-01-12T14:36:24Z</time>
      </trkpt>
      <trkpt lat="46.29868" lon="-0.48779">
        <ele>62</ele>
        <time>2012-01-12T14:36:29Z</time>
      </trkpt>
      <trkpt lat="46.29863" lon="-0.48781">
        <ele>62</ele>
        <time>2012-01-12T14:36:34Z</time>
      </trkpt>
      <trkpt lat="46.29858" lon="-0.48783">
        <ele>62</ele>
        <time>2012-01-12T14:36:39Z</time>
      </trkpt>
      <trkpt lat="46.29851" lon="-0.48787">
        <ele>63</ele>
        <time>2012-01-12T14:36:44Z</time>
      </trkpt>
      <trkpt lat="46.29848" lon="-0.4879">
        <ele>63</ele>
        <time>2012-01-12T14:36:49Z</time>
      </trkpt>
      <trkpt lat="46.29844" lon="-0.48794">
        <ele>63</ele>
        <time>2012-01-12T14:36:54Z</time>
      </trkpt>
      <trkpt lat="46.29837" lon="-0.48797">
        <ele>63</ele>
        <time>2012-01-12T14:36:59Z</time>
      </trkpt>
      <trkpt lat="46.29833" lon="-0.48799">
        <ele>63</ele>
        <time>2012-01-12T14:37:04Z</time>
      </trkpt>
      <trkpt lat="46.29828" lon="-0.48804">
        <ele>63</ele>
        <time>2012-01-12T14:37:09Z</time>
      </trkpt>
      <trkpt lat="46.29823" lon="-0.48807">
        <ele>64</ele>
        <time>2012-01-12T14:37:14Z</time>
      </trkpt>
      <trkpt lat="46.29817" lon="-0.48812">
        <ele>66</ele>
        <time>2012-01-12T14:37:19Z</time>
      </trkpt>
      <trkpt lat="46.29813" lon="-0.48816">
        <ele>66</ele>
        <time>2012-01-12T14:37:24Z</time>
      </trkpt>
      <trkpt lat="46.29809" lon="-0.48819">
        <ele>66</ele>
        <time>2012-01-12T14:37:29Z</time>
      </trkpt>
      <trkpt lat="46.29804" lon="-0.48823">
        <ele>66</ele>
        <time>2012-01-12T14:37:34Z</time>
      </trkpt>
      <trkpt lat="46.298" lon="-0.48825">
        <ele>67</ele>
        <time>2012-01-12T14:37:39Z</time>
      </trkpt>
      <trkpt lat="46.29795" lon="-0.48829">
        <ele>67</ele>
        <time>2012-01-12T14:37:44Z</time>
      </trkpt>
      <trkpt lat="46.29789" lon="-0.48833">
        <ele>68</ele>
        <time>2012-01-12T14:37:49Z</time>
      </trkpt>
      <trkpt lat="46.29785" lon="-0.48836">
        <ele>68</ele>
        <time>2012-01-12T14:37:54Z</time>
      </trkpt>
      <trkpt lat="46.29781" lon="-0.48838">
        <ele>69</ele>
        <time>2012-01-12T14:37:59Z</time>
      </trkpt>
      <trkpt lat="46.29777" lon="-0.48842">
        <ele>69</ele>
        <time>2012-01-12T14:38:04Z</time>
      </trkpt>
      <trkpt lat="46.29771" lon="-0.48846">
        <ele>70</ele>
        <time>2012-01-12T14:38:09Z</time>
      </trkpt>
      <trkpt lat="46.29764" lon="-0.48849">
        <ele>71</ele>
        <time>2012-01-12T14:38:14Z</time>
      </trkpt>
      <trkpt lat="46.2976" lon="-0.48851">
        <ele>71</ele>
        <time>2012-01-12T14:38:19Z</time>
      </trkpt>
      <trkpt lat="46.29753" lon="-0.48854">
        <ele>72</ele>
        <time>2012-01-12T14:38:24Z</time>
      </trkpt>
      <trkpt lat="46.29749" lon="-0.48856">
        <ele>72</ele>
        <time>2012-01-12T14:38:29Z</time>
      </trkpt>
      <trkpt lat="46.29743" lon="-0.48859">
        <ele>72</ele>
        <time>2012-01-12T14:38:34Z</time>
      </trkpt>
      <trkpt lat="46.29742" lon="-0.4886">
        <ele>71</ele>
        <time>2012-01-12T14:38:39Z</time>
      </trkpt>
      <trkpt lat="46.29739" lon="-0.48861">
        <ele>72</ele>
        <time>2012-01-12T14:38:44Z</time>
      </trkpt>
      <trkpt lat="46.29734" lon="-0.48862">
        <ele>71</ele>
        <time>2012-01-12T14:38:49Z</time>
      </trkpt>
      <trkpt lat="46.29729" lon="-0.48862">
        <ele>71</ele>
        <time>2012-01-12T14:38:54Z</time>
      </trkpt>
      <trkpt lat="46.29722" lon="-0.48863">
        <ele>71</ele>
        <time>2012-01-12T14:38:59Z</time>
      </trkpt>
      <trkpt lat="46.29716" lon="-0.48864">
        <ele>71</ele>
        <time>2012-01-12T14:39:04Z</time>
      </trkpt>
      <trkpt lat="46.29712" lon="-0.48864">
        <ele>71</ele>
        <time>2012-01-12T14:39:09Z</time>
      </trkpt>
      <trkpt lat="46.29705" lon="-0.48866">
        <ele>70</ele>
        <time>2012-01-12T14:39:14Z</time>
      </trkpt>
      <trkpt lat="46.29699" lon="-0.48866">
        <ele>70</ele>
        <time>2012-01-12T14:39:19Z</time>
      </trkpt>
      <trkpt lat="46.29694" lon="-0.48866">
        <ele>70</ele>
        <time>2012-01-12T14:39:24Z</time>
      </trkpt>
      <trkpt lat="46.29689" lon="-0.48868">
        <ele>69</ele>
        <time>2012-01-12T14:39:29Z</time>
      </trkpt>
      <trkpt lat="46.29684" lon="-0.48868">
        <ele>68</ele>
        <time>2012-01-12T14:39:34Z</time>
      </trkpt>
      <trkpt lat="46.29679" lon="-0.48869">
        <ele>67</ele>
        <time>2012-01-12T14:39:39Z</time>
      </trkpt>
      <trkpt lat="46.29675" lon="-0.4887">
        <ele>67</ele>
        <time>2012-01-12T14:39:44Z</time>
      </trkpt>
      <trkpt lat="46.29671" lon="-0.48873">
        <ele>69</ele>
        <time>2012-01-12T14:39:49Z</time>
      </trkpt>
      <trkpt lat="46.29668" lon="-0.48875">
        <ele>69</ele>
        <time>2012-01-12T14:39:54Z</time>
      </trkpt>
      <trkpt lat="46.29667" lon="-0.48875">
        <ele>69</ele>
        <time>2012-01-12T14:39:59Z</time>
      </trkpt>
      <trkpt lat="46.29667" lon="-0.48876">
        <ele>69</ele>
        <time>2012-01-12T14:40:09Z</time>
      </trkpt>
      <trkpt lat="46.29666" lon="-0.48876">
        <ele>69</ele>
        <time>2012-01-12T14:40:14Z</time>
      </trkpt>
      <trkpt lat="46.29667" lon="-0.48877">
        <ele>70</ele>
        <time>2012-01-12T14:40:19Z</time>
      </trkpt>
      <trkpt lat="46.29666" lon="-0.48877">
        <ele>71</ele>
        <time>2012-01-12T14:40:29Z</time>
      </trkpt>
      <trkpt lat="46.29664" lon="-0.48877">
        <ele>72</ele>
        <time>2012-01-12T14:40:44Z</time>
      </trkpt>
      <trkpt lat="46.29661" lon="-0.48879">
        <ele>72</ele>
        <time>2012-01-12T14:42:19Z</time>
      </trkpt>
      <trkpt lat="46.29655" lon="-0.48883">
        <ele>72</ele>
        <time>2012-01-12T14:42:24Z</time>
      </trkpt>
      <trkpt lat="46.2965" lon="-0.48886">
        <ele>71</ele>
        <time>2012-01-12T14:42:29Z</time>
      </trkpt>
      <trkpt lat="46.29646" lon="-0.48888">
        <ele>72</ele>
        <time>2012-01-12T14:42:34Z</time>
      </trkpt>
      <trkpt lat="46.29641" lon="-0.48891">
        <ele>72</ele>
        <time>2012-01-12T14:42:39Z</time>
      </trkpt>
      <trkpt lat="46.29635" lon="-0.48894">
        <ele>72</ele>
        <time>2012-01-12T14:42:44Z</time>
      </trkpt>
      <trkpt lat="46.29631" lon="-0.48897">
        <ele>71</ele>
        <time>2012-01-12T14:42:49Z</time>
      </trkpt>
      <trkpt lat="46.29626" lon="-0.48899">
        <ele>72</ele>
        <time>2012-01-12T14:42:54Z</time>
      </trkpt>
      <trkpt lat="46.29622" lon="-0.48901">
        <ele>72</ele>
        <time>2012-01-12T14:42:59Z</time>
      </trkpt>
      <trkpt lat="46.29617" lon="-0.48904">
        <ele>72</ele>
        <time>2012-01-12T14:43:04Z</time>
      </trkpt>
      <trkpt lat="46.29613" lon="-0.48905">
        <ele>72</ele>
        <time>2012-01-12T14:43:09Z</time>
      </trkpt>
      <trkpt lat="46.29609" lon="-0.48906">
        <ele>73</ele>
        <time>2012-01-12T14:43:14Z</time>
      </trkpt>
      <trkpt lat="46.29603" lon="-0.48908">
        <ele>73</ele>
        <time>2012-01-12T14:43:19Z</time>
      </trkpt>
      <trkpt lat="46.29597" lon="-0.48911">
        <ele>72</ele>
        <time>2012-01-12T14:43:24Z</time>
      </trkpt>
      <trkpt lat="46.29593" lon="-0.48912">
        <ele>72</ele>
        <time>2012-01-12T14:43:29Z</time>
      </trkpt>
      <trkpt lat="46.29587" lon="-0.48914">
        <ele>72</ele>
        <time>2012-01-12T14:43:34Z</time>
      </trkpt>
      <trkpt lat="46.29582" lon="-0.48917">
        <ele>71</ele>
        <time>2012-01-12T14:43:39Z</time>
      </trkpt>
      <trkpt lat="46.29578" lon="-0.48918">
        <ele>72</ele>
        <time>2012-01-12T14:43:44Z</time>
      </trkpt>
      <trkpt lat="46.29573" lon="-0.4892">
        <ele>73</ele>
        <time>2012-01-12T14:43:49Z</time>
      </trkpt>
      <trkpt lat="46.29568" lon="-0.48922">
        <ele>72</ele>
        <time>2012-01-12T14:43:54Z</time>
      </trkpt>
      <trkpt lat="46.29564" lon="-0.48923">
        <ele>71</ele>
        <time>2012-01-12T14:43:59Z</time>
      </trkpt>
      <trkpt lat="46.29557" lon="-0.48926">
        <ele>71</ele>
        <time>2012-01-12T14:44:04Z</time>
      </trkpt>
      <trkpt lat="46.29552" lon="-0.48927">
        <ele>70</ele>
        <time>2012-01-12T14:44:09Z</time>
      </trkpt>
      <trkpt lat="46.29546" lon="-0.48928">
        <ele>71</ele>
        <time>2012-01-12T14:44:14Z</time>
      </trkpt>
      <trkpt lat="46.29543" lon="-0.48928">
        <ele>72</ele>
        <time>2012-01-12T14:44:19Z</time>
      </trkpt>
      <trkpt lat="46.29537" lon="-0.4893">
        <ele>71</ele>
        <time>2012-01-12T14:44:24Z</time>
      </trkpt>
      <trkpt lat="46.2953" lon="-0.4893">
        <ele>71</ele>
        <time>2012-01-12T14:44:29Z</time>
      </trkpt>
      <trkpt lat="46.29525" lon="-0.4893">
        <ele>72</ele>
        <time>2012-01-12T14:44:34Z</time>
      </trkpt>
      <trkpt lat="46.29521" lon="-0.48932">
        <ele>71</ele>
        <time>2012-01-12T14:44:39Z</time>
      </trkpt>
      <trkpt lat="46.29515" lon="-0.48932">
        <ele>71</ele>
        <time>2012-01-12T14:44:44Z</time>
      </trkpt>
      <trkpt lat="46.29509" lon="-0.48933">
        <ele>71</ele>
        <time>2012-01-12T14:44:49Z</time>
      </trkpt>
      <trkpt lat="46.29504" lon="-0.48934">
        <ele>71</ele>
        <time>2012-01-12T14:44:54Z</time>
      </trkpt>
      <trkpt lat="46.29498" lon="-0.48935">
        <ele>71</ele>
        <time>2012-01-12T14:44:59Z</time>
      </trkpt>
      <trkpt lat="46.29493" lon="-0.48936">
        <ele>71</ele>
        <time>2012-01-12T14:45:04Z</time>
      </trkpt>
      <trkpt lat="46.29488" lon="-0.48937">
        <ele>70</ele>
        <time>2012-01-12T14:45:09Z</time>
      </trkpt>
      <trkpt lat="46.29484" lon="-0.48937">
        <ele>69</ele>
        <time>2012-01-12T14:45:14Z</time>
      </trkpt>
      <trkpt lat="46.29479" lon="-0.48938">
        <ele>70</ele>
        <time>2012-01-12T14:45:19Z</time>
      </trkpt>
      <trkpt lat="46.29472" lon="-0.48939">
        <ele>70</ele>
        <time>2012-01-12T14:45:24Z</time>
      </trkpt>
      <trkpt lat="46.29467" lon="-0.48939">
        <ele>69</ele>
        <time>2012-01-12T14:45:29Z</time>
      </trkpt>
      <trkpt lat="46.29461" lon="-0.48939">
        <ele>68</ele>
        <time>2012-01-12T14:45:34Z</time>
      </trkpt>
      <trkpt lat="46.29457" lon="-0.48939">
        <ele>68</ele>
        <time>2012-01-12T14:45:39Z</time>
      </trkpt>
      <trkpt lat="46.29451" lon="-0.48939">
        <ele>68</ele>
        <time>2012-01-12T14:45:44Z</time>
      </trkpt>
      <trkpt lat="46.29447" lon="-0.48937">
        <ele>68</ele>
        <time>2012-01-12T14:45:49Z</time>
      </trkpt>
      <trkpt lat="46.2944" lon="-0.48936">
        <ele>67</ele>
        <time>2012-01-12T14:45:54Z</time>
      </trkpt>
      <trkpt lat="46.29434" lon="-0.48935">
        <ele>67</ele>
        <time>2012-01-12T14:45:59Z</time>
      </trkpt>
      <trkpt lat="46.2943" lon="-0.48934">
        <ele>67</ele>
        <time>2012-01-12T14:46:04Z</time>
      </trkpt>
      <trkpt lat="46.29424" lon="-0.48931">
        <ele>68</ele>
        <time>2012-01-12T14:46:09Z</time>
      </trkpt>
      <trkpt lat="46.2942" lon="-0.48928">
        <ele>67</ele>
        <time>2012-01-12T14:46:14Z</time>
      </trkpt>
      <trkpt lat="46.29416" lon="-0.48925">
        <ele>65</ele>
        <time>2012-01-12T14:46:19Z</time>
      </trkpt>
      <trkpt lat="46.29412" lon="-0.48923">
        <ele>64</ele>
        <time>2012-01-12T14:46:24Z</time>
      </trkpt>
      <trkpt lat="46.29405" lon="-0.48922">
        <ele>64</ele>
        <time>2012-01-12T14:46:29Z</time>
      </trkpt>
      <trkpt lat="46.294" lon="-0.48921">
        <ele>65</ele>
        <time>2012-01-12T14:46:34Z</time>
      </trkpt>
      <trkpt lat="46.29393" lon="-0.48922">
        <ele>64</ele>
        <time>2012-01-12T14:46:39Z</time>
      </trkpt>
      <trkpt lat="46.29389" lon="-0.48923">
        <ele>64</ele>
        <time>2012-01-12T14:46:44Z</time>
      </trkpt>
      <trkpt lat="46.29382" lon="-0.48926">
        <ele>66</ele>
        <time>2012-01-12T14:46:49Z</time>
      </trkpt>
      <trkpt lat="46.29377" lon="-0.48928">
        <ele>66</ele>
        <time>2012-01-12T14:46:54Z</time>
      </trkpt>
      <trkpt lat="46.2937" lon="-0.48932">
        <ele>66</ele>
        <time>2012-01-12T14:46:59Z</time>
      </trkpt>
      <trkpt lat="46.29365" lon="-0.48935">
        <ele>65</ele>
        <time>2012-01-12T14:47:04Z</time>
      </trkpt>
      <trkpt lat="46.2936" lon="-0.48939">
        <ele>65</ele>
        <time>2012-01-12T14:47:09Z</time>
      </trkpt>
      <trkpt lat="46.29354" lon="-0.48941">
        <ele>65</ele>
        <time>2012-01-12T14:47:14Z</time>
      </trkpt>
      <trkpt lat="46.29346" lon="-0.48947">
        <ele>66</ele>
        <time>2012-01-12T14:47:19Z</time>
      </trkpt>
      <trkpt lat="46.29344" lon="-0.48948">
        <ele>66</ele>
        <time>2012-01-12T14:47:24Z</time>
      </trkpt>
      <trkpt lat="46.29336" lon="-0.48953">
        <ele>68</ele>
        <time>2012-01-12T14:47:29Z</time>
      </trkpt>
      <trkpt lat="46.2933" lon="-0.48956">
        <ele>70</ele>
        <time>2012-01-12T14:47:34Z</time>
      </trkpt>
      <trkpt lat="46.29323" lon="-0.48958">
        <ele>71</ele>
        <time>2012-01-12T14:47:39Z</time>
      </trkpt>
      <trkpt lat="46.29319" lon="-0.48959">
        <ele>71</ele>
        <time>2012-01-12T14:47:44Z</time>
      </trkpt>
      <trkpt lat="46.29314" lon="-0.48963">
        <ele>71</ele>
        <time>2012-01-12T14:47:49Z</time>
      </trkpt>
      <trkpt lat="46.2931" lon="-0.48964">
        <ele>71</ele>
        <time>2012-01-12T14:47:54Z</time>
      </trkpt>
      <trkpt lat="46.29306" lon="-0.48965">
        <ele>70</ele>
        <time>2012-01-12T14:47:59Z</time>
      </trkpt>
      <trkpt lat="46.29299" lon="-0.48966">
        <ele>69</ele>
        <time>2012-01-12T14:48:04Z</time>
      </trkpt>
      <trkpt lat="46.29295" lon="-0.48968">
        <ele>69</ele>
        <time>2012-01-12T14:48:09Z</time>
      </trkpt>
      <trkpt lat="46.29289" lon="-0.48969">
        <ele>68</ele>
        <time>2012-01-12T14:48:14Z</time>
      </trkpt>
      <trkpt lat="46.29285" lon="-0.4897">
        <ele>68</ele>
        <time>2012-01-12T14:48:19Z</time>
      </trkpt>
      <trkpt lat="46.29278" lon="-0.48971">
        <ele>68</ele>
        <time>2012-01-12T14:48:24Z</time>
      </trkpt>
      <trkpt lat="46.29273" lon="-0.48972">
        <ele>68</ele>
        <time>2012-01-12T14:48:29Z</time>
      </trkpt>
      <trkpt lat="46.29269" lon="-0.48973">
        <ele>68</ele>
        <time>2012-01-12T14:48:34Z</time>
      </trkpt>
      <trkpt lat="46.29263" lon="-0.48975">
        <ele>68</ele>
        <time>2012-01-12T14:48:39Z</time>
      </trkpt>
      <trkpt lat="46.29257" lon="-0.48974">
        <ele>68</ele>
        <time>2012-01-12T14:48:44Z</time>
      </trkpt>
      <trkpt lat="46.29253" lon="-0.48976">
        <ele>68</ele>
        <time>2012-01-12T14:48:49Z</time>
      </trkpt>
      <trkpt lat="46.29247" lon="-0.48977">
        <ele>67</ele>
        <time>2012-01-12T14:48:54Z</time>
      </trkpt>
      <trkpt lat="46.29242" lon="-0.48976">
        <ele>67</ele>
        <time>2012-01-12T14:48:59Z</time>
      </trkpt>
      <trkpt lat="46.29237" lon="-0.48976">
        <ele>67</ele>
        <time>2012-01-12T14:49:04Z</time>
      </trkpt>
      <trkpt lat="46.29234" lon="-0.48976">
        <ele>67</ele>
        <time>2012-01-12T14:49:09Z</time>
      </trkpt>
      <trkpt lat="46.29228" lon="-0.48978">
        <ele>67</ele>
        <time>2012-01-12T14:49:14Z</time>
      </trkpt>
      <trkpt lat="46.29221" lon="-0.48977">
        <ele>66</ele>
        <time>2012-01-12T14:49:19Z</time>
      </trkpt>
      <trkpt lat="46.29216" lon="-0.48977">
        <ele>67</ele>
        <time>2012-01-12T14:49:24Z</time>
      </trkpt>
      <trkpt lat="46.29211" lon="-0.48977">
        <ele>67</ele>
        <time>2012-01-12T14:49:29Z</time>
      </trkpt>
      <trkpt lat="46.29204" lon="-0.48976">
        <ele>67</ele>
        <time>2012-01-12T14:49:34Z</time>
      </trkpt>
      <trkpt lat="46.292" lon="-0.48977">
        <ele>67</ele>
        <time>2012-01-12T14:49:39Z</time>
      </trkpt>
      <trkpt lat="46.29195" lon="-0.48977">
        <ele>67</ele>
        <time>2012-01-12T14:49:44Z</time>
      </trkpt>
      <trkpt lat="46.2919" lon="-0.48976">
        <ele>67</ele>
        <time>2012-01-12T14:49:49Z</time>
      </trkpt>
      <trkpt lat="46.29183" lon="-0.48977">
        <ele>68</ele>
        <time>2012-01-12T14:49:54Z</time>
      </trkpt>
      <trkpt lat="46.29178" lon="-0.48977">
        <ele>67</ele>
        <time>2012-01-12T14:49:59Z</time>
      </trkpt>
      <trkpt lat="46.29173" lon="-0.48976">
        <ele>67</ele>
        <time>2012-01-12T14:50:04Z</time>
      </trkpt>
      <trkpt lat="46.29167" lon="-0.48976">
        <ele>67</ele>
        <time>2012-01-12T14:50:09Z</time>
      </trkpt>
      <trkpt lat="46.29162" lon="-0.48975">
        <ele>67</ele>
        <time>2012-01-12T14:50:14Z</time>
      </trkpt>
      <trkpt lat="46.29158" lon="-0.48974">
        <ele>67</ele>
        <time>2012-01-12T14:50:19Z</time>
      </trkpt>
      <trkpt lat="46.29153" lon="-0.48974">
        <ele>66</ele>
        <time>2012-01-12T14:50:24Z</time>
      </trkpt>
      <trkpt lat="46.29147" lon="-0.48974">
        <ele>66</ele>
        <time>2012-01-12T14:50:29Z</time>
      </trkpt>
      <trkpt lat="46.29141" lon="-0.48973">
        <ele>66</ele>
        <time>2012-01-12T14:50:34Z</time>
      </trkpt>
      <trkpt lat="46.29135" lon="-0.48971">
        <ele>66</ele>
        <time>2012-01-12T14:50:39Z</time>
      </trkpt>
      <trkpt lat="46.2913" lon="-0.4897">
        <ele>65</ele>
        <time>2012-01-12T14:50:44Z</time>
      </trkpt>
      <trkpt lat="46.29126" lon="-0.48969">
        <ele>65</ele>
        <time>2012-01-12T14:50:49Z</time>
      </trkpt>
      <trkpt lat="46.29119" lon="-0.48968">
        <ele>65</ele>
        <time>2012-01-12T14:50:54Z</time>
      </trkpt>
      <trkpt lat="46.29115" lon="-0.48968">
        <ele>64</ele>
        <time>2012-01-12T14:50:59Z</time>
      </trkpt>
      <trkpt lat="46.2911" lon="-0.48967">
        <ele>63</ele>
        <time>2012-01-12T14:51:04Z</time>
      </trkpt>
      <trkpt lat="46.29104" lon="-0.48967">
        <ele>63</ele>
        <time>2012-01-12T14:51:09Z</time>
      </trkpt>
      <trkpt lat="46.29099" lon="-0.48965">
        <ele>64</ele>
        <time>2012-01-12T14:51:14Z</time>
      </trkpt>
      <trkpt lat="46.29094" lon="-0.48964">
        <ele>64</ele>
        <time>2012-01-12T14:51:19Z</time>
      </trkpt>
      <trkpt lat="46.29088" lon="-0.48963">
        <ele>63</ele>
        <time>2012-01-12T14:51:24Z</time>
      </trkpt>
      <trkpt lat="46.29084" lon="-0.48961">
        <ele>63</ele>
        <time>2012-01-12T14:51:29Z</time>
      </trkpt>
      <trkpt lat="46.29079" lon="-0.4896">
        <ele>63</ele>
        <time>2012-01-12T14:51:34Z</time>
      </trkpt>
      <trkpt lat="46.29073" lon="-0.48958">
        <ele>64</ele>
        <time>2012-01-12T14:51:39Z</time>
      </trkpt>
      <trkpt lat="46.29067" lon="-0.48959">
        <ele>62</ele>
        <time>2012-01-12T14:51:44Z</time>
      </trkpt>
      <trkpt lat="46.29061" lon="-0.48957">
        <ele>63</ele>
        <time>2012-01-12T14:51:49Z</time>
      </trkpt>
      <trkpt lat="46.29056" lon="-0.48956">
        <ele>63</ele>
        <time>2012-01-12T14:51:54Z</time>
      </trkpt>
      <trkpt lat="46.29052" lon="-0.48955">
        <ele>63</ele>
        <time>2012-01-12T14:51:59Z</time>
      </trkpt>
      <trkpt lat="46.29046" lon="-0.48954">
        <ele>64</ele>
        <time>2012-01-12T14:52:04Z</time>
      </trkpt>
      <trkpt lat="46.29042" lon="-0.48955">
        <ele>64</ele>
        <time>2012-01-12T14:52:09Z</time>
      </trkpt>
      <trkpt lat="46.29035" lon="-0.48956">
        <ele>65</ele>
        <time>2012-01-12T14:52:14Z</time>
      </trkpt>
      <trkpt lat="46.2903" lon="-0.48955">
        <ele>64</ele>
        <time>2012-01-12T14:52:19Z</time>
      </trkpt>
      <trkpt lat="46.29027" lon="-0.48956">
        <ele>62</ele>
        <time>2012-01-12T14:52:24Z</time>
      </trkpt>
      <trkpt lat="46.29022" lon="-0.48957">
        <ele>61</ele>
        <time>2012-01-12T14:52:29Z</time>
      </trkpt>
      <trkpt lat="46.29016" lon="-0.48958">
        <ele>61</ele>
        <time>2012-01-12T14:52:34Z</time>
      </trkpt>
      <trkpt lat="46.29012" lon="-0.48957">
        <ele>61</ele>
        <time>2012-01-12T14:52:39Z</time>
      </trkpt>
      <trkpt lat="46.29012" lon="-0.48951">
        <ele>60</ele>
        <time>2012-01-12T14:52:44Z</time>
      </trkpt>
      <trkpt lat="46.29014" lon="-0.48942">
        <ele>60</ele>
        <time>2012-01-12T14:52:49Z</time>
      </trkpt>
      <trkpt lat="46.29015" lon="-0.48935">
        <ele>57</ele>
        <time>2012-01-12T14:52:54Z</time>
      </trkpt>
      <trkpt lat="46.29017" lon="-0.48928">
        <ele>57</ele>
        <time>2012-01-12T14:52:59Z</time>
      </trkpt>
      <trkpt lat="46.29021" lon="-0.48921">
        <ele>58</ele>
        <time>2012-01-12T14:53:04Z</time>
      </trkpt>
      <trkpt lat="46.29024" lon="-0.48915">
        <ele>59</ele>
        <time>2012-01-12T14:53:09Z</time>
      </trkpt>
      <trkpt lat="46.29028" lon="-0.48911">
        <ele>59</ele>
        <time>2012-01-12T14:53:14Z</time>
      </trkpt>
      <trkpt lat="46.2903" lon="-0.48905">
        <ele>59</ele>
        <time>2012-01-12T14:53:19Z</time>
      </trkpt>
      <trkpt lat="46.29033" lon="-0.48897">
        <ele>61</ele>
        <time>2012-01-12T14:53:24Z</time>
      </trkpt>
      <trkpt lat="46.29038" lon="-0.4889">
        <ele>61</ele>
        <time>2012-01-12T14:53:29Z</time>
      </trkpt>
      <trkpt lat="46.29041" lon="-0.48886">
        <ele>62</ele>
        <time>2012-01-12T14:53:34Z</time>
      </trkpt>
      <trkpt lat="46.29044" lon="-0.4888">
        <ele>62</ele>
        <time>2012-01-12T14:53:39Z</time>
      </trkpt>
      <trkpt lat="46.29048" lon="-0.48875">
        <ele>63</ele>
        <time>2012-01-12T14:53:44Z</time>
      </trkpt>
      <trkpt lat="46.2905" lon="-0.48871">
        <ele>63</ele>
        <time>2012-01-12T14:53:49Z</time>
      </trkpt>
      <trkpt lat="46.29054" lon="-0.48863">
        <ele>63</ele>
        <time>2012-01-12T14:53:54Z</time>
      </trkpt>
      <trkpt lat="46.29058" lon="-0.48855">
        <ele>62</ele>
        <time>2012-01-12T14:53:59Z</time>
      </trkpt>
      <trkpt lat="46.2906" lon="-0.48851">
        <ele>61</ele>
        <time>2012-01-12T14:54:04Z</time>
      </trkpt>
      <trkpt lat="46.29065" lon="-0.48844">
        <ele>61</ele>
        <time>2012-01-12T14:54:09Z</time>
      </trkpt>
      <trkpt lat="46.29065" lon="-0.48838">
        <ele>60</ele>
        <time>2012-01-12T14:54:14Z</time>
      </trkpt>
      <trkpt lat="46.29065" lon="-0.48826">
        <ele>61</ele>
        <time>2012-01-12T14:54:19Z</time>
      </trkpt>
      <trkpt lat="46.29067" lon="-0.48818">
        <ele>62</ele>
        <time>2012-01-12T14:54:24Z</time>
      </trkpt>
      <trkpt lat="46.29069" lon="-0.48812">
        <ele>61</ele>
        <time>2012-01-12T14:54:29Z</time>
      </trkpt>
      <trkpt lat="46.29071" lon="-0.48808">
        <ele>62</ele>
        <time>2012-01-12T14:54:34Z</time>
      </trkpt>
      <trkpt lat="46.29072" lon="-0.48798">
        <ele>63</ele>
        <time>2012-01-12T14:54:39Z</time>
      </trkpt>
      <trkpt lat="46.29073" lon="-0.4879">
        <ele>63</ele>
        <time>2012-01-12T14:54:44Z</time>
      </trkpt>
      <trkpt lat="46.29074" lon="-0.48785">
        <ele>62</ele>
        <time>2012-01-12T14:54:49Z</time>
      </trkpt>
      <trkpt lat="46.29076" lon="-0.48781">
        <ele>61</ele>
        <time>2012-01-12T14:54:54Z</time>
      </trkpt>
      <trkpt lat="46.29075" lon="-0.48776">
        <ele>59</ele>
        <time>2012-01-12T14:54:59Z</time>
      </trkpt>
      <trkpt lat="46.29075" lon="-0.48765">
        <ele>60</ele>
        <time>2012-01-12T14:55:04Z</time>
      </trkpt>
      <trkpt lat="46.29075" lon="-0.4876">
        <ele>59</ele>
        <time>2012-01-12T14:55:09Z</time>
      </trkpt>
      <trkpt lat="46.29076" lon="-0.48751">
        <ele>58</ele>
        <time>2012-01-12T14:55:14Z</time>
      </trkpt>
      <trkpt lat="46.29076" lon="-0.48744">
        <ele>57</ele>
        <time>2012-01-12T14:55:19Z</time>
      </trkpt>
      <trkpt lat="46.29078" lon="-0.48734">
        <ele>57</ele>
        <time>2012-01-12T14:55:24Z</time>
      </trkpt>
      <trkpt lat="46.29078" lon="-0.4873">
        <ele>57</ele>
        <time>2012-01-12T14:55:29Z</time>
      </trkpt>
      <trkpt lat="46.29077" lon="-0.48723">
        <ele>57</ele>
        <time>2012-01-12T14:55:34Z</time>
      </trkpt>
      <trkpt lat="46.29077" lon="-0.48719">
        <ele>58</ele>
        <time>2012-01-12T14:55:39Z</time>
      </trkpt>
      <trkpt lat="46.29076" lon="-0.48709">
        <ele>57</ele>
        <time>2012-01-12T14:55:44Z</time>
      </trkpt>
      <trkpt lat="46.29076" lon="-0.48697">
        <ele>58</ele>
        <time>2012-01-12T14:55:49Z</time>
      </trkpt>
      <trkpt lat="46.29076" lon="-0.48696">
        <ele>57</ele>
        <time>2012-01-12T14:55:54Z</time>
      </trkpt>
      <trkpt lat="46.29076" lon="-0.48683">
        <ele>60</ele>
        <time>2012-01-12T14:55:59Z</time>
      </trkpt>
      <trkpt lat="46.29077" lon="-0.48675">
        <ele>59</ele>
        <time>2012-01-12T14:56:04Z</time>
      </trkpt>
      <trkpt lat="46.29078" lon="-0.48669">
        <ele>58</ele>
        <time>2012-01-12T14:56:09Z</time>
      </trkpt>
      <trkpt lat="46.29078" lon="-0.48664">
        <ele>59</ele>
        <time>2012-01-12T14:56:14Z</time>
      </trkpt>
      <trkpt lat="46.29078" lon="-0.48656">
        <ele>60</ele>
        <time>2012-01-12T14:56:19Z</time>
      </trkpt>
      <trkpt lat="46.29078" lon="-0.4864">
        <ele>62</ele>
        <time>2012-01-12T14:56:24Z</time>
      </trkpt>
      <trkpt lat="46.29079" lon="-0.48635">
        <ele>62</ele>
        <time>2012-01-12T14:56:29Z</time>
      </trkpt>
      <trkpt lat="46.29079" lon="-0.48628">
        <ele>62</ele>
        <time>2012-01-12T14:56:34Z</time>
      </trkpt>
      <trkpt lat="46.29081" lon="-0.48622">
        <ele>62</ele>
        <time>2012-01-12T14:56:39Z</time>
      </trkpt>
      <trkpt lat="46.29082" lon="-0.48612">
        <ele>62</ele>
        <time>2012-01-12T14:56:44Z</time>
      </trkpt>
      <trkpt lat="46.29083" lon="-0.48606">
        <ele>63</ele>
        <time>2012-01-12T14:56:49Z</time>
      </trkpt>
      <trkpt lat="46.29085" lon="-0.486">
        <ele>62</ele>
        <time>2012-01-12T14:56:54Z</time>
      </trkpt>
      <trkpt lat="46.29085" lon="-0.48595">
        <ele>61</ele>
        <time>2012-01-12T14:56:59Z</time>
      </trkpt>
      <trkpt lat="46.29086" lon="-0.48584">
        <ele>62</ele>
        <time>2012-01-12T14:57:04Z</time>
      </trkpt>
      <trkpt lat="46.29086" lon="-0.48577">
        <ele>61</ele>
        <time>2012-01-12T14:57:09Z</time>
      </trkpt>
      <trkpt lat="46.29086" lon="-0.48572">
        <ele>61</ele>
        <time>2012-01-12T14:57:14Z</time>
      </trkpt>
      <trkpt lat="46.29086" lon="-0.48565">
        <ele>59</ele>
        <time>2012-01-12T14:57:19Z</time>
      </trkpt>
      <trkpt lat="46.29086" lon="-0.48559">
        <ele>60</ele>
        <time>2012-01-12T14:57:24Z</time>
      </trkpt>
      <trkpt lat="46.29086" lon="-0.48542">
        <ele>61</ele>
        <time>2012-01-12T14:57:29Z</time>
      </trkpt>
      <trkpt lat="46.29085" lon="-0.48537">
        <ele>60</ele>
        <time>2012-01-12T14:57:34Z</time>
      </trkpt>
      <trkpt lat="46.29086" lon="-0.48531">
        <ele>61</ele>
        <time>2012-01-12T14:57:39Z</time>
      </trkpt>
      <trkpt lat="46.29085" lon="-0.48524">
        <ele>60</ele>
        <time>2012-01-12T14:57:44Z</time>
      </trkpt>
      <trkpt lat="46.29088" lon="-0.48513">
        <ele>61</ele>
        <time>2012-01-12T14:57:49Z</time>
      </trkpt>
      <trkpt lat="46.2909" lon="-0.48506">
        <ele>62</ele>
        <time>2012-01-12T14:57:54Z</time>
      </trkpt>
      <trkpt lat="46.29095" lon="-0.48501">
        <ele>62</ele>
        <time>2012-01-12T14:57:59Z</time>
      </trkpt>
      <trkpt lat="46.29097" lon="-0.48496">
        <ele>62</ele>
        <time>2012-01-12T14:58:04Z</time>
      </trkpt>
      <trkpt lat="46.29101" lon="-0.48491">
        <ele>63</ele>
        <time>2012-01-12T14:58:09Z</time>
      </trkpt>
      <trkpt lat="46.29104" lon="-0.48486">
        <ele>63</ele>
        <time>2012-01-12T14:58:14Z</time>
      </trkpt>
      <trkpt lat="46.29108" lon="-0.48481">
        <ele>64</ele>
        <time>2012-01-12T14:58:19Z</time>
      </trkpt>
      <trkpt lat="46.2911" lon="-0.48477">
        <ele>63</ele>
        <time>2012-01-12T14:58:24Z</time>
      </trkpt>
      <trkpt lat="46.29113" lon="-0.48473">
        <ele>61</ele>
        <time>2012-01-12T14:58:29Z</time>
      </trkpt>
      <trkpt lat="46.29118" lon="-0.48469">
        <ele>62</ele>
        <time>2012-01-12T14:58:34Z</time>
      </trkpt>
      <trkpt lat="46.29122" lon="-0.48463">
        <ele>63</ele>
        <time>2012-01-12T14:58:39Z</time>
      </trkpt>
      <trkpt lat="46.29124" lon="-0.48459">
        <ele>63</ele>
        <time>2012-01-12T14:58:44Z</time>
      </trkpt>
      <trkpt lat="46.29126" lon="-0.48453">
        <ele>61</ele>
        <time>2012-01-12T14:58:49Z</time>
      </trkpt>
      <trkpt lat="46.29131" lon="-0.48445">
        <ele>62</ele>
        <time>2012-01-12T14:58:54Z</time>
      </trkpt>
      <trkpt lat="46.29133" lon="-0.48442">
        <ele>61</ele>
        <time>2012-01-12T14:58:59Z</time>
      </trkpt>
      <trkpt lat="46.29138" lon="-0.48437">
        <ele>61</ele>
        <time>2012-01-12T14:59:04Z</time>
      </trkpt>
      <trkpt lat="46.2914" lon="-0.48433">
        <ele>60</ele>
        <time>2012-01-12T14:59:09Z</time>
      </trkpt>
      <trkpt lat="46.29145" lon="-0.48426">
        <ele>61</ele>
        <time>2012-01-12T14:59:14Z</time>
      </trkpt>
      <trkpt lat="46.29148" lon="-0.4842">
        <ele>62</ele>
        <time>2012-01-12T14:59:19Z</time>
      </trkpt>
      <trkpt lat="46.29152" lon="-0.48416">
        <ele>61</ele>
        <time>2012-01-12T14:59:24Z</time>
      </trkpt>
      <trkpt lat="46.29156" lon="-0.48412">
        <ele>60</ele>
        <time>2012-01-12T14:59:29Z</time>
      </trkpt>
      <trkpt lat="46.29158" lon="-0.48407">
        <ele>59</ele>
        <time>2012-01-12T14:59:34Z</time>
      </trkpt>
      <trkpt lat="46.29161" lon="-0.484">
        <ele>58</ele>
        <time>2012-01-12T14:59:39Z</time>
      </trkpt>
      <trkpt lat="46.29164" lon="-0.48395">
        <ele>57</ele>
        <time>2012-01-12T14:59:44Z</time>
      </trkpt>
      <trkpt lat="46.29168" lon="-0.48391">
        <ele>58</ele>
        <time>2012-01-12T14:59:49Z</time>
      </trkpt>
      <trkpt lat="46.29174" lon="-0.48384">
        <ele>59</ele>
        <time>2012-01-12T14:59:54Z</time>
      </trkpt>
      <trkpt lat="46.29176" lon="-0.48381">
        <ele>60</ele>
        <time>2012-01-12T14:59:59Z</time>
      </trkpt>
      <trkpt lat="46.29179" lon="-0.48376">
        <ele>60</ele>
        <time>2012-01-12T15:00:04Z</time>
      </trkpt>
      <trkpt lat="46.29184" lon="-0.48371">
        <ele>59</ele>
        <time>2012-01-12T15:00:09Z</time>
      </trkpt>
      <trkpt lat="46.29188" lon="-0.48366">
        <ele>60</ele>
        <time>2012-01-12T15:00:14Z</time>
      </trkpt>
      <trkpt lat="46.29191" lon="-0.48361">
        <ele>60</ele>
        <time>2012-01-12T15:00:19Z</time>
      </trkpt>
      <trkpt lat="46.29195" lon="-0.48355">
        <ele>60</ele>
        <time>2012-01-12T15:00:24Z</time>
      </trkpt>
      <trkpt lat="46.29198" lon="-0.4835">
        <ele>61</ele>
        <time>2012-01-12T15:00:29Z</time>
      </trkpt>
      <trkpt lat="46.29202" lon="-0.48346">
        <ele>62</ele>
        <time>2012-01-12T15:00:34Z</time>
      </trkpt>
      <trkpt lat="46.29206" lon="-0.48341">
        <ele>62</ele>
        <time>2012-01-12T15:00:39Z</time>
      </trkpt>
      <trkpt lat="46.2921" lon="-0.48335">
        <ele>62</ele>
        <time>2012-01-12T15:00:44Z</time>
      </trkpt>
      <trkpt lat="46.29214" lon="-0.4833">
        <ele>62</ele>
        <time>2012-01-12T15:00:49Z</time>
      </trkpt>
      <trkpt lat="46.29216" lon="-0.48326">
        <ele>61</ele>
        <time>2012-01-12T15:00:54Z</time>
      </trkpt>
      <trkpt lat="46.29219" lon="-0.48322">
        <ele>62</ele>
        <time>2012-01-12T15:00:59Z</time>
      </trkpt>
      <trkpt lat="46.29223" lon="-0.48317">
        <ele>62</ele>
        <time>2012-01-12T15:01:04Z</time>
      </trkpt>
      <trkpt lat="46.29228" lon="-0.48312">
        <ele>63</ele>
        <time>2012-01-12T15:01:09Z</time>
      </trkpt>
      <trkpt lat="46.29233" lon="-0.48308">
        <ele>64</ele>
        <time>2012-01-12T15:01:14Z</time>
      </trkpt>
      <trkpt lat="46.29235" lon="-0.48302">
        <ele>63</ele>
        <time>2012-01-12T15:01:19Z</time>
      </trkpt>
      <trkpt lat="46.2924" lon="-0.48297">
        <ele>65</ele>
        <time>2012-01-12T15:01:24Z</time>
      </trkpt>
      <trkpt lat="46.29245" lon="-0.4829">
        <ele>66</ele>
        <time>2012-01-12T15:01:29Z</time>
      </trkpt>
      <trkpt lat="46.29248" lon="-0.48287">
        <ele>66</ele>
        <time>2012-01-12T15:01:34Z</time>
      </trkpt>
      <trkpt lat="46.29255" lon="-0.48281">
        <ele>66</ele>
        <time>2012-01-12T15:01:39Z</time>
      </trkpt>
      <trkpt lat="46.29257" lon="-0.48278">
        <ele>67</ele>
        <time>2012-01-12T15:01:44Z</time>
      </trkpt>
      <trkpt lat="46.29261" lon="-0.48272">
        <ele>66</ele>
        <time>2012-01-12T15:01:49Z</time>
      </trkpt>
      <trkpt lat="46.29262" lon="-0.48267">
        <ele>65</ele>
        <time>2012-01-12T15:01:54Z</time>
      </trkpt>
      <trkpt lat="46.29265" lon="-0.4826">
        <ele>65</ele>
        <time>2012-01-12T15:01:59Z</time>
      </trkpt>
      <trkpt lat="46.29269" lon="-0.48255">
        <ele>64</ele>
        <time>2012-01-12T15:02:04Z</time>
      </trkpt>
      <trkpt lat="46.29274" lon="-0.4825">
        <ele>65</ele>
        <time>2012-01-12T15:02:09Z</time>
      </trkpt>
      <trkpt lat="46.29277" lon="-0.48248">
        <ele>65</ele>
        <time>2012-01-12T15:02:14Z</time>
      </trkpt>
      <trkpt lat="46.2928" lon="-0.48241">
        <ele>65</ele>
        <time>2012-01-12T15:02:19Z</time>
      </trkpt>
      <trkpt lat="46.29283" lon="-0.48238">
        <ele>65</ele>
        <time>2012-01-12T15:02:24Z</time>
      </trkpt>
      <trkpt lat="46.29287" lon="-0.48234">
        <ele>65</ele>
        <time>2012-01-12T15:02:29Z</time>
      </trkpt>
      <trkpt lat="46.2929" lon="-0.48229">
        <ele>66</ele>
        <time>2012-01-12T15:02:34Z</time>
      </trkpt>
      <trkpt lat="46.29297" lon="-0.48223">
        <ele>68</ele>
        <time>2012-01-12T15:02:39Z</time>
      </trkpt>
      <trkpt lat="46.29297" lon="-0.48219">
        <ele>67</ele>
        <time>2012-01-12T15:02:44Z</time>
      </trkpt>
      <trkpt lat="46.29301" lon="-0.48216">
        <ele>69</ele>
        <time>2012-01-12T15:02:49Z</time>
      </trkpt>
      <trkpt lat="46.29304" lon="-0.48212">
        <ele>69</ele>
        <time>2012-01-12T15:02:54Z</time>
      </trkpt>
      <trkpt lat="46.29306" lon="-0.48206">
        <ele>69</ele>
        <time>2012-01-12T15:02:59Z</time>
      </trkpt>
      <trkpt lat="46.29307" lon="-0.48201">
        <ele>67</ele>
        <time>2012-01-12T15:03:04Z</time>
      </trkpt>
      <trkpt lat="46.29309" lon="-0.48198">
        <ele>66</ele>
        <time>2012-01-12T15:03:09Z</time>
      </trkpt>
      <trkpt lat="46.29313" lon="-0.48192">
        <ele>67</ele>
        <time>2012-01-12T15:03:14Z</time>
      </trkpt>
      <trkpt lat="46.29315" lon="-0.48189">
        <ele>66</ele>
        <time>2012-01-12T15:03:19Z</time>
      </trkpt>
      <trkpt lat="46.29316" lon="-0.48186">
        <ele>66</ele>
        <time>2012-01-12T15:03:24Z</time>
      </trkpt>
      <trkpt lat="46.29319" lon="-0.48179">
        <ele>66</ele>
        <time>2012-01-12T15:03:29Z</time>
      </trkpt>
      <trkpt lat="46.29323" lon="-0.48176">
        <ele>66</ele>
        <time>2012-01-12T15:03:34Z</time>
      </trkpt>
      <trkpt lat="46.29326" lon="-0.48169">
        <ele>67</ele>
        <time>2012-01-12T15:03:39Z</time>
      </trkpt>
      <trkpt lat="46.29328" lon="-0.48166">
        <ele>67</ele>
        <time>2012-01-12T15:03:44Z</time>
      </trkpt>
      <trkpt lat="46.29328" lon="-0.48168">
        <ele>67</ele>
        <time>2012-01-12T15:03:49Z</time>
      </trkpt>
      <trkpt lat="46.29329" lon="-0.48167">
        <ele>67</ele>
        <time>2012-01-12T15:03:59Z</time>
      </trkpt>
      <trkpt lat="46.29331" lon="-0.48163">
        <ele>68</ele>
        <time>2012-01-12T15:04:04Z</time>
      </trkpt>
      <trkpt lat="46.29335" lon="-0.4816">
        <ele>67</ele>
        <time>2012-01-12T15:04:09Z</time>
      </trkpt>
      <trkpt lat="46.29339" lon="-0.48156">
        <ele>67</ele>
        <time>2012-01-12T15:04:14Z</time>
      </trkpt>
      <trkpt lat="46.29341" lon="-0.48154">
        <ele>67</ele>
        <time>2012-01-12T15:04:19Z</time>
      </trkpt>
      <trkpt lat="46.29344" lon="-0.48151">
        <ele>66</ele>
        <time>2012-01-12T15:04:24Z</time>
      </trkpt>
      <trkpt lat="46.29347" lon="-0.48148">
        <ele>66</ele>
        <time>2012-01-12T15:04:29Z</time>
      </trkpt>
      <trkpt lat="46.29351" lon="-0.48146">
        <ele>67</ele>
        <time>2012-01-12T15:04:34Z</time>
      </trkpt>
      <trkpt lat="46.29357" lon="-0.48144">
        <ele>66</ele>
        <time>2012-01-12T15:04:39Z</time>
      </trkpt>
      <trkpt lat="46.29358" lon="-0.48141">
        <ele>63</ele>
        <time>2012-01-12T15:04:44Z</time>
      </trkpt>
      <trkpt lat="46.2936" lon="-0.4814">
        <ele>63</ele>
        <time>2012-01-12T15:04:49Z</time>
      </trkpt>
      <trkpt lat="46.29363" lon="-0.48139">
        <ele>67</ele>
        <time>2012-01-12T15:04:54Z</time>
      </trkpt>
      <trkpt lat="46.29367" lon="-0.48138">
        <ele>69</ele>
        <time>2012-01-12T15:04:59Z</time>
      </trkpt>
      <trkpt lat="46.29372" lon="-0.48135">
        <ele>70</ele>
        <time>2012-01-12T15:05:04Z</time>
      </trkpt>
      <trkpt lat="46.29376" lon="-0.48133">
        <ele>71</ele>
        <time>2012-01-12T15:05:09Z</time>
      </trkpt>
      <trkpt lat="46.29383" lon="-0.4813">
        <ele>71</ele>
        <time>2012-01-12T15:05:14Z</time>
      </trkpt>
      <trkpt lat="46.29389" lon="-0.48126">
        <ele>71</ele>
        <time>2012-01-12T15:05:19Z</time>
      </trkpt>
      <trkpt lat="46.29394" lon="-0.48123">
        <ele>69</ele>
        <time>2012-01-12T15:05:24Z</time>
      </trkpt>
      <trkpt lat="46.29399" lon="-0.48121">
        <ele>68</ele>
        <time>2012-01-12T15:05:29Z</time>
      </trkpt>
      <trkpt lat="46.29404" lon="-0.48119">
        <ele>68</ele>
        <time>2012-01-12T15:05:34Z</time>
      </trkpt>
      <trkpt lat="46.29407" lon="-0.48115">
        <ele>67</ele>
        <time>2012-01-12T15:05:39Z</time>
      </trkpt>
      <trkpt lat="46.29411" lon="-0.48112">
        <ele>65</ele>
        <time>2012-01-12T15:05:44Z</time>
      </trkpt>
      <trkpt lat="46.29415" lon="-0.48111">
        <ele>65</ele>
        <time>2012-01-12T15:05:49Z</time>
      </trkpt>
      <trkpt lat="46.2942" lon="-0.48107">
        <ele>66</ele>
        <time>2012-01-12T15:05:54Z</time>
      </trkpt>
      <trkpt lat="46.29424" lon="-0.48105">
        <ele>66</ele>
        <time>2012-01-12T15:05:59Z</time>
      </trkpt>
      <trkpt lat="46.29429" lon="-0.48103">
        <ele>65</ele>
        <time>2012-01-12T15:06:04Z</time>
      </trkpt>
      <trkpt lat="46.29432" lon="-0.481">
        <ele>65</ele>
        <time>2012-01-12T15:06:09Z</time>
      </trkpt>
      <trkpt lat="46.29438" lon="-0.48096">
        <ele>65</ele>
        <time>2012-01-12T15:06:14Z</time>
      </trkpt>
      <trkpt lat="46.29441" lon="-0.48093">
        <ele>66</ele>
        <time>2012-01-12T15:06:19Z</time>
      </trkpt>
      <trkpt lat="46.29446" lon="-0.48089">
        <ele>67</ele>
        <time>2012-01-12T15:06:24Z</time>
      </trkpt>
      <trkpt lat="46.2945" lon="-0.48087">
        <ele>66</ele>
        <time>2012-01-12T15:06:29Z</time>
      </trkpt>
      <trkpt lat="46.29453" lon="-0.48086">
        <ele>66</ele>
        <time>2012-01-12T15:06:34Z</time>
      </trkpt>
      <trkpt lat="46.29457" lon="-0.48082">
        <ele>66</ele>
        <time>2012-01-12T15:06:39Z</time>
      </trkpt>
      <trkpt lat="46.29462" lon="-0.48079">
        <ele>67</ele>
        <time>2012-01-12T15:06:44Z</time>
      </trkpt>
      <trkpt lat="46.29466" lon="-0.48074">
        <ele>66</ele>
        <time>2012-01-12T15:06:49Z</time>
      </trkpt>
      <trkpt lat="46.29471" lon="-0.48071">
        <ele>66</ele>
        <time>2012-01-12T15:06:54Z</time>
      </trkpt>
      <trkpt lat="46.29475" lon="-0.48067">
        <ele>65</ele>
        <time>2012-01-12T15:06:59Z</time>
      </trkpt>
      <trkpt lat="46.2948" lon="-0.48063">
        <ele>66</ele>
        <time>2012-01-12T15:07:04Z</time>
      </trkpt>
      <trkpt lat="46.29484" lon="-0.48059">
        <ele>66</ele>
        <time>2012-01-12T15:07:09Z</time>
      </trkpt>
      <trkpt lat="46.29489" lon="-0.48053">
        <ele>66</ele>
        <time>2012-01-12T15:07:14Z</time>
      </trkpt>
      <trkpt lat="46.29493" lon="-0.4805">
        <ele>66</ele>
        <time>2012-01-12T15:07:19Z</time>
      </trkpt>
      <trkpt lat="46.29496" lon="-0.48046">
        <ele>66</ele>
        <time>2012-01-12T15:07:24Z</time>
      </trkpt>
      <trkpt lat="46.29499" lon="-0.4804">
        <ele>66</ele>
        <time>2012-01-12T15:07:29Z</time>
      </trkpt>
      <trkpt lat="46.29503" lon="-0.48035">
        <ele>68</ele>
        <time>2012-01-12T15:07:34Z</time>
      </trkpt>
      <trkpt lat="46.29506" lon="-0.48027">
        <ele>68</ele>
        <time>2012-01-12T15:07:39Z</time>
      </trkpt>
      <trkpt lat="46.2951" lon="-0.48023">
        <ele>68</ele>
        <time>2012-01-12T15:07:44Z</time>
      </trkpt>
      <trkpt lat="46.29513" lon="-0.48016">
        <ele>68</ele>
        <time>2012-01-12T15:07:49Z</time>
      </trkpt>
      <trkpt lat="46.29514" lon="-0.4801">
        <ele>67</ele>
        <time>2012-01-12T15:07:54Z</time>
      </trkpt>
      <trkpt lat="46.29519" lon="-0.48006">
        <ele>69</ele>
        <time>2012-01-12T15:07:59Z</time>
      </trkpt>
      <trkpt lat="46.29522" lon="-0.48003">
        <ele>69</ele>
        <time>2012-01-12T15:08:04Z</time>
      </trkpt>
      <trkpt lat="46.29525" lon="-0.47997">
        <ele>69</ele>
        <time>2012-01-12T15:08:09Z</time>
      </trkpt>
      <trkpt lat="46.29528" lon="-0.47992">
        <ele>68</ele>
        <time>2012-01-12T15:08:14Z</time>
      </trkpt>
      <trkpt lat="46.2953" lon="-0.47989">
        <ele>68</ele>
        <time>2012-01-12T15:08:19Z</time>
      </trkpt>
      <trkpt lat="46.29532" lon="-0.47988">
        <ele>68</ele>
        <time>2012-01-12T15:08:24Z</time>
      </trkpt>
      <trkpt lat="46.29536" lon="-0.47984">
        <ele>68</ele>
        <time>2012-01-12T15:08:29Z</time>
      </trkpt>
      <trkpt lat="46.29536" lon="-0.47983">
        <ele>69</ele>
        <time>2012-01-12T15:08:34Z</time>
      </trkpt>
      <trkpt lat="46.29536" lon="-0.47982">
        <ele>69</ele>
        <time>2012-01-12T15:08:39Z</time>
      </trkpt>
      <trkpt lat="46.29536" lon="-0.47981">
        <ele>69</ele>
        <time>2012-01-12T15:08:44Z</time>
      </trkpt>
      <trkpt lat="46.29536" lon="-0.47978">
        <ele>69</ele>
        <time>2012-01-12T15:08:49Z</time>
      </trkpt>
      <trkpt lat="46.29537" lon="-0.47973">
        <ele>70</ele>
        <time>2012-01-12T15:08:54Z</time>
      </trkpt>
      <trkpt lat="46.29538" lon="-0.47967">
        <ele>70</ele>
        <time>2012-01-12T15:08:59Z</time>
      </trkpt>
      <trkpt lat="46.29539" lon="-0.47962">
        <ele>70</ele>
        <time>2012-01-12T15:09:04Z</time>
      </trkpt>
      <trkpt lat="46.29542" lon="-0.47956">
        <ele>70</ele>
        <time>2012-01-12T15:09:09Z</time>
      </trkpt>
      <trkpt lat="46.29544" lon="-0.47951">
        <ele>71</ele>
        <time>2012-01-12T15:09:15Z</time>
      </trkpt>
      <trkpt lat="46.29546" lon="-0.47945">
        <ele>72</ele>
        <time>2012-01-12T15:09:19Z</time>
      </trkpt>
      <trkpt lat="46.2955" lon="-0.47939">
        <ele>73</ele>
        <time>2012-01-12T15:09:24Z</time>
      </trkpt>
      <trkpt lat="46.29551" lon="-0.47934">
        <ele>73</ele>
        <time>2012-01-12T15:09:29Z</time>
      </trkpt>
      <trkpt lat="46.29552" lon="-0.47928">
        <ele>72</ele>
        <time>2012-01-12T15:09:34Z</time>
      </trkpt>
      <trkpt lat="46.29555" lon="-0.47922">
        <ele>71</ele>
        <time>2012-01-12T15:09:39Z</time>
      </trkpt>
      <trkpt lat="46.29559" lon="-0.47918">
        <ele>71</ele>
        <time>2012-01-12T15:09:44Z</time>
      </trkpt>
      <trkpt lat="46.29561" lon="-0.47912">
        <ele>71</ele>
        <time>2012-01-12T15:09:49Z</time>
      </trkpt>
      <trkpt lat="46.29565" lon="-0.47907">
        <ele>70</ele>
        <time>2012-01-12T15:09:54Z</time>
      </trkpt>
      <trkpt lat="46.29568" lon="-0.47904">
        <ele>71</ele>
        <time>2012-01-12T15:09:59Z</time>
      </trkpt>
      <trkpt lat="46.29571" lon="-0.47902">
        <ele>72</ele>
        <time>2012-01-12T15:10:04Z</time>
      </trkpt>
      <trkpt lat="46.29577" lon="-0.47898">
        <ele>72</ele>
        <time>2012-01-12T15:10:09Z</time>
      </trkpt>
      <trkpt lat="46.29581" lon="-0.47897">
        <ele>72</ele>
        <time>2012-01-12T15:10:14Z</time>
      </trkpt>
      <trkpt lat="46.29583" lon="-0.47896">
        <ele>73</ele>
        <time>2012-01-12T15:10:19Z</time>
      </trkpt>
      <trkpt lat="46.29587" lon="-0.47893">
        <ele>74</ele>
        <time>2012-01-12T15:10:24Z</time>
      </trkpt>
      <trkpt lat="46.2959" lon="-0.47889">
        <ele>72</ele>
        <time>2012-01-12T15:10:29Z</time>
      </trkpt>
      <trkpt lat="46.29594" lon="-0.47887">
        <ele>70</ele>
        <time>2012-01-12T15:10:34Z</time>
      </trkpt>
      <trkpt lat="46.29601" lon="-0.47882">
        <ele>71</ele>
        <time>2012-01-12T15:10:39Z</time>
      </trkpt>
      <trkpt lat="46.29604" lon="-0.4788">
        <ele>71</ele>
        <time>2012-01-12T15:10:44Z</time>
      </trkpt>
      <trkpt lat="46.29609" lon="-0.47877">
        <ele>70</ele>
        <time>2012-01-12T15:10:49Z</time>
      </trkpt>
      <trkpt lat="46.29613" lon="-0.47875">
        <ele>70</ele>
        <time>2012-01-12T15:10:54Z</time>
      </trkpt>
      <trkpt lat="46.29617" lon="-0.47874">
        <ele>69</ele>
        <time>2012-01-12T15:10:59Z</time>
      </trkpt>
      <trkpt lat="46.29621" lon="-0.47872">
        <ele>66</ele>
        <time>2012-01-12T15:11:04Z</time>
      </trkpt>
      <trkpt lat="46.29626" lon="-0.47869">
        <ele>67</ele>
        <time>2012-01-12T15:11:09Z</time>
      </trkpt>
      <trkpt lat="46.29631" lon="-0.47865">
        <ele>67</ele>
        <time>2012-01-12T15:11:14Z</time>
      </trkpt>
      <trkpt lat="46.29637" lon="-0.47861">
        <ele>67</ele>
        <time>2012-01-12T15:11:19Z</time>
      </trkpt>
      <trkpt lat="46.2964" lon="-0.47858">
        <ele>66</ele>
        <time>2012-01-12T15:11:24Z</time>
      </trkpt>
      <trkpt lat="46.29646" lon="-0.47856">
        <ele>67</ele>
        <time>2012-01-12T15:11:29Z</time>
      </trkpt>
      <trkpt lat="46.2965" lon="-0.47853">
        <ele>67</ele>
        <time>2012-01-12T15:11:34Z</time>
      </trkpt>
      <trkpt lat="46.29653" lon="-0.4785">
        <ele>68</ele>
        <time>2012-01-12T15:11:39Z</time>
      </trkpt>
      <trkpt lat="46.29657" lon="-0.47849">
        <ele>69</ele>
        <time>2012-01-12T15:11:44Z</time>
      </trkpt>
      <trkpt lat="46.29662" lon="-0.47846">
        <ele>66</ele>
        <time>2012-01-12T15:11:49Z</time>
      </trkpt>
      <trkpt lat="46.29665" lon="-0.47844">
        <ele>66</ele>
        <time>2012-01-12T15:11:54Z</time>
      </trkpt>
      <trkpt lat="46.29672" lon="-0.47841">
        <ele>66</ele>
        <time>2012-01-12T15:11:59Z</time>
      </trkpt>
      <trkpt lat="46.29676" lon="-0.47839">
        <ele>66</ele>
        <time>2012-01-12T15:12:04Z</time>
      </trkpt>
      <trkpt lat="46.29682" lon="-0.47836">
        <ele>66</ele>
        <time>2012-01-12T15:12:09Z</time>
      </trkpt>
      <trkpt lat="46.29685" lon="-0.47832">
        <ele>69</ele>
        <time>2012-01-12T15:12:14Z</time>
      </trkpt>
      <trkpt lat="46.29689" lon="-0.47829">
        <ele>70</ele>
        <time>2012-01-12T15:12:19Z</time>
      </trkpt>
      <trkpt lat="46.29692" lon="-0.47827">
        <ele>70</ele>
        <time>2012-01-12T15:12:24Z</time>
      </trkpt>
      <trkpt lat="46.29693" lon="-0.47824">
        <ele>69</ele>
        <time>2012-01-12T15:12:29Z</time>
      </trkpt>
      <trkpt lat="46.29696" lon="-0.47823">
        <ele>68</ele>
        <time>2012-01-12T15:12:34Z</time>
      </trkpt>
      <trkpt lat="46.29697" lon="-0.47822">
        <ele>68</ele>
        <time>2012-01-12T15:12:39Z</time>
      </trkpt>
      <trkpt lat="46.29706" lon="-0.47818">
        <ele>68</ele>
        <time>2012-01-12T15:12:49Z</time>
      </trkpt>
      <trkpt lat="46.29713" lon="-0.47814">
        <ele>65</ele>
        <time>2012-01-12T15:12:54Z</time>
      </trkpt>
      <trkpt lat="46.2972" lon="-0.47811">
        <ele>65</ele>
        <time>2012-01-12T15:12:59Z</time>
      </trkpt>
      <trkpt lat="46.29724" lon="-0.47809">
        <ele>66</ele>
        <time>2012-01-12T15:13:04Z</time>
      </trkpt>
      <trkpt lat="46.29729" lon="-0.47807">
        <ele>63</ele>
        <time>2012-01-12T15:13:09Z</time>
      </trkpt>
      <trkpt lat="46.29736" lon="-0.47809">
        <ele>64</ele>
        <time>2012-01-12T15:13:14Z</time>
      </trkpt>
      <trkpt lat="46.29742" lon="-0.47809">
        <ele>63</ele>
        <time>2012-01-12T15:13:19Z</time>
      </trkpt>
      <trkpt lat="46.29748" lon="-0.47807">
        <ele>63</ele>
        <time>2012-01-12T15:13:24Z</time>
      </trkpt>
      <trkpt lat="46.29752" lon="-0.47808">
        <ele>63</ele>
        <time>2012-01-12T15:13:29Z</time>
      </trkpt>
      <trkpt lat="46.29751" lon="-0.47806">
        <ele>62</ele>
        <time>2012-01-12T15:13:34Z</time>
      </trkpt>
      <trkpt lat="46.29751" lon="-0.47804">
        <ele>62</ele>
        <time>2012-01-12T15:13:39Z</time>
      </trkpt>
      <trkpt lat="46.29757" lon="-0.47803">
        <ele>62</ele>
        <time>2012-01-12T15:13:44Z</time>
      </trkpt>
      <trkpt lat="46.29761" lon="-0.47804">
        <ele>62</ele>
        <time>2012-01-12T15:13:49Z</time>
      </trkpt>
      <trkpt lat="46.29765" lon="-0.47806">
        <ele>61</ele>
        <time>2012-01-12T15:13:54Z</time>
      </trkpt>
      <trkpt lat="46.2977" lon="-0.47808">
        <ele>60</ele>
        <time>2012-01-12T15:13:59Z</time>
      </trkpt>
      <trkpt lat="46.29775" lon="-0.4781">
        <ele>63</ele>
        <time>2012-01-12T15:14:04Z</time>
      </trkpt>
      <trkpt lat="46.29781" lon="-0.47812">
        <ele>62</ele>
        <time>2012-01-12T15:14:09Z</time>
      </trkpt>
      <trkpt lat="46.29785" lon="-0.47814">
        <ele>62</ele>
        <time>2012-01-12T15:14:14Z</time>
      </trkpt>
      <trkpt lat="46.29789" lon="-0.47814">
        <ele>62</ele>
        <time>2012-01-12T15:14:19Z</time>
      </trkpt>
      <trkpt lat="46.29791" lon="-0.47815">
        <ele>62</ele>
        <time>2012-01-12T15:14:24Z</time>
      </trkpt>
      <trkpt lat="46.29796" lon="-0.47819">
        <ele>62</ele>
        <time>2012-01-12T15:14:29Z</time>
      </trkpt>
      <trkpt lat="46.29802" lon="-0.47819">
        <ele>63</ele>
        <time>2012-01-12T15:14:34Z</time>
      </trkpt>
      <trkpt lat="46.29806" lon="-0.47823">
        <ele>64</ele>
        <time>2012-01-12T15:14:39Z</time>
      </trkpt>
      <trkpt lat="46.29811" lon="-0.47825">
        <ele>64</ele>
        <time>2012-01-12T15:14:44Z</time>
      </trkpt>
      <trkpt lat="46.29814" lon="-0.47828">
        <ele>64</ele>
        <time>2012-01-12T15:14:49Z</time>
      </trkpt>
      <trkpt lat="46.29821" lon="-0.4783">
        <ele>65</ele>
        <time>2012-01-12T15:14:54Z</time>
      </trkpt>
      <trkpt lat="46.29825" lon="-0.47832">
        <ele>65</ele>
        <time>2012-01-12T15:14:59Z</time>
      </trkpt>
      <trkpt lat="46.29829" lon="-0.47832">
        <ele>65</ele>
        <time>2012-01-12T15:15:04Z</time>
      </trkpt>
      <trkpt lat="46.29833" lon="-0.47835">
        <ele>65</ele>
        <time>2012-01-12T15:15:09Z</time>
      </trkpt>
      <trkpt lat="46.29838" lon="-0.47835">
        <ele>63</ele>
        <time>2012-01-12T15:15:14Z</time>
      </trkpt>
      <trkpt lat="46.29843" lon="-0.47835">
        <ele>63</ele>
        <time>2012-01-12T15:15:19Z</time>
      </trkpt>
      <trkpt lat="46.29848" lon="-0.47835">
        <ele>61</ele>
        <time>2012-01-12T15:15:24Z</time>
      </trkpt>
      <trkpt lat="46.29851" lon="-0.47836">
        <ele>60</ele>
        <time>2012-01-12T15:15:29Z</time>
      </trkpt>
      <trkpt lat="46.29859" lon="-0.47839">
        <ele>60</ele>
        <time>2012-01-12T15:15:34Z</time>
      </trkpt>
      <trkpt lat="46.29865" lon="-0.4784">
        <ele>60</ele>
        <time>2012-01-12T15:15:39Z</time>
      </trkpt>
      <trkpt lat="46.2987" lon="-0.4784">
        <ele>62</ele>
        <time>2012-01-12T15:15:44Z</time>
      </trkpt>
      <trkpt lat="46.29873" lon="-0.47839">
        <ele>62</ele>
        <time>2012-01-12T15:15:49Z</time>
      </trkpt>
      <trkpt lat="46.2988" lon="-0.4784">
        <ele>61</ele>
        <time>2012-01-12T15:15:54Z</time>
      </trkpt>
      <trkpt lat="46.29885" lon="-0.4784">
        <ele>61</ele>
        <time>2012-01-12T15:15:59Z</time>
      </trkpt>
      <trkpt lat="46.2989" lon="-0.47841">
        <ele>59</ele>
        <time>2012-01-12T15:16:04Z</time>
      </trkpt>
      <trkpt lat="46.29895" lon="-0.47841">
        <ele>60</ele>
        <time>2012-01-12T15:16:09Z</time>
      </trkpt>
      <trkpt lat="46.299" lon="-0.47842">
        <ele>60</ele>
        <time>2012-01-12T15:16:14Z</time>
      </trkpt>
      <trkpt lat="46.29903" lon="-0.4784">
        <ele>58</ele>
        <time>2012-01-12T15:16:19Z</time>
      </trkpt>
      <trkpt lat="46.29909" lon="-0.47838">
        <ele>57</ele>
        <time>2012-01-12T15:16:24Z</time>
      </trkpt>
      <trkpt lat="46.29915" lon="-0.47838">
        <ele>57</ele>
        <time>2012-01-12T15:16:29Z</time>
      </trkpt>
      <trkpt lat="46.29919" lon="-0.47839">
        <ele>58</ele>
        <time>2012-01-12T15:16:34Z</time>
      </trkpt>
      <trkpt lat="46.29925" lon="-0.47838">
        <ele>59</ele>
        <time>2012-01-12T15:16:39Z</time>
      </trkpt>
      <trkpt lat="46.29929" lon="-0.47838">
        <ele>59</ele>
        <time>2012-01-12T15:16:44Z</time>
      </trkpt>
      <trkpt lat="46.29935" lon="-0.47838">
        <ele>59</ele>
        <time>2012-01-12T15:16:49Z</time>
      </trkpt>
      <trkpt lat="46.29939" lon="-0.47837">
        <ele>59</ele>
        <time>2012-01-12T15:16:54Z</time>
      </trkpt>
      <trkpt lat="46.29944" lon="-0.47837">
        <ele>60</ele>
        <time>2012-01-12T15:16:59Z</time>
      </trkpt>
      <trkpt lat="46.2995" lon="-0.47836">
        <ele>60</ele>
        <time>2012-01-12T15:17:04Z</time>
      </trkpt>
      <trkpt lat="46.29953" lon="-0.47836">
        <ele>60</ele>
        <time>2012-01-12T15:17:09Z</time>
      </trkpt>
      <trkpt lat="46.29957" lon="-0.47837">
        <ele>60</ele>
        <time>2012-01-12T15:17:14Z</time>
      </trkpt>
      <trkpt lat="46.29962" lon="-0.47837">
        <ele>59</ele>
        <time>2012-01-12T15:17:19Z</time>
      </trkpt>
      <trkpt lat="46.29968" lon="-0.47838">
        <ele>58</ele>
        <time>2012-01-12T15:17:24Z</time>
      </trkpt>
      <trkpt lat="46.29972" lon="-0.47837">
        <ele>57</ele>
        <time>2012-01-12T15:17:29Z</time>
      </trkpt>
      <trkpt lat="46.29977" lon="-0.47836">
        <ele>59</ele>
        <time>2012-01-12T15:17:34Z</time>
      </trkpt>
      <trkpt lat="46.29983" lon="-0.47836">
        <ele>61</ele>
        <time>2012-01-12T15:17:39Z</time>
      </trkpt>
      <trkpt lat="46.29987" lon="-0.47834">
        <ele>61</ele>
        <time>2012-01-12T15:17:44Z</time>
      </trkpt>
      <trkpt lat="46.29991" lon="-0.47832">
        <ele>61</ele>
        <time>2012-01-12T15:17:49Z</time>
      </trkpt>
      <trkpt lat="46.29995" lon="-0.47832">
        <ele>61</ele>
        <time>2012-01-12T15:17:54Z</time>
      </trkpt>
      <trkpt lat="46.3" lon="-0.47832">
        <ele>61</ele>
        <time>2012-01-12T15:17:59Z</time>
      </trkpt>
      <trkpt lat="46.30005" lon="-0.47831">
        <ele>61</ele>
        <time>2012-01-12T15:18:04Z</time>
      </trkpt>
      <trkpt lat="46.30009" lon="-0.47831">
        <ele>61</ele>
        <time>2012-01-12T15:18:09Z</time>
      </trkpt>
      <trkpt lat="46.30014" lon="-0.47832">
        <ele>61</ele>
        <time>2012-01-12T15:18:14Z</time>
      </trkpt>
      <trkpt lat="46.30132" lon="-0.47846">
        <ele>13.7</ele>
      </trkpt>
      <trkpt lat="46.30304" lon="-0.4773">
        <ele>12.7</ele>
      </trkpt>
      <trkpt lat="46.30327" lon="-0.47726">
        <ele>12.3</ele>
      </trkpt>
      <trkpt lat="46.30304" lon="-0.47761">
        <ele>12.4</ele>
      </trkpt>
      <trkpt lat="46.30307" lon="-0.47761">
        <ele>12.4</ele>
      </trkpt>
      <trkpt lat="46.30322" lon="-0.47782">
        <ele>12.4</ele>
      </trkpt>
      <trkpt lat="46.3054" lon="-0.48587">
        <ele>57</ele>
        <time>2012-01-12T15:42:29Z</time>
      </trkpt>
      <trkpt lat="46.30544" lon="-0.48595">
        <ele>60</ele>
        <time>2012-01-12T15:42:34Z</time>
      </trkpt>
      <trkpt lat="46.30546" lon="-0.48601">
        <ele>60</ele>
        <time>2012-01-12T15:42:39Z</time>
      </trkpt>
      <trkpt lat="46.30545" lon="-0.48606">
        <ele>60</ele>
        <time>2012-01-12T15:42:44Z</time>
      </trkpt>
      <trkpt lat="46.30548" lon="-0.48611">
        <ele>60</ele>
        <time>2012-01-12T15:42:49Z</time>
      </trkpt>
      <trkpt lat="46.30549" lon="-0.48613">
        <ele>59</ele>
        <time>2012-01-12T15:42:54Z</time>
      </trkpt>
      <trkpt lat="46.30552" lon="-0.48619">
        <ele>59</ele>
        <time>2012-01-12T15:42:59Z</time>
      </trkpt>
      <trkpt lat="46.30555" lon="-0.48625">
        <ele>59</ele>
        <time>2012-01-12T15:43:04Z</time>
      </trkpt>
      <trkpt lat="46.30557" lon="-0.48633">
        <ele>58</ele>
        <time>2012-01-12T15:43:09Z</time>
      </trkpt>
      <trkpt lat="46.30559" lon="-0.4864">
        <ele>58</ele>
        <time>2012-01-12T15:43:14Z</time>
      </trkpt>
      <trkpt lat="46.30561" lon="-0.48646">
        <ele>58</ele>
        <time>2012-01-12T15:43:19Z</time>
      </trkpt>
      <trkpt lat="46.30563" lon="-0.48651">
        <ele>58</ele>
        <time>2012-01-12T15:43:24Z</time>
      </trkpt>
      <trkpt lat="46.30566" lon="-0.48657">
        <ele>58</ele>
        <time>2012-01-12T15:43:29Z</time>
      </trkpt>
      <trkpt lat="46.30569" lon="-0.48662">
        <ele>58</ele>
        <time>2012-01-12T15:43:34Z</time>
      </trkpt>
      <trkpt lat="46.3057" lon="-0.48667">
        <ele>59</ele>
        <time>2012-01-12T15:43:39Z</time>
      </trkpt>
      <trkpt lat="46.30574" lon="-0.48672">
        <ele>58</ele>
        <time>2012-01-12T15:43:44Z</time>
      </trkpt>
      <trkpt lat="46.30576" lon="-0.48677">
        <ele>57</ele>
        <time>2012-01-12T15:43:49Z</time>
      </trkpt>
      <trkpt lat="46.30578" lon="-0.48686">
        <ele>56</ele>
        <time>2012-01-12T15:43:54Z</time>
      </trkpt>
      <trkpt lat="46.30579" lon="-0.48691">
        <ele>56</ele>
        <time>2012-01-12T15:43:59Z</time>
      </trkpt>
      <trkpt lat="46.30579" lon="-0.48695">
        <ele>56</ele>
        <time>2012-01-12T15:44:04Z</time>
      </trkpt>
      <trkpt lat="46.30577" lon="-0.48694">
        <ele>57</ele>
        <time>2012-01-12T15:44:09Z</time>
      </trkpt>
      <trkpt lat="46.30574" lon="-0.48694">
        <ele>57</ele>
        <time>2012-01-12T15:44:14Z</time>
      </trkpt>
      <trkpt lat="46.3057" lon="-0.487">
        <ele>57</ele>
        <time>2012-01-12T15:44:19Z</time>
      </trkpt>
      <trkpt lat="46.30566" lon="-0.487">
        <ele>57</ele>
        <time>2012-01-12T15:44:24Z</time>
      </trkpt>
      <trkpt lat="46.30562" lon="-0.487">
        <ele>57</ele>
        <time>2012-01-12T15:44:29Z</time>
      </trkpt>
      <trkpt lat="46.3056" lon="-0.48698">
        <ele>57</ele>
        <time>2012-01-12T15:44:34Z</time>
      </trkpt>
      <trkpt lat="46.30558" lon="-0.48694">
        <ele>56</ele>
        <time>2012-01-12T15:44:39Z</time>
      </trkpt>
      <trkpt lat="46.30555" lon="-0.48688">
        <ele>57</ele>
        <time>2012-01-12T15:44:44Z</time>
      </trkpt>
      <trkpt lat="46.30554" lon="-0.48685">
        <ele>56</ele>
        <time>2012-01-12T15:44:49Z</time>
      </trkpt>
      <trkpt lat="46.30552" lon="-0.48677">
        <ele>56</ele>
        <time>2012-01-12T15:44:54Z</time>
      </trkpt>
      <trkpt lat="46.30551" lon="-0.48671">
        <ele>56</ele>
        <time>2012-01-12T15:44:59Z</time>
      </trkpt>
      <trkpt lat="46.3055" lon="-0.48664">
        <ele>56</ele>
        <time>2012-01-12T15:45:04Z</time>
      </trkpt>
      <trkpt lat="46.30546" lon="-0.48663">
        <ele>57</ele>
        <time>2012-01-12T15:45:09Z</time>
      </trkpt>
      <trkpt lat="46.30539" lon="-0.4866">
        <ele>58</ele>
        <time>2012-01-12T15:45:14Z</time>
      </trkpt>
      <trkpt lat="46.30534" lon="-0.48663">
        <ele>59</ele>
        <time>2012-01-12T15:45:19Z</time>
      </trkpt>
      <trkpt lat="46.3053" lon="-0.48668">
        <ele>59</ele>
        <time>2012-01-12T15:45:24Z</time>
      </trkpt>
      <trkpt lat="46.30528" lon="-0.48674">
        <ele>58</ele>
        <time>2012-01-12T15:45:29Z</time>
      </trkpt>
      <trkpt lat="46.30524" lon="-0.48678">
        <ele>59</ele>
        <time>2012-01-12T15:45:34Z</time>
      </trkpt>
      <trkpt lat="46.30521" lon="-0.48683">
        <ele>58</ele>
        <time>2012-01-12T15:45:39Z</time>
      </trkpt>
      <trkpt lat="46.30518" lon="-0.48686">
        <ele>58</ele>
        <time>2012-01-12T15:45:44Z</time>
      </trkpt>
      <trkpt lat="46.30514" lon="-0.48692">
        <ele>58</ele>
        <time>2012-01-12T15:45:49Z</time>
      </trkpt>
      <trkpt lat="46.3051" lon="-0.48698">
        <ele>58</ele>
        <time>2012-01-12T15:45:54Z</time>
      </trkpt>
      <trkpt lat="46.30506" lon="-0.48704">
        <ele>58</ele>
        <time>2012-01-12T15:45:59Z</time>
      </trkpt>
      <trkpt lat="46.30503" lon="-0.48708">
        <ele>59</ele>
        <time>2012-01-12T15:46:04Z</time>
      </trkpt>
      <trkpt lat="46.30499" lon="-0.48713">
        <ele>59</ele>
        <time>2012-01-12T15:46:09Z</time>
      </trkpt>
      <trkpt lat="46.30496" lon="-0.48715">
        <ele>60</ele>
        <time>2012-01-12T15:46:14Z</time>
      </trkpt>
      <trkpt lat="46.30493" lon="-0.48722">
        <ele>59</ele>
        <time>2012-01-12T15:46:19Z</time>
      </trkpt>
      <trkpt lat="46.30491" lon="-0.48728">
        <ele>58</ele>
        <time>2012-01-12T15:46:24Z</time>
      </trkpt>
      <trkpt lat="46.30489" lon="-0.48734">
        <ele>58</ele>
        <time>2012-01-12T15:46:29Z</time>
      </trkpt>
      <trkpt lat="46.30485" lon="-0.48738">
        <ele>57</ele>
        <time>2012-01-12T15:46:34Z</time>
      </trkpt>
      <trkpt lat="46.30481" lon="-0.48743">
        <ele>57</ele>
        <time>2012-01-12T15:46:39Z</time>
      </trkpt>
      <trkpt lat="46.30478" lon="-0.48746">
        <ele>57</ele>
        <time>2012-01-12T15:46:44Z</time>
      </trkpt>
      <trkpt lat="46.30475" lon="-0.48754">
        <ele>55</ele>
        <time>2012-01-12T15:46:49Z</time>
      </trkpt>
      <trkpt lat="46.30475" lon="-0.48757">
        <ele>54</ele>
        <time>2012-01-12T15:46:54Z</time>
      </trkpt>
      <trkpt lat="46.30469" lon="-0.48761">
        <ele>55</ele>
        <time>2012-01-12T15:46:59Z</time>
      </trkpt>
      <trkpt lat="46.30464" lon="-0.48765">
        <ele>56</ele>
        <time>2012-01-12T15:47:04Z</time>
      </trkpt>
      <trkpt lat="46.3046" lon="-0.48769">
        <ele>55</ele>
        <time>2012-01-12T15:47:09Z</time>
      </trkpt>
      <trkpt lat="46.30456" lon="-0.48771">
        <ele>56</ele>
        <time>2012-01-12T15:47:14Z</time>
      </trkpt>
      <trkpt lat="46.30452" lon="-0.48771">
        <ele>55</ele>
        <time>2012-01-12T15:47:19Z</time>
      </trkpt>
      <trkpt lat="46.30449" lon="-0.48768">
        <ele>54</ele>
        <time>2012-01-12T15:47:24Z</time>
      </trkpt>
      <trkpt lat="46.30447" lon="-0.48765">
        <ele>54</ele>
        <time>2012-01-12T15:47:29Z</time>
      </trkpt>
      <trkpt lat="46.30442" lon="-0.48762">
        <ele>55</ele>
        <time>2012-01-12T15:47:34Z</time>
      </trkpt>
      <trkpt lat="46.30438" lon="-0.48761">
        <ele>56</ele>
        <time>2012-01-12T15:47:39Z</time>
      </trkpt>
      <trkpt lat="46.30435" lon="-0.48765">
        <ele>55</ele>
        <time>2012-01-12T15:47:44Z</time>
      </trkpt>
      <trkpt lat="46.30434" lon="-0.48772">
        <ele>55</ele>
        <time>2012-01-12T15:47:49Z</time>
      </trkpt>
      <trkpt lat="46.30434" lon="-0.48779">
        <ele>55</ele>
        <time>2012-01-12T15:47:54Z</time>
      </trkpt>
      <trkpt lat="46.30434" lon="-0.48786">
        <ele>54</ele>
        <time>2012-01-12T15:47:59Z</time>
      </trkpt>
      <trkpt lat="46.30434" lon="-0.48791">
        <ele>53</ele>
        <time>2012-01-12T15:48:04Z</time>
      </trkpt>
      <trkpt lat="46.30435" lon="-0.48796">
        <ele>53</ele>
        <time>2012-01-12T15:48:09Z</time>
      </trkpt>
      <trkpt lat="46.30435" lon="-0.48804">
        <ele>53</ele>
        <time>2012-01-12T15:48:14Z</time>
      </trkpt>
      <trkpt lat="46.30434" lon="-0.48812">
        <ele>54</ele>
        <time>2012-01-12T15:48:19Z</time>
      </trkpt>
      <trkpt lat="46.30436" lon="-0.48816">
        <ele>54</ele>
        <time>2012-01-12T15:48:24Z</time>
      </trkpt>
      <trkpt lat="46.30439" lon="-0.48819">
        <ele>54</ele>
        <time>2012-01-12T15:48:29Z</time>
      </trkpt>
      <trkpt lat="46.30442" lon="-0.48824">
        <ele>53</ele>
        <time>2012-01-12T15:48:34Z</time>
      </trkpt>
      <trkpt lat="46.30444" lon="-0.48827">
        <ele>53</ele>
        <time>2012-01-12T15:48:39Z</time>
      </trkpt>
      <trkpt lat="46.30447" lon="-0.4883">
        <ele>53</ele>
        <time>2012-01-12T15:48:44Z</time>
      </trkpt>
      <trkpt lat="46.30451" lon="-0.48836">
        <ele>53</ele>
        <time>2012-01-12T15:48:49Z</time>
      </trkpt>
      <trkpt lat="46.30455" lon="-0.48841">
        <ele>53</ele>
        <time>2012-01-12T15:48:54Z</time>
      </trkpt>
      <trkpt lat="46.30458" lon="-0.48844">
        <ele>54</ele>
        <time>2012-01-12T15:48:59Z</time>
      </trkpt>
      <trkpt lat="46.30463" lon="-0.48847">
        <ele>53</ele>
        <time>2012-01-12T15:49:04Z</time>
      </trkpt>
      <trkpt lat="46.30467" lon="-0.4885">
        <ele>54</ele>
        <time>2012-01-12T15:49:09Z</time>
      </trkpt>
      <trkpt lat="46.30467" lon="-0.48852">
        <ele>53</ele>
        <time>2012-01-12T15:49:14Z</time>
      </trkpt>
      <trkpt lat="46.30464" lon="-0.48856">
        <ele>52</ele>
        <time>2012-01-12T15:49:19Z</time>
      </trkpt>
      <trkpt lat="46.30463" lon="-0.4886">
        <ele>51</ele>
        <time>2012-01-12T15:49:24Z</time>
      </trkpt>
      <trkpt lat="46.30461" lon="-0.48862">
        <ele>52</ele>
        <time>2012-01-12T15:49:29Z</time>
      </trkpt>
      <trkpt lat="46.30459" lon="-0.48865">
        <ele>52</ele>
        <time>2012-01-12T15:49:34Z</time>
      </trkpt>
      <trkpt lat="46.30457" lon="-0.48873">
        <ele>52</ele>
        <time>2012-01-12T15:49:39Z</time>
      </trkpt>
      <trkpt lat="46.30457" lon="-0.48879">
        <ele>52</ele>
        <time>2012-01-12T15:49:44Z</time>
      </trkpt>
      <trkpt lat="46.30457" lon="-0.48888">
        <ele>51</ele>
        <time>2012-01-12T15:49:49Z</time>
      </trkpt>
      <trkpt lat="46.30455" lon="-0.48893">
        <ele>51</ele>
        <time>2012-01-12T15:49:54Z</time>
      </trkpt>
      <trkpt lat="46.30451" lon="-0.48902">
        <ele>52</ele>
        <time>2012-01-12T15:49:59Z</time>
      </trkpt>
      <trkpt lat="46.30448" lon="-0.48907">
        <ele>52</ele>
        <time>2012-01-12T15:50:04Z</time>
      </trkpt>
      <trkpt lat="46.30446" lon="-0.48911">
        <ele>52</ele>
        <time>2012-01-12T15:50:09Z</time>
      </trkpt>
      <trkpt lat="46.30442" lon="-0.48915">
        <ele>52</ele>
        <time>2012-01-12T15:50:14Z</time>
      </trkpt>
      <trkpt lat="46.30439" lon="-0.4892">
        <ele>53</ele>
        <time>2012-01-12T15:50:19Z</time>
      </trkpt>
      <trkpt lat="46.30435" lon="-0.48925">
        <ele>53</ele>
        <time>2012-01-12T15:50:24Z</time>
      </trkpt>
      <trkpt lat="46.30432" lon="-0.48929">
        <ele>54</ele>
        <time>2012-01-12T15:50:29Z</time>
      </trkpt>
      <trkpt lat="46.30428" lon="-0.48933">
        <ele>54</ele>
        <time>2012-01-12T15:50:34Z</time>
      </trkpt>
      <trkpt lat="46.30424" lon="-0.48939">
        <ele>53</ele>
        <time>2012-01-12T15:50:39Z</time>
      </trkpt>
      <trkpt lat="46.3042" lon="-0.48942">
        <ele>53</ele>
        <time>2012-01-12T15:50:44Z</time>
      </trkpt>
      <trkpt lat="46.30415" lon="-0.48947">
        <ele>53</ele>
        <time>2012-01-12T15:50:49Z</time>
      </trkpt>
      <trkpt lat="46.30412" lon="-0.48952">
        <ele>54</ele>
        <time>2012-01-12T15:50:54Z</time>
      </trkpt>
      <trkpt lat="46.30408" lon="-0.4896">
        <ele>53</ele>
        <time>2012-01-12T15:50:59Z</time>
      </trkpt>
      <trkpt lat="46.30405" lon="-0.48965">
        <ele>53</ele>
        <time>2012-01-12T15:51:04Z</time>
      </trkpt>
      <trkpt lat="46.30404" lon="-0.48971">
        <ele>53</ele>
        <time>2012-01-12T15:51:09Z</time>
      </trkpt>
      <trkpt lat="46.304" lon="-0.48977">
        <ele>53</ele>
        <time>2012-01-12T15:51:14Z</time>
      </trkpt>
      <trkpt lat="46.30396" lon="-0.48978">
        <ele>54</ele>
        <time>2012-01-12T15:51:19Z</time>
      </trkpt>
      <trkpt lat="46.30392" lon="-0.48983">
        <ele>54</ele>
        <time>2012-01-12T15:51:24Z</time>
      </trkpt>
      <trkpt lat="46.30388" lon="-0.48989">
        <ele>53</ele>
        <time>2012-01-12T15:51:29Z</time>
      </trkpt>
      <trkpt lat="46.30384" lon="-0.48993">
        <ele>53</ele>
        <time>2012-01-12T15:51:34Z</time>
      </trkpt>
      <trkpt lat="46.30381" lon="-0.48998">
        <ele>53</ele>
        <time>2012-01-12T15:51:39Z</time>
      </trkpt>
      <trkpt lat="46.30377" lon="-0.49003">
        <ele>52</ele>
        <time>2012-01-12T15:51:44Z</time>
      </trkpt>
      <trkpt lat="46.30374" lon="-0.49008">
        <ele>50</ele>
        <time>2012-01-12T15:51:49Z</time>
      </trkpt>
      <trkpt lat="46.30371" lon="-0.4901">
        <ele>51</ele>
        <time>2012-01-12T15:51:54Z</time>
      </trkpt>
      <trkpt lat="46.30368" lon="-0.4901">
        <ele>51</ele>
        <time>2012-01-12T15:51:59Z</time>
      </trkpt>
      <trkpt lat="46.30367" lon="-0.49016">
        <ele>50</ele>
        <time>2012-01-12T15:52:04Z</time>
      </trkpt>
      <trkpt lat="46.30363" lon="-0.49021">
        <ele>51</ele>
        <time>2012-01-12T15:52:09Z</time>
      </trkpt>
      <trkpt lat="46.30359" lon="-0.49027">
        <ele>52</ele>
        <time>2012-01-12T15:52:14Z</time>
      </trkpt>
      <trkpt lat="46.30356" lon="-0.49032">
        <ele>53</ele>
        <time>2012-01-12T15:52:19Z</time>
      </trkpt>
      <trkpt lat="46.30352" lon="-0.49037">
        <ele>53</ele>
        <time>2012-01-12T15:52:24Z</time>
      </trkpt>
      <trkpt lat="46.30347" lon="-0.49042">
        <ele>53</ele>
        <time>2012-01-12T15:52:29Z</time>
      </trkpt>
      <trkpt lat="46.30344" lon="-0.49047">
        <ele>52</ele>
        <time>2012-01-12T15:52:34Z</time>
      </trkpt>
      <trkpt lat="46.30342" lon="-0.49048">
        <ele>52</ele>
        <time>2012-01-12T15:52:39Z</time>
      </trkpt>
      <trkpt lat="46.30338" lon="-0.49055">
        <ele>52</ele>
        <time>2012-01-12T15:52:44Z</time>
      </trkpt>
      <trkpt lat="46.30333" lon="-0.49059">
        <ele>54</ele>
        <time>2012-01-12T15:52:49Z</time>
      </trkpt>
      <trkpt lat="46.30329" lon="-0.49064">
        <ele>53</ele>
        <time>2012-01-12T15:52:54Z</time>
      </trkpt>
      <trkpt lat="46.30326" lon="-0.49068">
        <ele>53</ele>
        <time>2012-01-12T15:52:59Z</time>
      </trkpt>
      <trkpt lat="46.30323" lon="-0.49073">
        <ele>53</ele>
        <time>2012-01-12T15:53:04Z</time>
      </trkpt>
      <trkpt lat="46.30321" lon="-0.4908">
        <ele>54</ele>
        <time>2012-01-12T15:53:09Z</time>
      </trkpt>
      <trkpt lat="46.30321" lon="-0.49084">
        <ele>53</ele>
        <time>2012-01-12T15:53:14Z</time>
      </trkpt>
      <trkpt lat="46.3032" lon="-0.4909">
        <ele>52</ele>
        <time>2012-01-12T15:53:19Z</time>
      </trkpt>
      <trkpt lat="46.30317" lon="-0.49095">
        <ele>52</ele>
        <time>2012-01-12T15:53:24Z</time>
      </trkpt>
      <trkpt lat="46.30315" lon="-0.49098">
        <ele>52</ele>
        <time>2012-01-12T15:53:29Z</time>
      </trkpt>
      <trkpt lat="46.30311" lon="-0.49101">
        <ele>52</ele>
        <time>2012-01-12T15:53:34Z</time>
      </trkpt>
      <trkpt lat="46.30307" lon="-0.49109">
        <ele>54</ele>
        <time>2012-01-12T15:53:39Z</time>
      </trkpt>
      <trkpt lat="46.30303" lon="-0.49112">
        <ele>52</ele>
        <time>2012-01-12T15:53:44Z</time>
      </trkpt>
      <trkpt lat="46.303" lon="-0.49116">
        <ele>52</ele>
        <time>2012-01-12T15:53:49Z</time>
      </trkpt>
      <trkpt lat="46.30298" lon="-0.49119">
        <ele>51</ele>
        <time>2012-01-12T15:53:54Z</time>
      </trkpt>
      <trkpt lat="46.30299" lon="-0.49119">
        <ele>50</ele>
        <time>2012-01-12T15:53:59Z</time>
      </trkpt>
      <trkpt lat="46.30299" lon="-0.49118">
        <ele>50</ele>
        <time>2012-01-12T15:54:04Z</time>
      </trkpt>
      <trkpt lat="46.30299" lon="-0.49123">
        <ele>51</ele>
        <time>2012-01-12T15:54:14Z</time>
      </trkpt>
      <trkpt lat="46.30303" lon="-0.49131">
        <ele>51</ele>
        <time>2012-01-12T15:54:19Z</time>
      </trkpt>
      <trkpt lat="46.30308" lon="-0.49135">
        <ele>51</ele>
        <time>2012-01-12T15:54:24Z</time>
      </trkpt>
      <trkpt lat="46.30315" lon="-0.49142">
        <ele>52</ele>
        <time>2012-01-12T15:54:29Z</time>
      </trkpt>
      <trkpt lat="46.30318" lon="-0.49149">
        <ele>51</ele>
        <time>2012-01-12T15:54:34Z</time>
      </trkpt>
      <trkpt lat="46.30317" lon="-0.49151">
        <ele>52</ele>
        <time>2012-01-12T15:54:39Z</time>
      </trkpt>
      <trkpt lat="46.30317" lon="-0.49152">
        <ele>52</ele>
        <time>2012-01-12T15:54:44Z</time>
      </trkpt>
      <trkpt lat="46.30315" lon="-0.49158">
        <ele>54</ele>
        <time>2012-01-12T15:54:49Z</time>
      </trkpt>
      <trkpt lat="46.30315" lon="-0.49166">
        <ele>54</ele>
        <time>2012-01-12T15:54:54Z</time>
      </trkpt>
      <trkpt lat="46.30318" lon="-0.49173">
        <ele>53</ele>
        <time>2012-01-12T15:54:59Z</time>
      </trkpt>
      <trkpt lat="46.30318" lon="-0.4918">
        <ele>53</ele>
        <time>2012-01-12T15:55:04Z</time>
      </trkpt>
      <trkpt lat="46.30319" lon="-0.49188">
        <ele>54</ele>
        <time>2012-01-12T15:55:09Z</time>
      </trkpt>
      <trkpt lat="46.30319" lon="-0.49195">
        <ele>55</ele>
        <time>2012-01-12T15:55:14Z</time>
      </trkpt>
      <trkpt lat="46.30318" lon="-0.49204">
        <ele>56</ele>
        <time>2012-01-12T15:55:19Z</time>
      </trkpt>
      <trkpt lat="46.30316" lon="-0.49211">
        <ele>55</ele>
        <time>2012-01-12T15:55:24Z</time>
      </trkpt>
      <trkpt lat="46.30315" lon="-0.49216">
        <ele>54</ele>
        <time>2012-01-12T15:55:29Z</time>
      </trkpt>
      <trkpt lat="46.30314" lon="-0.49224">
        <ele>56</ele>
        <time>2012-01-12T15:55:34Z</time>
      </trkpt>
      <trkpt lat="46.30311" lon="-0.4923">
        <ele>56</ele>
        <time>2012-01-12T15:55:39Z</time>
      </trkpt>
      <trkpt lat="46.3031" lon="-0.49234">
        <ele>55</ele>
        <time>2012-01-12T15:55:44Z</time>
      </trkpt>
      <trkpt lat="46.30307" lon="-0.49239">
        <ele>55</ele>
        <time>2012-01-12T15:55:49Z</time>
      </trkpt>
      <trkpt lat="46.30303" lon="-0.49246">
        <ele>56</ele>
        <time>2012-01-12T15:55:54Z</time>
      </trkpt>
      <trkpt lat="46.303" lon="-0.49251">
        <ele>55</ele>
        <time>2012-01-12T15:55:59Z</time>
      </trkpt>
      <trkpt lat="46.30295" lon="-0.49254">
        <ele>55</ele>
        <time>2012-01-12T15:56:04Z</time>
      </trkpt>
      <trkpt lat="46.30291" lon="-0.49259">
        <ele>55</ele>
        <time>2012-01-12T15:56:09Z</time>
      </trkpt>
      <trkpt lat="46.30288" lon="-0.49264">
        <ele>54</ele>
        <time>2012-01-12T15:56:14Z</time>
      </trkpt>
      <trkpt lat="46.30285" lon="-0.49271">
        <ele>55</ele>
        <time>2012-01-12T15:56:19Z</time>
      </trkpt>
      <trkpt lat="46.30283" lon="-0.49275">
        <ele>55</ele>
        <time>2012-01-12T15:56:24Z</time>
      </trkpt>
      <trkpt lat="46.30284" lon="-0.49283">
        <ele>56</ele>
        <time>2012-01-12T15:56:29Z</time>
      </trkpt>
      <trkpt lat="46.30281" lon="-0.49296">
        <ele>56</ele>
        <time>2012-01-12T15:56:34Z</time>
      </trkpt>
      <trkpt lat="46.30283" lon="-0.49301">
        <ele>52</ele>
        <time>2012-01-12T15:56:44Z</time>
      </trkpt>
      <trkpt lat="46.30283" lon="-0.49305">
        <ele>51</ele>
        <time>2012-01-12T15:56:49Z</time>
      </trkpt>
      <trkpt lat="46.30283" lon="-0.49311">
        <ele>51</ele>
        <time>2012-01-12T15:56:54Z</time>
      </trkpt>
      <trkpt lat="46.30283" lon="-0.49318">
        <ele>51</ele>
        <time>2012-01-12T15:56:59Z</time>
      </trkpt>
      <trkpt lat="46.30284" lon="-0.49326">
        <ele>50</ele>
        <time>2012-01-12T15:57:04Z</time>
      </trkpt>
      <trkpt lat="46.30286" lon="-0.49333">
        <ele>50</ele>
        <time>2012-01-12T15:57:09Z</time>
      </trkpt>
      <trkpt lat="46.30285" lon="-0.49337">
        <ele>50</ele>
        <time>2012-01-12T15:57:14Z</time>
      </trkpt>
      <trkpt lat="46.30283" lon="-0.4935">
        <ele>54</ele>
        <time>2012-01-12T15:57:19Z</time>
      </trkpt>
      <trkpt lat="46.30282" lon="-0.49362">
        <ele>56</ele>
        <time>2012-01-12T15:57:24Z</time>
      </trkpt>
      <trkpt lat="46.30281" lon="-0.49365">
        <ele>52</ele>
        <time>2012-01-12T15:57:29Z</time>
      </trkpt>
      <trkpt lat="46.30281" lon="-0.49374">
        <ele>54</ele>
        <time>2012-01-12T15:57:34Z</time>
      </trkpt>
      <trkpt lat="46.3028" lon="-0.49378">
        <ele>54</ele>
        <time>2012-01-12T15:57:39Z</time>
      </trkpt>
      <trkpt lat="46.30278" lon="-0.49383">
        <ele>54</ele>
        <time>2012-01-12T15:57:44Z</time>
      </trkpt>
      <trkpt lat="46.30274" lon="-0.4939">
        <ele>54</ele>
        <time>2012-01-12T15:57:49Z</time>
      </trkpt>
      <trkpt lat="46.30273" lon="-0.49394">
        <ele>54</ele>
        <time>2012-01-12T15:57:54Z</time>
      </trkpt>
      <trkpt lat="46.3027" lon="-0.494">
        <ele>54</ele>
        <time>2012-01-12T15:57:59Z</time>
      </trkpt>
      <trkpt lat="46.30267" lon="-0.49404">
        <ele>55</ele>
        <time>2012-01-12T15:58:04Z</time>
      </trkpt>
      <trkpt lat="46.30266" lon="-0.49408">
        <ele>54</ele>
        <time>2012-01-12T15:58:09Z</time>
      </trkpt>
      <trkpt lat="46.30263" lon="-0.49413">
        <ele>54</ele>
        <time>2012-01-12T15:58:14Z</time>
      </trkpt>
      <trkpt lat="46.30262" lon="-0.4942">
        <ele>55</ele>
        <time>2012-01-12T15:58:19Z</time>
      </trkpt>
      <trkpt lat="46.30261" lon="-0.49423">
        <ele>54</ele>
        <time>2012-01-12T15:58:24Z</time>
      </trkpt>
      <trkpt lat="46.30257" lon="-0.49426">
        <ele>53</ele>
        <time>2012-01-12T15:58:29Z</time>
      </trkpt>
      <trkpt lat="46.30252" lon="-0.49427">
        <ele>51</ele>
        <time>2012-01-12T15:58:34Z</time>
      </trkpt>
      <trkpt lat="46.30249" lon="-0.4943">
        <ele>51</ele>
        <time>2012-01-12T15:58:39Z</time>
      </trkpt>
      <trkpt lat="46.30243" lon="-0.49435">
        <ele>52</ele>
        <time>2012-01-12T15:58:44Z</time>
      </trkpt>
      <trkpt lat="46.30237" lon="-0.49438">
        <ele>53</ele>
        <time>2012-01-12T15:58:49Z</time>
      </trkpt>
      <trkpt lat="46.30234" lon="-0.4944">
        <ele>52</ele>
        <time>2012-01-12T15:58:54Z</time>
      </trkpt>
      <trkpt lat="46.3023" lon="-0.49443">
        <ele>51</ele>
        <time>2012-01-12T15:58:59Z</time>
      </trkpt>
      <trkpt lat="46.30227" lon="-0.49446">
        <ele>49</ele>
        <time>2012-01-12T15:59:04Z</time>
      </trkpt>
      <trkpt lat="46.30221" lon="-0.4945">
        <ele>50</ele>
        <time>2012-01-12T15:59:09Z</time>
      </trkpt>
      <trkpt lat="46.30215" lon="-0.49455">
        <ele>50</ele>
        <time>2012-01-12T15:59:14Z</time>
      </trkpt>
      <trkpt lat="46.30213" lon="-0.4946">
        <ele>51</ele>
        <time>2012-01-12T15:59:19Z</time>
      </trkpt>
      <trkpt lat="46.3021" lon="-0.49465">
        <ele>50</ele>
        <time>2012-01-12T15:59:24Z</time>
      </trkpt>
      <trkpt lat="46.30207" lon="-0.49471">
        <ele>51</ele>
        <time>2012-01-12T15:59:29Z</time>
      </trkpt>
      <trkpt lat="46.30202" lon="-0.49476">
        <ele>52</ele>
        <time>2012-01-12T15:59:34Z</time>
      </trkpt>
      <trkpt lat="46.30199" lon="-0.49481">
        <ele>51</ele>
        <time>2012-01-12T15:59:39Z</time>
      </trkpt>
      <trkpt lat="46.30195" lon="-0.49487">
        <ele>51</ele>
        <time>2012-01-12T15:59:44Z</time>
      </trkpt>
      <trkpt lat="46.30193" lon="-0.49492">
        <ele>51</ele>
        <time>2012-01-12T15:59:49Z</time>
      </trkpt>
      <trkpt lat="46.30191" lon="-0.49499">
        <ele>50</ele>
        <time>2012-01-12T15:59:54Z</time>
      </trkpt>
      <trkpt lat="46.30187" lon="-0.49504">
        <ele>51</ele>
        <time>2012-01-12T15:59:59Z</time>
      </trkpt>
      <trkpt lat="46.30184" lon="-0.49509">
        <ele>51</ele>
        <time>2012-01-12T16:00:04Z</time>
      </trkpt>
      <trkpt lat="46.30182" lon="-0.49516">
        <ele>51</ele>
        <time>2012-01-12T16:00:09Z</time>
      </trkpt>
      <trkpt lat="46.30179" lon="-0.49522">
        <ele>51</ele>
        <time>2012-01-12T16:00:14Z</time>
      </trkpt>
      <trkpt lat="46.30178" lon="-0.49524">
        <ele>51</ele>
        <time>2012-01-12T16:00:19Z</time>
      </trkpt>
      <trkpt lat="46.30175" lon="-0.49528">
        <ele>52</ele>
        <time>2012-01-12T16:00:24Z</time>
      </trkpt>
      <trkpt lat="46.30171" lon="-0.49533">
        <ele>52</ele>
        <time>2012-01-12T16:00:29Z</time>
      </trkpt>
      <trkpt lat="46.30169" lon="-0.49538">
        <ele>52</ele>
        <time>2012-01-12T16:00:34Z</time>
      </trkpt>
      <trkpt lat="46.30167" lon="-0.49541">
        <ele>53</ele>
        <time>2012-01-12T16:00:39Z</time>
      </trkpt>
      <trkpt lat="46.30165" lon="-0.49545">
        <ele>53</ele>
        <time>2012-01-12T16:00:44Z</time>
      </trkpt>
      <trkpt lat="46.30158" lon="-0.4955">
        <ele>56</ele>
        <time>2012-01-12T16:00:49Z</time>
      </trkpt>
      <trkpt lat="46.30154" lon="-0.49553">
        <ele>55</ele>
        <time>2012-01-12T16:00:54Z</time>
      </trkpt>
      <trkpt lat="46.30151" lon="-0.49559">
        <ele>55</ele>
        <time>2012-01-12T16:00:59Z</time>
      </trkpt>
      <trkpt lat="46.30149" lon="-0.49564">
        <ele>54</ele>
        <time>2012-01-12T16:01:04Z</time>
      </trkpt>
      <trkpt lat="46.30147" lon="-0.4957">
        <ele>53</ele>
        <time>2012-01-12T16:01:09Z</time>
      </trkpt>
      <trkpt lat="46.30144" lon="-0.49576">
        <ele>53</ele>
        <time>2012-01-12T16:01:14Z</time>
      </trkpt>
      <trkpt lat="46.30142" lon="-0.49581">
        <ele>53</ele>
        <time>2012-01-12T16:01:19Z</time>
      </trkpt>
      <trkpt lat="46.30139" lon="-0.49588">
        <ele>53</ele>
        <time>2012-01-12T16:01:24Z</time>
      </trkpt>
      <trkpt lat="46.30135" lon="-0.49594">
        <ele>53</ele>
        <time>2012-01-12T16:01:29Z</time>
      </trkpt>
      <trkpt lat="46.30133" lon="-0.49599">
        <ele>54</ele>
        <time>2012-01-12T16:01:34Z</time>
      </trkpt>
      <trkpt lat="46.30129" lon="-0.49606">
        <ele>54</ele>
        <time>2012-01-12T16:01:39Z</time>
      </trkpt>
      <trkpt lat="46.30126" lon="-0.49613">
        <ele>54</ele>
        <time>2012-01-12T16:01:44Z</time>
      </trkpt>
      <trkpt lat="46.30124" lon="-0.49619">
        <ele>55</ele>
        <time>2012-01-12T16:01:49Z</time>
      </trkpt>
      <trkpt lat="46.3012" lon="-0.49624">
        <ele>56</ele>
        <time>2012-01-12T16:01:54Z</time>
      </trkpt>
      <trkpt lat="46.30117" lon="-0.49629">
        <ele>57</ele>
        <time>2012-01-12T16:01:59Z</time>
      </trkpt>
      <trkpt lat="46.30114" lon="-0.49634">
        <ele>55</ele>
        <time>2012-01-12T16:02:04Z</time>
      </trkpt>
      <trkpt lat="46.3011" lon="-0.49641">
        <ele>56</ele>
        <time>2012-01-12T16:02:09Z</time>
      </trkpt>
      <trkpt lat="46.30107" lon="-0.49649">
        <ele>56</ele>
        <time>2012-01-12T16:02:14Z</time>
      </trkpt>
      <trkpt lat="46.30104" lon="-0.49656">
        <ele>58</ele>
        <time>2012-01-12T16:02:19Z</time>
      </trkpt>
      <trkpt lat="46.30103" lon="-0.49658">
        <ele>57</ele>
        <time>2012-01-12T16:02:24Z</time>
      </trkpt>
      <trkpt lat="46.30101" lon="-0.49664">
        <ele>56</ele>
        <time>2012-01-12T16:02:29Z</time>
      </trkpt>
      <trkpt lat="46.30099" lon="-0.4967">
        <ele>56</ele>
        <time>2012-01-12T16:02:34Z</time>
      </trkpt>
      <trkpt lat="46.30095" lon="-0.49675">
        <ele>54</ele>
        <time>2012-01-12T16:02:39Z</time>
      </trkpt>
      <trkpt lat="46.30092" lon="-0.49681">
        <ele>53</ele>
        <time>2012-01-12T16:02:44Z</time>
      </trkpt>
      <trkpt lat="46.3009" lon="-0.49687">
        <ele>52</ele>
        <time>2012-01-12T16:02:49Z</time>
      </trkpt>
      <trkpt lat="46.30088" lon="-0.49692">
        <ele>52</ele>
        <time>2012-01-12T16:02:54Z</time>
      </trkpt>
      <trkpt lat="46.30086" lon="-0.49698">
        <ele>52</ele>
        <time>2012-01-12T16:02:59Z</time>
      </trkpt>
      <trkpt lat="46.30083" lon="-0.49707">
        <ele>52</ele>
        <time>2012-01-12T16:03:04Z</time>
      </trkpt>
      <trkpt lat="46.30082" lon="-0.49711">
        <ele>51</ele>
        <time>2012-01-12T16:03:09Z</time>
      </trkpt>
      <trkpt lat="46.3008" lon="-0.49719">
        <ele>52</ele>
        <time>2012-01-12T16:03:14Z</time>
      </trkpt>
      <trkpt lat="46.30077" lon="-0.49729">
        <ele>52</ele>
        <time>2012-01-12T16:03:19Z</time>
      </trkpt>
      <trkpt lat="46.30078" lon="-0.49734">
        <ele>54</ele>
        <time>2012-01-12T16:03:24Z</time>
      </trkpt>
      <trkpt lat="46.30079" lon="-0.49741">
        <ele>51</ele>
        <time>2012-01-12T16:03:29Z</time>
      </trkpt>
      <trkpt lat="46.30081" lon="-0.49746">
        <ele>50</ele>
        <time>2012-01-12T16:03:34Z</time>
      </trkpt>
      <trkpt lat="46.30082" lon="-0.49754">
        <ele>50</ele>
        <time>2012-01-12T16:03:39Z</time>
      </trkpt>
      <trkpt lat="46.30079" lon="-0.49765">
        <ele>50</ele>
        <time>2012-01-12T16:03:44Z</time>
      </trkpt>
      <trkpt lat="46.30084" lon="-0.4977">
        <ele>50</ele>
        <time>2012-01-12T16:03:49Z</time>
      </trkpt>
      <trkpt lat="46.30083" lon="-0.49779">
        <ele>52</ele>
        <time>2012-01-12T16:03:54Z</time>
      </trkpt>
      <trkpt lat="46.30082" lon="-0.49787">
        <ele>53</ele>
        <time>2012-01-12T16:03:59Z</time>
      </trkpt>
      <trkpt lat="46.30083" lon="-0.49795">
        <ele>54</ele>
        <time>2012-01-12T16:04:04Z</time>
      </trkpt>
      <trkpt lat="46.30084" lon="-0.498">
        <ele>54</ele>
        <time>2012-01-12T16:04:09Z</time>
      </trkpt>
      <trkpt lat="46.30082" lon="-0.49805">
        <ele>53</ele>
        <time>2012-01-12T16:04:14Z</time>
      </trkpt>
      <trkpt lat="46.3008" lon="-0.49816">
        <ele>55</ele>
        <time>2012-01-12T16:04:19Z</time>
      </trkpt>
      <trkpt lat="46.30077" lon="-0.49825">
        <ele>58</ele>
        <time>2012-01-12T16:04:24Z</time>
      </trkpt>
      <trkpt lat="46.30077" lon="-0.4983">
        <ele>57</ele>
        <time>2012-01-12T16:04:29Z</time>
      </trkpt>
      <trkpt lat="46.30075" lon="-0.49838">
        <ele>59</ele>
        <time>2012-01-12T16:04:34Z</time>
      </trkpt>
      <trkpt lat="46.30075" lon="-0.49844">
        <ele>57</ele>
        <time>2012-01-12T16:04:39Z</time>
      </trkpt>
      <trkpt lat="46.30075" lon="-0.49851">
        <ele>56</ele>
        <time>2012-01-12T16:04:44Z</time>
      </trkpt>
      <trkpt lat="46.30074" lon="-0.49861">
        <ele>57</ele>
        <time>2012-01-12T16:04:49Z</time>
      </trkpt>
      <trkpt lat="46.30073" lon="-0.49868">
        <ele>55</ele>
        <time>2012-01-12T16:04:54Z</time>
      </trkpt>
      <trkpt lat="46.30073" lon="-0.49876">
        <ele>54</ele>
        <time>2012-01-12T16:04:59Z</time>
      </trkpt>
      <trkpt lat="46.30069" lon="-0.49883">
        <ele>54</ele>
        <time>2012-01-12T16:05:04Z</time>
      </trkpt>
      <trkpt lat="46.30071" lon="-0.49888">
        <ele>55</ele>
        <time>2012-01-12T16:05:09Z</time>
      </trkpt>
      <trkpt lat="46.30069" lon="-0.49897">
        <ele>55</ele>
        <time>2012-01-12T16:05:14Z</time>
      </trkpt>
      <trkpt lat="46.30068" lon="-0.499">
        <ele>54</ele>
        <time>2012-01-12T16:05:19Z</time>
      </trkpt>
      <trkpt lat="46.30067" lon="-0.49899">
        <ele>54</ele>
        <time>2012-01-12T16:05:24Z</time>
      </trkpt>
      <trkpt lat="46.30067" lon="-0.49904">
        <ele>54</ele>
        <time>2012-01-12T16:05:29Z</time>
      </trkpt>
      <trkpt lat="46.30066" lon="-0.49906">
        <ele>55</ele>
        <time>2012-01-12T16:05:34Z</time>
      </trkpt>
      <trkpt lat="46.30066" lon="-0.49909">
        <ele>55</ele>
        <time>2012-01-12T16:05:39Z</time>
      </trkpt>
      <trkpt lat="46.30063" lon="-0.49909">
        <ele>56</ele>
        <time>2012-01-12T16:05:44Z</time>
      </trkpt>
      <trkpt lat="46.30059" lon="-0.49914">
        <ele>57</ele>
        <time>2012-01-12T16:05:49Z</time>
      </trkpt>
      <trkpt lat="46.30057" lon="-0.49921">
        <ele>56</ele>
        <time>2012-01-12T16:05:54Z</time>
      </trkpt>
      <trkpt lat="46.30053" lon="-0.49925">
        <ele>54</ele>
        <time>2012-01-12T16:05:59Z</time>
      </trkpt>
      <trkpt lat="46.30051" lon="-0.4993">
        <ele>54</ele>
        <time>2012-01-12T16:06:04Z</time>
      </trkpt>
      <trkpt lat="46.30047" lon="-0.49937">
        <ele>55</ele>
        <time>2012-01-12T16:06:09Z</time>
      </trkpt>
      <trkpt lat="46.30045" lon="-0.49943">
        <ele>54</ele>
        <time>2012-01-12T16:06:14Z</time>
      </trkpt>
      <trkpt lat="46.30042" lon="-0.49949">
        <ele>54</ele>
        <time>2012-01-12T16:06:19Z</time>
      </trkpt>
      <trkpt lat="46.30039" lon="-0.49956">
        <ele>54</ele>
        <time>2012-01-12T16:06:24Z</time>
      </trkpt>
      <trkpt lat="46.30037" lon="-0.49963">
        <ele>55</ele>
        <time>2012-01-12T16:06:29Z</time>
      </trkpt>
      <trkpt lat="46.30035" lon="-0.4997">
        <ele>55</ele>
        <time>2012-01-12T16:06:34Z</time>
      </trkpt>
      <trkpt lat="46.30033" lon="-0.49975">
        <ele>55</ele>
        <time>2012-01-12T16:06:39Z</time>
      </trkpt>
      <trkpt lat="46.30029" lon="-0.49983">
        <ele>55</ele>
        <time>2012-01-12T16:06:44Z</time>
      </trkpt>
      <trkpt lat="46.30026" lon="-0.4999">
        <ele>55</ele>
        <time>2012-01-12T16:06:49Z</time>
      </trkpt>
      <trkpt lat="46.30022" lon="-0.49997">
        <ele>56</ele>
        <time>2012-01-12T16:06:54Z</time>
      </trkpt>
      <trkpt lat="46.3002" lon="-0.50003">
        <ele>56</ele>
        <time>2012-01-12T16:06:59Z</time>
      </trkpt>
      <trkpt lat="46.30018" lon="-0.50011">
        <ele>55</ele>
        <time>2012-01-12T16:07:04Z</time>
      </trkpt>
      <trkpt lat="46.30015" lon="-0.50018">
        <ele>56</ele>
        <time>2012-01-12T16:07:09Z</time>
      </trkpt>
      <trkpt lat="46.30012" lon="-0.50025">
        <ele>55</ele>
        <time>2012-01-12T16:07:14Z</time>
      </trkpt>
      <trkpt lat="46.3001" lon="-0.50031">
        <ele>56</ele>
        <time>2012-01-12T16:07:19Z</time>
      </trkpt>
      <trkpt lat="46.30009" lon="-0.50037">
        <ele>56</ele>
        <time>2012-01-12T16:07:24Z</time>
      </trkpt>
      <trkpt lat="46.30006" lon="-0.50044">
        <ele>55</ele>
        <time>2012-01-12T16:07:29Z</time>
      </trkpt>
      <trkpt lat="46.30004" lon="-0.50049">
        <ele>55</ele>
        <time>2012-01-12T16:07:34Z</time>
      </trkpt>
      <trkpt lat="46.30001" lon="-0.50056">
        <ele>56</ele>
        <time>2012-01-12T16:07:39Z</time>
      </trkpt>
      <trkpt lat="46.3" lon="-0.50063">
        <ele>55</ele>
        <time>2012-01-12T16:07:44Z</time>
      </trkpt>
      <trkpt lat="46.29998" lon="-0.5007">
        <ele>55</ele>
        <time>2012-01-12T16:07:49Z</time>
      </trkpt>
      <trkpt lat="46.29996" lon="-0.50076">
        <ele>54</ele>
        <time>2012-01-12T16:07:54Z</time>
      </trkpt>
      <trkpt lat="46.29994" lon="-0.50084">
        <ele>55</ele>
        <time>2012-01-12T16:07:59Z</time>
      </trkpt>
      <trkpt lat="46.29991" lon="-0.5009">
        <ele>56</ele>
        <time>2012-01-12T16:08:04Z</time>
      </trkpt>
      <trkpt lat="46.29987" lon="-0.50097">
        <ele>59</ele>
        <time>2012-01-12T16:08:09Z</time>
      </trkpt>
      <trkpt lat="46.29986" lon="-0.50104">
        <ele>59</ele>
        <time>2012-01-12T16:08:14Z</time>
      </trkpt>
      <trkpt lat="46.29983" lon="-0.5011">
        <ele>59</ele>
        <time>2012-01-12T16:08:19Z</time>
      </trkpt>
      <trkpt lat="46.29981" lon="-0.50114">
        <ele>58</ele>
        <time>2012-01-12T16:08:24Z</time>
      </trkpt>
      <trkpt lat="46.29979" lon="-0.50123">
        <ele>58</ele>
        <time>2012-01-12T16:08:29Z</time>
      </trkpt>
      <trkpt lat="46.29978" lon="-0.50131">
        <ele>60</ele>
        <time>2012-01-12T16:08:34Z</time>
      </trkpt>
      <trkpt lat="46.29978" lon="-0.50139">
        <ele>60</ele>
        <time>2012-01-12T16:08:39Z</time>
      </trkpt>
      <trkpt lat="46.29975" lon="-0.50149">
        <ele>60</ele>
        <time>2012-01-12T16:08:44Z</time>
      </trkpt>
      <trkpt lat="46.29973" lon="-0.50155">
        <ele>61</ele>
        <time>2012-01-12T16:08:49Z</time>
      </trkpt>
      <trkpt lat="46.29974" lon="-0.50162">
        <ele>62</ele>
        <time>2012-01-12T16:08:54Z</time>
      </trkpt>
      <trkpt lat="46.29973" lon="-0.50169">
        <ele>62</ele>
        <time>2012-01-12T16:08:59Z</time>
      </trkpt>
      <trkpt lat="46.29973" lon="-0.50174">
        <ele>62</ele>
        <time>2012-01-12T16:09:04Z</time>
      </trkpt>
      <trkpt lat="46.29975" lon="-0.50179">
        <ele>64</ele>
        <time>2012-01-12T16:09:09Z</time>
      </trkpt>
      <trkpt lat="46.29973" lon="-0.50185">
        <ele>62</ele>
        <time>2012-01-12T16:09:14Z</time>
      </trkpt>
      <trkpt lat="46.29973" lon="-0.50193">
        <ele>62</ele>
        <time>2012-01-12T16:09:19Z</time>
      </trkpt>
      <trkpt lat="46.2997" lon="-0.50203">
        <ele>61</ele>
        <time>2012-01-12T16:09:24Z</time>
      </trkpt>
      <trkpt lat="46.29971" lon="-0.50212">
        <ele>61</ele>
        <time>2012-01-12T16:09:29Z</time>
      </trkpt>
      <trkpt lat="46.29969" lon="-0.50222">
        <ele>62</ele>
        <time>2012-01-12T16:09:34Z</time>
      </trkpt>
      <trkpt lat="46.2997" lon="-0.50232">
        <ele>62</ele>
        <time>2012-01-12T16:09:39Z</time>
      </trkpt>
      <trkpt lat="46.2997" lon="-0.50238">
        <ele>61</ele>
        <time>2012-01-12T16:09:44Z</time>
      </trkpt>
      <trkpt lat="46.29969" lon="-0.50249">
        <ele>62</ele>
        <time>2012-01-12T16:09:49Z</time>
      </trkpt>
      <trkpt lat="46.29971" lon="-0.50251">
        <ele>61</ele>
        <time>2012-01-12T16:09:54Z</time>
      </trkpt>
      <trkpt lat="46.29972" lon="-0.50259">
        <ele>60</ele>
        <time>2012-01-12T16:09:59Z</time>
      </trkpt>
      <trkpt lat="46.29973" lon="-0.50265">
        <ele>61</ele>
        <time>2012-01-12T16:10:04Z</time>
      </trkpt>
      <trkpt lat="46.29977" lon="-0.50272">
        <ele>61</ele>
        <time>2012-01-12T16:10:09Z</time>
      </trkpt>
      <trkpt lat="46.29976" lon="-0.5028">
        <ele>62</ele>
        <time>2012-01-12T16:10:14Z</time>
      </trkpt>
      <trkpt lat="46.29974" lon="-0.50288">
        <ele>63</ele>
        <time>2012-01-12T16:10:19Z</time>
      </trkpt>
      <trkpt lat="46.29975" lon="-0.50294">
        <ele>63</ele>
        <time>2012-01-12T16:10:24Z</time>
      </trkpt>
      <trkpt lat="46.29977" lon="-0.50303">
        <ele>63</ele>
        <time>2012-01-12T16:10:29Z</time>
      </trkpt>
      <trkpt lat="46.2998" lon="-0.50308">
        <ele>62</ele>
        <time>2012-01-12T16:10:34Z</time>
      </trkpt>
      <trkpt lat="46.2998" lon="-0.50313">
        <ele>61</ele>
        <time>2012-01-12T16:10:39Z</time>
      </trkpt>
      <trkpt lat="46.2998" lon="-0.50318">
        <ele>61</ele>
        <time>2012-01-12T16:10:44Z</time>
      </trkpt>
      <trkpt lat="46.29982" lon="-0.50326">
        <ele>61</ele>
        <time>2012-01-12T16:10:49Z</time>
      </trkpt>
      <trkpt lat="46.29981" lon="-0.50333">
        <ele>61</ele>
        <time>2012-01-12T16:10:54Z</time>
      </trkpt>
      <trkpt lat="46.29982" lon="-0.50341">
        <ele>63</ele>
        <time>2012-01-12T16:10:59Z</time>
      </trkpt>
      <trkpt lat="46.29983" lon="-0.50345">
        <ele>65</ele>
        <time>2012-01-12T16:11:04Z</time>
      </trkpt>
      <trkpt lat="46.29984" lon="-0.50356">
        <ele>68</ele>
        <time>2012-01-12T16:11:09Z</time>
      </trkpt>
      <trkpt lat="46.29983" lon="-0.50364">
        <ele>70</ele>
        <time>2012-01-12T16:11:14Z</time>
      </trkpt>
      <trkpt lat="46.29981" lon="-0.50371">
        <ele>69</ele>
        <time>2012-01-12T16:11:19Z</time>
      </trkpt>
      <trkpt lat="46.29981" lon="-0.50379">
        <ele>69</ele>
        <time>2012-01-12T16:11:24Z</time>
      </trkpt>
      <trkpt lat="46.2998" lon="-0.50386">
        <ele>69</ele>
        <time>2012-01-12T16:11:29Z</time>
      </trkpt>
      <trkpt lat="46.29979" lon="-0.50394">
        <ele>67</ele>
        <time>2012-01-12T16:11:34Z</time>
      </trkpt>
      <trkpt lat="46.29978" lon="-0.50401">
        <ele>68</ele>
        <time>2012-01-12T16:11:39Z</time>
      </trkpt>
      <trkpt lat="46.29978" lon="-0.50407">
        <ele>71</ele>
        <time>2012-01-12T16:11:44Z</time>
      </trkpt>
      <trkpt lat="46.29978" lon="-0.50414">
        <ele>72</ele>
        <time>2012-01-12T16:11:49Z</time>
      </trkpt>
      <trkpt lat="46.29977" lon="-0.5042">
        <ele>73</ele>
        <time>2012-01-12T16:11:54Z</time>
      </trkpt>
      <trkpt lat="46.29976" lon="-0.50426">
        <ele>74</ele>
        <time>2012-01-12T16:11:59Z</time>
      </trkpt>
      <trkpt lat="46.29976" lon="-0.50432">
        <ele>73</ele>
        <time>2012-01-12T16:12:04Z</time>
      </trkpt>
      <trkpt lat="46.29975" lon="-0.50439">
        <ele>72</ele>
        <time>2012-01-12T16:12:09Z</time>
      </trkpt>
      <trkpt lat="46.29974" lon="-0.50442">
        <ele>72</ele>
        <time>2012-01-12T16:12:14Z</time>
      </trkpt>
      <trkpt lat="46.2997" lon="-0.50452">
        <ele>73</ele>
        <time>2012-01-12T16:12:19Z</time>
      </trkpt>
      <trkpt lat="46.29968" lon="-0.50461">
        <ele>73</ele>
        <time>2012-01-12T16:12:24Z</time>
      </trkpt>
      <trkpt lat="46.29965" lon="-0.50468">
        <ele>73</ele>
        <time>2012-01-12T16:12:29Z</time>
      </trkpt>
      <trkpt lat="46.29965" lon="-0.50474">
        <ele>73</ele>
        <time>2012-01-12T16:12:34Z</time>
      </trkpt>
      <trkpt lat="46.29962" lon="-0.50479">
        <ele>74</ele>
        <time>2012-01-12T16:12:39Z</time>
      </trkpt>
      <trkpt lat="46.2996" lon="-0.50487">
        <ele>73</ele>
        <time>2012-01-12T16:12:44Z</time>
      </trkpt>
      <trkpt lat="46.29959" lon="-0.50494">
        <ele>74</ele>
        <time>2012-01-12T16:12:49Z</time>
      </trkpt>
      <trkpt lat="46.29961" lon="-0.50502">
        <ele>72</ele>
        <time>2012-01-12T16:12:54Z</time>
      </trkpt>
      <trkpt lat="46.29961" lon="-0.50507">
        <ele>71</ele>
        <time>2012-01-12T16:12:59Z</time>
      </trkpt>
      <trkpt lat="46.29961" lon="-0.50516">
        <ele>70</ele>
        <time>2012-01-12T16:13:04Z</time>
      </trkpt>
      <trkpt lat="46.29963" lon="-0.50523">
        <ele>70</ele>
        <time>2012-01-12T16:13:09Z</time>
      </trkpt>
      <trkpt lat="46.29963" lon="-0.50531">
        <ele>70</ele>
        <time>2012-01-12T16:13:14Z</time>
      </trkpt>
      <trkpt lat="46.29965" lon="-0.50538">
        <ele>69</ele>
        <time>2012-01-12T16:13:19Z</time>
      </trkpt>
      <trkpt lat="46.29968" lon="-0.50544">
        <ele>69</ele>
        <time>2012-01-12T16:13:24Z</time>
      </trkpt>
      <trkpt lat="46.29972" lon="-0.50548">
        <ele>69</ele>
        <time>2012-01-12T16:13:29Z</time>
      </trkpt>
      <trkpt lat="46.29973" lon="-0.5056">
        <ele>68</ele>
        <time>2012-01-12T16:13:34Z</time>
      </trkpt>
      <trkpt lat="46.29976" lon="-0.5057">
        <ele>68</ele>
        <time>2012-01-12T16:13:39Z</time>
      </trkpt>
      <trkpt lat="46.29983" lon="-0.50571">
        <ele>70</ele>
        <time>2012-01-12T16:13:44Z</time>
      </trkpt>
      <trkpt lat="46.29984" lon="-0.50578">
        <ele>69</ele>
        <time>2012-01-12T16:13:49Z</time>
      </trkpt>
      <trkpt lat="46.29986" lon="-0.5059">
        <ele>67</ele>
        <time>2012-01-12T16:13:54Z</time>
      </trkpt>
      <trkpt lat="46.29991" lon="-0.50597">
        <ele>67</ele>
        <time>2012-01-12T16:13:59Z</time>
      </trkpt>
      <trkpt lat="46.29994" lon="-0.50603">
        <ele>67</ele>
        <time>2012-01-12T16:14:04Z</time>
      </trkpt>
      <trkpt lat="46.29996" lon="-0.50609">
        <ele>68</ele>
        <time>2012-01-12T16:14:09Z</time>
      </trkpt>
      <trkpt lat="46.30001" lon="-0.50614">
        <ele>69</ele>
        <time>2012-01-12T16:14:14Z</time>
      </trkpt>
      <trkpt lat="46.30003" lon="-0.50615">
        <ele>67</ele>
        <time>2012-01-12T16:14:19Z</time>
      </trkpt>
      <trkpt lat="46.30005" lon="-0.50625">
        <ele>67</ele>
        <time>2012-01-12T16:14:24Z</time>
      </trkpt>
      <trkpt lat="46.30009" lon="-0.5063">
        <ele>66</ele>
        <time>2012-01-12T16:14:29Z</time>
      </trkpt>
      <trkpt lat="46.30011" lon="-0.50636">
        <ele>67</ele>
        <time>2012-01-12T16:14:34Z</time>
      </trkpt>
      <trkpt lat="46.30009" lon="-0.50643">
        <ele>68</ele>
        <time>2012-01-12T16:14:39Z</time>
      </trkpt>
      <trkpt lat="46.30007" lon="-0.50648">
        <ele>67</ele>
        <time>2012-01-12T16:14:44Z</time>
      </trkpt>
      <trkpt lat="46.30003" lon="-0.50656">
        <ele>69</ele>
        <time>2012-01-12T16:14:49Z</time>
      </trkpt>
      <trkpt lat="46.29998" lon="-0.5066">
        <ele>68</ele>
        <time>2012-01-12T16:14:54Z</time>
      </trkpt>
      <trkpt lat="46.29994" lon="-0.50663">
        <ele>67</ele>
        <time>2012-01-12T16:14:59Z</time>
      </trkpt>
      <trkpt lat="46.2999" lon="-0.50669">
        <ele>70</ele>
        <time>2012-01-12T16:15:04Z</time>
      </trkpt>
      <trkpt lat="46.29985" lon="-0.50674">
        <ele>71</ele>
        <time>2012-01-12T16:15:09Z</time>
      </trkpt>
      <trkpt lat="46.2998" lon="-0.50678">
        <ele>71</ele>
        <time>2012-01-12T16:15:14Z</time>
      </trkpt>
      <trkpt lat="46.29975" lon="-0.50682">
        <ele>72</ele>
        <time>2012-01-12T16:15:19Z</time>
      </trkpt>
      <trkpt lat="46.29971" lon="-0.50685">
        <ele>72</ele>
        <time>2012-01-12T16:15:24Z</time>
      </trkpt>
      <trkpt lat="46.29966" lon="-0.50691">
        <ele>73</ele>
        <time>2012-01-12T16:15:29Z</time>
      </trkpt>
      <trkpt lat="46.29961" lon="-0.50697">
        <ele>72</ele>
        <time>2012-01-12T16:15:34Z</time>
      </trkpt>
      <trkpt lat="46.29956" lon="-0.50702">
        <ele>73</ele>
        <time>2012-01-12T16:15:39Z</time>
      </trkpt>
      <trkpt lat="46.29952" lon="-0.50705">
        <ele>73</ele>
        <time>2012-01-12T16:15:44Z</time>
      </trkpt>
      <trkpt lat="46.29948" lon="-0.5071">
        <ele>73</ele>
        <time>2012-01-12T16:15:49Z</time>
      </trkpt>
      <trkpt lat="46.29944" lon="-0.50716">
        <ele>73</ele>
        <time>2012-01-12T16:15:54Z</time>
      </trkpt>
      <trkpt lat="46.29941" lon="-0.50721">
        <ele>73</ele>
        <time>2012-01-12T16:15:59Z</time>
      </trkpt>
      <trkpt lat="46.29936" lon="-0.50725">
        <ele>73</ele>
        <time>2012-01-12T16:16:04Z</time>
      </trkpt>
      <trkpt lat="46.29932" lon="-0.5073">
        <ele>73</ele>
        <time>2012-01-12T16:16:09Z</time>
      </trkpt>
      <trkpt lat="46.29928" lon="-0.50736">
        <ele>72</ele>
        <time>2012-01-12T16:16:14Z</time>
      </trkpt>
      <trkpt lat="46.29924" lon="-0.50741">
        <ele>72</ele>
        <time>2012-01-12T16:16:19Z</time>
      </trkpt>
      <trkpt lat="46.29921" lon="-0.50748">
        <ele>71</ele>
        <time>2012-01-12T16:16:24Z</time>
      </trkpt>
      <trkpt lat="46.29919" lon="-0.50754">
        <ele>70</ele>
        <time>2012-01-12T16:16:29Z</time>
      </trkpt>
      <trkpt lat="46.29916" lon="-0.50762">
        <ele>70</ele>
        <time>2012-01-12T16:16:34Z</time>
      </trkpt>
      <trkpt lat="46.29915" lon="-0.5077">
        <ele>70</ele>
        <time>2012-01-12T16:16:39Z</time>
      </trkpt>
      <trkpt lat="46.29913" lon="-0.50776">
        <ele>70</ele>
        <time>2012-01-12T16:16:44Z</time>
      </trkpt>
      <trkpt lat="46.2991" lon="-0.50782">
        <ele>70</ele>
        <time>2012-01-12T16:16:49Z</time>
      </trkpt>
      <trkpt lat="46.29909" lon="-0.50788">
        <ele>70</ele>
        <time>2012-01-12T16:16:54Z</time>
      </trkpt>
      <trkpt lat="46.29906" lon="-0.50794">
        <ele>71</ele>
        <time>2012-01-12T16:16:59Z</time>
      </trkpt>
      <trkpt lat="46.29904" lon="-0.508">
        <ele>71</ele>
        <time>2012-01-12T16:17:04Z</time>
      </trkpt>
      <trkpt lat="46.29904" lon="-0.50805">
        <ele>73</ele>
        <time>2012-01-12T16:17:09Z</time>
      </trkpt>
      <trkpt lat="46.299" lon="-0.50812">
        <ele>73</ele>
        <time>2012-01-12T16:17:14Z</time>
      </trkpt>
      <trkpt lat="46.29897" lon="-0.50817">
        <ele>74</ele>
        <time>2012-01-12T16:17:19Z</time>
      </trkpt>
      <trkpt lat="46.29895" lon="-0.50822">
        <ele>74</ele>
        <time>2012-01-12T16:17:24Z</time>
      </trkpt>
      <trkpt lat="46.29893" lon="-0.50828">
        <ele>75</ele>
        <time>2012-01-12T16:17:29Z</time>
      </trkpt>
      <trkpt lat="46.29892" lon="-0.50835">
        <ele>76</ele>
        <time>2012-01-12T16:17:34Z</time>
      </trkpt>
      <trkpt lat="46.29894" lon="-0.5084">
        <ele>75</ele>
        <time>2012-01-12T16:17:39Z</time>
      </trkpt>
      <trkpt lat="46.29894" lon="-0.50842">
        <ele>75</ele>
        <time>2012-01-12T16:17:44Z</time>
      </trkpt>
      <trkpt lat="46.29895" lon="-0.50854">
        <ele>75</ele>
        <time>2012-01-12T16:17:49Z</time>
      </trkpt>
      <trkpt lat="46.29896" lon="-0.50856">
        <ele>76</ele>
        <time>2012-01-12T16:17:54Z</time>
      </trkpt>
      <trkpt lat="46.29898" lon="-0.50864">
        <ele>75</ele>
        <time>2012-01-12T16:17:59Z</time>
      </trkpt>
      <trkpt lat="46.299" lon="-0.50874">
        <ele>77</ele>
        <time>2012-01-12T16:18:04Z</time>
      </trkpt>
      <trkpt lat="46.29903" lon="-0.50883">
        <ele>76</ele>
        <time>2012-01-12T16:18:09Z</time>
      </trkpt>
      <trkpt lat="46.29906" lon="-0.5089">
        <ele>76</ele>
        <time>2012-01-12T16:18:14Z</time>
      </trkpt>
      <trkpt lat="46.29907" lon="-0.50896">
        <ele>74</ele>
        <time>2012-01-12T16:18:19Z</time>
      </trkpt>
      <trkpt lat="46.2991" lon="-0.50902">
        <ele>74</ele>
        <time>2012-01-12T16:18:24Z</time>
      </trkpt>
      <trkpt lat="46.29912" lon="-0.50908">
        <ele>73</ele>
        <time>2012-01-12T16:18:29Z</time>
      </trkpt>
      <trkpt lat="46.29916" lon="-0.50913">
        <ele>73</ele>
        <time>2012-01-12T16:18:34Z</time>
      </trkpt>
      <trkpt lat="46.29918" lon="-0.50919">
        <ele>72</ele>
        <time>2012-01-12T16:18:39Z</time>
      </trkpt>
      <trkpt lat="46.29922" lon="-0.50928">
        <ele>72</ele>
        <time>2012-01-12T16:18:44Z</time>
      </trkpt>
      <trkpt lat="46.29924" lon="-0.50935">
        <ele>72</ele>
        <time>2012-01-12T16:18:49Z</time>
      </trkpt>
      <trkpt lat="46.29927" lon="-0.5094">
        <ele>73</ele>
        <time>2012-01-12T16:18:54Z</time>
      </trkpt>
      <trkpt lat="46.29928" lon="-0.50949">
        <ele>72</ele>
        <time>2012-01-12T16:18:59Z</time>
      </trkpt>
      <trkpt lat="46.29929" lon="-0.50956">
        <ele>72</ele>
        <time>2012-01-12T16:19:04Z</time>
      </trkpt>
      <trkpt lat="46.29932" lon="-0.50963">
        <ele>72</ele>
        <time>2012-01-12T16:19:09Z</time>
      </trkpt>
      <trkpt lat="46.29936" lon="-0.50965">
        <ele>73</ele>
        <time>2012-01-12T16:19:14Z</time>
      </trkpt>
      <trkpt lat="46.2994" lon="-0.50969">
        <ele>74</ele>
        <time>2012-01-12T16:19:19Z</time>
      </trkpt>
      <trkpt lat="46.29941" lon="-0.50982">
        <ele>72</ele>
        <time>2012-01-12T16:19:24Z</time>
      </trkpt>
      <trkpt lat="46.29943" lon="-0.50988">
        <ele>72</ele>
        <time>2012-01-12T16:19:29Z</time>
      </trkpt>
      <trkpt lat="46.29946" lon="-0.50994">
        <ele>73</ele>
        <time>2012-01-12T16:19:34Z</time>
      </trkpt>
      <trkpt lat="46.29948" lon="-0.51001">
        <ele>74</ele>
        <time>2012-01-12T16:19:39Z</time>
      </trkpt>
      <trkpt lat="46.2995" lon="-0.51007">
        <ele>73</ele>
        <time>2012-01-12T16:19:44Z</time>
      </trkpt>
      <trkpt lat="46.29957" lon="-0.51006">
        <ele>73</ele>
        <time>2012-01-12T16:19:49Z</time>
      </trkpt>
      <trkpt lat="46.29957" lon="-0.51016">
        <ele>72</ele>
        <time>2012-01-12T16:19:54Z</time>
      </trkpt>
      <trkpt lat="46.29962" lon="-0.51018">
        <ele>71</ele>
        <time>2012-01-12T16:19:59Z</time>
      </trkpt>
      <trkpt lat="46.29969" lon="-0.51023">
        <ele>74</ele>
        <time>2012-01-12T16:20:04Z</time>
      </trkpt>
      <trkpt lat="46.29969" lon="-0.51031">
        <ele>73</ele>
        <time>2012-01-12T16:20:09Z</time>
      </trkpt>
      <trkpt lat="46.29973" lon="-0.51033">
        <ele>72</ele>
        <time>2012-01-12T16:20:14Z</time>
      </trkpt>
      <trkpt lat="46.29976" lon="-0.5104">
        <ele>72</ele>
        <time>2012-01-12T16:20:19Z</time>
      </trkpt>
      <trkpt lat="46.2998" lon="-0.51048">
        <ele>74</ele>
        <time>2012-01-12T16:20:24Z</time>
      </trkpt>
      <trkpt lat="46.29984" lon="-0.51054">
        <ele>74</ele>
        <time>2012-01-12T16:20:29Z</time>
      </trkpt>
      <trkpt lat="46.29986" lon="-0.51055">
        <ele>73</ele>
        <time>2012-01-12T16:20:34Z</time>
      </trkpt>
      <trkpt lat="46.29991" lon="-0.51057">
        <ele>73</ele>
        <time>2012-01-12T16:20:39Z</time>
      </trkpt>
      <trkpt lat="46.29995" lon="-0.5106">
        <ele>71</ele>
        <time>2012-01-12T16:20:44Z</time>
      </trkpt>
      <trkpt lat="46.29998" lon="-0.51066">
        <ele>71</ele>
        <time>2012-01-12T16:20:49Z</time>
      </trkpt>
      <trkpt lat="46.29999" lon="-0.51075">
        <ele>70</ele>
        <time>2012-01-12T16:20:54Z</time>
      </trkpt>
      <trkpt lat="46.3" lon="-0.51085">
        <ele>70</ele>
        <time>2012-01-12T16:20:59Z</time>
      </trkpt>
      <trkpt lat="46.30002" lon="-0.51091">
        <ele>71</ele>
        <time>2012-01-12T16:21:04Z</time>
      </trkpt>
      <trkpt lat="46.30006" lon="-0.51096">
        <ele>70</ele>
        <time>2012-01-12T16:21:09Z</time>
      </trkpt>
      <trkpt lat="46.30007" lon="-0.51102">
        <ele>70</ele>
        <time>2012-01-12T16:21:14Z</time>
      </trkpt>
      <trkpt lat="46.30009" lon="-0.51109">
        <ele>71</ele>
        <time>2012-01-12T16:21:19Z</time>
      </trkpt>
      <trkpt lat="46.3001" lon="-0.51114">
        <ele>71</ele>
        <time>2012-01-12T16:21:24Z</time>
      </trkpt>
      <trkpt lat="46.3001" lon="-0.51121">
        <ele>70</ele>
        <time>2012-01-12T16:21:29Z</time>
      </trkpt>
      <trkpt lat="46.30011" lon="-0.51129">
        <ele>70</ele>
        <time>2012-01-12T16:21:34Z</time>
      </trkpt>
      <trkpt lat="46.30013" lon="-0.51135">
        <ele>71</ele>
        <time>2012-01-12T16:21:39Z</time>
      </trkpt>
      <trkpt lat="46.30014" lon="-0.5114">
        <ele>72</ele>
        <time>2012-01-12T16:21:44Z</time>
      </trkpt>
      <trkpt lat="46.30016" lon="-0.51148">
        <ele>71</ele>
        <time>2012-01-12T16:21:49Z</time>
      </trkpt>
      <trkpt lat="46.30017" lon="-0.51156">
        <ele>72</ele>
        <time>2012-01-12T16:21:54Z</time>
      </trkpt>
      <trkpt lat="46.30021" lon="-0.51163">
        <ele>74</ele>
        <time>2012-01-12T16:21:59Z</time>
      </trkpt>
      <trkpt lat="46.30024" lon="-0.51167">
        <ele>73</ele>
        <time>2012-01-12T16:22:04Z</time>
      </trkpt>
      <trkpt lat="46.3003" lon="-0.51174">
        <ele>73</ele>
        <time>2012-01-12T16:22:09Z</time>
      </trkpt>
      <trkpt lat="46.30028" lon="-0.51184">
        <ele>71</ele>
        <time>2012-01-12T16:22:14Z</time>
      </trkpt>
      <trkpt lat="46.30025" lon="-0.51194">
        <ele>67</ele>
        <time>2012-01-12T16:22:19Z</time>
      </trkpt>
      <trkpt lat="46.30027" lon="-0.51193">
        <ele>67</ele>
        <time>2012-01-12T16:22:24Z</time>
      </trkpt>
      <trkpt lat="46.30027" lon="-0.51198">
        <ele>66</ele>
        <time>2012-01-12T16:22:29Z</time>
      </trkpt>
      <trkpt lat="46.30028" lon="-0.51203">
        <ele>67</ele>
        <time>2012-01-12T16:22:34Z</time>
      </trkpt>
      <trkpt lat="46.30029" lon="-0.51201">
        <ele>67</ele>
        <time>2012-01-12T16:22:44Z</time>
      </trkpt>
    </trkseg>
  </trk>
</gpx>